Darstellungsparameter: Aktuell verwendete Einstellungen:
Skalierung der Graphiken ... ?
xyx+y,   Skalierungsfaktor:      Skalierung: Modus: x, Faktor: 1
Darstellungszeitraum ... ?
Vom - - bis: - -   Zeitraum: 26.01.2010 - 24.04.2010
Min/Max/Avg-Anzeige ... ?
Zeige MMA aktuell
Zeige MMA Monat
Zeige MMA alles
Zeige --A aktuell
Zeige --A Monat
Zeige --A alles
Keine MMA-Anzeige
MMA:
Average (ber die Originaldaten)
MMA-Basis: 26.01.2010 - 24.04.2010
Quicknavigation für Darstellung... ?
Tage:      1T, 2T, 3T, 5T -1T -2T -3T -5T +1T +2T +3T +5T
Wochen: 1W, 2W, 3W -1W -2W -3W +1W +2W +3W
Monate: 1M, 3M, 6M -1M -3M -6M +1M +3M +6M
Jahre:    1J, 3J, 5J, 10J -1J -3J -5J -10J +1J +3J +5J +10J
Nutze für die Darstellung ... ?
Originaldaten oder Mittelwerte auf ...
Stundenbasis Tagesbasis Wochenbasis
Monatsbasis Jahresbasis      Datenbasis: Original-Daten
Darstellen als:
Statistik (Auto) Statistik J:M      Darstellung:
Zur Graphik,    zurück zur Übersicht aller Sensoren.
 
Tabellarische Datenbersicht: ?
 
</
Sensor: Nr:Datum:Temp:Abs-Feuchte:Windchill:Wind:
Aussen-T/F 1 26-01-2010 00:04:03 -1.1 C 3.91 g/m*3 -1.1 C 0 km/h
2 26-01-2010 00:16:03 -1.1 C 3.91 g/m*3 -1.1 C 0 km/h
3 26-01-2010 00:28:03 -1.1 C 3.91 g/m*3 -1.1 C 0 km/h
4 26-01-2010 00:40:03 -1.1 C 3.91 g/m*3 -1.1 C 0 km/h
5 26-01-2010 00:52:03 -1.4 C 3.82 g/m*3 -1.4 C 0 km/h
6 26-01-2010 01:04:03 -1.5 C 3.84 g/m*3 -1.5 C 0 km/h
7 26-01-2010 01:16:03 -1.6 C 3.81 g/m*3 -1.6 C 0 km/h
8 26-01-2010 01:28:03 -1.4 C 3.87 g/m*3 -1.4 C 0 km/h
9 26-01-2010 01:40:04 -1.7 C 3.79 g/m*3 -1.7 C 0 km/h
10 26-01-2010 01:52:04 -1.6 C 3.81 g/m*3 -1.6 C 0 km/h
11 26-01-2010 02:04:04 -1.5 C 3.84 g/m*3 -1.5 C 0 km/h
12 26-01-2010 02:16:04 -1.7 C 3.79 g/m*3 -1.7 C 0 km/h
13 26-01-2010 02:28:04 -1.8 C 3.76 g/m*3 -1.8 C 0 km/h
14 26-01-2010 02:40:04 -1.8 C 3.76 g/m*3 -1.8 C 0 km/h
15 26-01-2010 02:52:04 -1.9 C 3.74 g/m*3 -1.9 C 0 km/h
16 26-01-2010 03:04:04 -1.7 C 3.79 g/m*3 -1.7 C 0 km/h
17 26-01-2010 03:16:04 -1.7 C 3.79 g/m*3 -1.7 C 0 km/h
18 26-01-2010 03:28:04 -1.8 C 3.76 g/m*3 -1.8 C 0 km/h
19 26-01-2010 03:40:04 -2.1 C 3.68 g/m*3 -2.1 C 0 km/h
20 26-01-2010 03:52:04 -2 C 3.75 g/m*3 -2 C 0 km/h
21 26-01-2010 04:04:04 -2.1 C 3.73 g/m*3 -2.1 C 0 km/h
22 26-01-2010 04:16:04 -2.1 C 3.73 g/m*3 -2.1 C 0 km/h
23 26-01-2010 04:28:04 -2.1 C 3.73 g/m*3 -2.1 C 0 km/h
24 26-01-2010 04:40:04 -2.2 C 3.66 g/m*3 -2.2 C 0 km/h
25 26-01-2010 04:52:04 -2.2 C 3.66 g/m*3 -2.2 C 0 km/h
Sensor: Nr:Datum:Temp:Abs-Feuchte:Windchill:Wind:
Aussen-T/F 26 26-01-2010 05:04:04 -2.2 C 3.66 g/m*3 -2.2 C 0 km/h
27 26-01-2010 05:16:04 -2.1 C 3.68 g/m*3 -2.1 C 0 km/h
28 26-01-2010 05:28:04 -2.2 C 3.66 g/m*3 -2.2 C 0 km/h
29 26-01-2010 05:40:05 -2.1 C 3.68 g/m*3 -2.1 C 0 km/h
30 26-01-2010 05:52:05 -2.3 C 3.59 g/m*3 -2.3 C 0 km/h
31 26-01-2010 06:04:05 -2.3 C 3.59 g/m*3 -2.3 C 0 km/h
32 26-01-2010 06:16:05 -2.3 C 3.59 g/m*3 -2.3 C 0 km/h
33 26-01-2010 06:28:05 -2.3 C 3.59 g/m*3 -2.3 C 0 km/h
34 26-01-2010 06:40:05 -2.4 C 3.57 g/m*3 -2.4 C 0 km/h
35 26-01-2010 06:52:05 -2.4 C 3.57 g/m*3 -2.4 C 0 km/h
36 26-01-2010 07:04:02 -2.3 C 3.59 g/m*3 -2.3 C 0 km/h
37 26-01-2010 07:16:02 -2.2 C 3.62 g/m*3 -2.2 C 0 km/h
38 26-01-2010 07:28:02 -2.1 C 3.64 g/m*3 -2.1 C 0 km/h
39 26-01-2010 07:40:02 -2.1 C 3.6 g/m*3 -2.1 C 0 km/h
40 26-01-2010 07:52:02 -2.1 C 3.56 g/m*3 -2.1 C 0 km/h
41 26-01-2010 08:04:02 -2.1 C 3.52 g/m*3 -2.1 C 0 km/h
42 26-01-2010 08:16:02 -2.7 C 3.21 g/m*3 -2.7 C 0 km/h
43 26-01-2010 08:28:02 -2.8 C 3.11 g/m*3 -2.8 C 0 km/h
44 26-01-2010 08:40:02 -3 C 2.99 g/m*3 -3 C 0 km/h
45 26-01-2010 08:52:02 -3.3 C 2.81 g/m*3 -3.3 C 0 km/h
46 26-01-2010 09:04:02 -3.3 C 2.81 g/m*3 -3.3 C 0 km/h
47 26-01-2010 09:16:02 -3.3 C 2.77 g/m*3 -3.3 C 0 km/h
48 26-01-2010 09:28:02 -3.3 C 2.73 g/m*3 -3.3 C 0 km/h
49 26-01-2010 09:40:02 -3.8 C 2.49 g/m*3 -3.8 C 0 km/h
50 26-01-2010 09:52:02 -3.9 C 2.47 g/m*3 -3.9 C 0 km/h
Sensor: Nr:Datum:Temp:Abs-Feuchte:Windchill:Wind:
Aussen-T/F 51 26-01-2010 10:04:02 -3.7 C 2.47 g/m*3 -3.7 C 0 km/h
52 26-01-2010 10:16:02 -3.5 C 2.46 g/m*3 -3.5 C 0 km/h
53 26-01-2010 10:28:02 -3.5 C 2.39 g/m*3 -3.5 C 0 km/h
54 26-01-2010 10:40:02 -3.2 C 2.44 g/m*3 -3.2 C 0 km/h
55 26-01-2010 10:52:01 -3.2 C 2.4 g/m*3 -3.2 C 0 km/h
56 26-01-2010 11:04:01 -3.3 C 2.31 g/m*3 -3.3 C 0 km/h
57 26-01-2010 11:16:02 -3.4 C 2.29 g/m*3 -3.4 C 0 km/h
58 26-01-2010 11:28:02 -3.1 C 2.38 g/m*3 -3.1 C 0 km/h
59 26-01-2010 11:40:01 -2.8 C 2.43 g/m*3 -2.8 C 0 km/h
60 26-01-2010 11:52:02 -2.7 C 2.45 g/m*3 -2.7 C 0 km/h
61 26-01-2010 12:04:02 -2.9 C 2.37 g/m*3 -2.9 C 0 km/h
62 26-01-2010 12:16:03 -2.7 C 2.41 g/m*3 -2.7 C 0 km/h
63 26-01-2010 12:28:03 -2.7 C 2.37 g/m*3 -2.7 C 0 km/h
64 26-01-2010 12:40:02 -2.5 C 2.36 g/m*3 -2.5 C 0 km/h
65 26-01-2010 12:52:03 -2.5 C 2.36 g/m*3 -2.5 C 0 km/h
66 26-01-2010 13:04:02 -3 C 2.24 g/m*3 -3 C 0 km/h
67 26-01-2010 13:16:02 -3 C 2.24 g/m*3 -3 C 0 km/h
68 26-01-2010 13:28:02 -2.5 C 2.36 g/m*3 -2.5 C 0 km/h
69 26-01-2010 13:40:02 -2.1 C 2.34 g/m*3 -2.1 C 0 km/h
70 26-01-2010 13:52:02 -1.7 C 2.37 g/m*3 -1.7 C 0 km/h
71 26-01-2010 14:04:02 -1.4 C 2.37 g/m*3 -1.4 C 0 km/h
72 26-01-2010 14:16:02 -1.1 C 2.38 g/m*3 -1.1 C 0 km/h
73 26-01-2010 14:28:02 -0.9 C 2.37 g/m*3 -0.9 C 0 km/h
74 26-01-2010 14:40:01 -0.9 C 2.32 g/m*3 -0.9 C 0 km/h
75 26-01-2010 14:52:02 -1.1 C 2.29 g/m*3 -1.1 C 0 km/h
Sensor: Nr:Datum:Temp:Abs-Feuchte:Windchill:Wind:
Aussen-T/F 76 26-01-2010 15:04:01 -1 C 2.35 g/m*3 -1 C 0 km/h
77 26-01-2010 15:16:02 -0.7 C 2.4 g/m*3 -0.7 C 0 km/h
78 26-01-2010 15:28:02 -1.1 C 2.29 g/m*3 -1.1 C 0 km/h
79 26-01-2010 15:40:02 -1.4 C 2.29 g/m*3 -1.4 C 0 km/h
80 26-01-2010 15:52:02 -1.6 C 2.34 g/m*3 -1.6 C 0 km/h
81 26-01-2010 16:04:02 -1.9 C 2.33 g/m*3 -1.9 C 0 km/h
82 26-01-2010 16:16:02 -2.1 C 2.34 g/m*3 -2.1 C 0 km/h
83 26-01-2010 16:28:02 -2.4 C 2.34 g/m*3 -2.4 C 0 km/h
84 26-01-2010 16:40:03 -2.8 C 2.31 g/m*3 -2.8 C 0 km/h
85 26-01-2010 16:52:02 -3 C 2.32 g/m*3 -3 C 0 km/h
86 26-01-2010 17:04:02 -3.3 C 2.31 g/m*3 -3.3 C 0 km/h
87 26-01-2010 17:16:01 -3.5 C 2.31 g/m*3 -3.5 C 0 km/h
88 26-01-2010 17:28:01 -3.7 C 2.32 g/m*3 -3.7 C 0 km/h
89 26-01-2010 17:40:02 -4.1 C 2.29 g/m*3 -4.1 C 0 km/h
90 26-01-2010 17:52:02 -4.3 C 2.33 g/m*3 -4.3 C 0 km/h
91 26-01-2010 18:04:02 -4.6 C 2.31 g/m*3 -4.6 C 0 km/h
92 26-01-2010 18:16:02 -4.8 C 2.31 g/m*3 -4.8 C 0 km/h
93 26-01-2010 18:28:02 -4.9 C 2.33 g/m*3 -4.9 C 0 km/h
94 26-01-2010 18:40:02 -4.9 C 2.37 g/m*3 -4.9 C 0 km/h
95 26-01-2010 18:52:01 -5.1 C 2.3 g/m*3 -5.1 C 0 km/h
96 26-01-2010 19:04:02 -5.3 C 2.3 g/m*3 -5.3 C 0 km/h
97 26-01-2010 19:16:01 -5.4 C 2.32 g/m*3 -5.4 C 0 km/h
98 26-01-2010 19:28:01 -5.6 C 2.28 g/m*3 -5.6 C 0 km/h
99 26-01-2010 19:40:01 -5.7 C 2.3 g/m*3 -5.7 C 0 km/h
100 26-01-2010 19:52:01 -5.9 C 2.3 g/m*3 -5.9 C 0 km/h
Sensor: Nr:Datum:Temp:Abs-Feuchte:Windchill:Wind:
Aussen-T/F 101 26-01-2010 20:04:02 -6 C 2.31 g/m*3 -6 C 0 km/h
102 26-01-2010 20:16:01 -6 C 2.34 g/m*3 -6 C 0 km/h
103 26-01-2010 20:28:01 -6.2 C 2.31 g/m*3 -6.2 C 0 km/h
104 26-01-2010 20:40:01 -6.4 C 2.28 g/m*3 -6.4 C 0 km/h
105 26-01-2010 20:52:01 -6.4 C 2.28 g/m*3 -6.4 C 0 km/h
106 26-01-2010 21:04:02 -6.6 C 2.27 g/m*3 -6.6 C 0 km/h
107 26-01-2010 21:16:02 -6.7 C 2.26 g/m*3 -6.7 C 0 km/h
108 26-01-2010 21:28:02 -6.9 C 2.22 g/m*3 -6.9 C 0 km/h
109 26-01-2010 21:40:01 -7 C 2.21 g/m*3 -7 C 0 km/h
110 26-01-2010 21:52:01 -6.9 C 2.25 g/m*3 -6.9 C 0 km/h
111 26-01-2010 22:04:01 -7 C 2.27 g/m*3 -7 C 0 km/h
112 26-01-2010 22:16:01 -7.1 C 2.25 g/m*3 -7.1 C 0 km/h
113 26-01-2010 22:28:01 -7.2 C 2.23 g/m*3 -7.2 C 0 km/h
114 26-01-2010 22:40:02 -7.1 C 2.25 g/m*3 -7.1 C 0 km/h
115 26-01-2010 22:52:02 -7.2 C 2.23 g/m*3 -7.2 C 0 km/h
116 26-01-2010 23:04:02 -7.5 C 2.16 g/m*3 -7.5 C 0 km/h
117 26-01-2010 23:16:02 -7.6 C 2.14 g/m*3 -7.6 C 0 km/h
118 26-01-2010 23:28:02 -7.7 C 2.13 g/m*3 -7.7 C 0 km/h
119 26-01-2010 23:40:02 -7.7 C 2.13 g/m*3 -7.7 C 0 km/h
120 26-01-2010 23:52:01 -8.1 C 2.06 g/m*3 -8.1 C 0 km/h
121 27-01-2010 00:04:02 -8.2 C 2.05 g/m*3 -8.2 C 0 km/h
122 27-01-2010 00:16:01 -8.3 C 2.03 g/m*3 -8.3 C 0 km/h
123 27-01-2010 00:28:01 -8.2 C 2.07 g/m*3 -8.2 C 0 km/h
124 27-01-2010 00:40:02 -8.3 C 2.06 g/m*3 -8.3 C 0 km/h
125 27-01-2010 00:53:02 -8.6 C 2.01 g/m*3 -8.6 C 0 km/h
Sensor: Nr:Datum:Temp:Abs-Feuchte:Windchill:Wind:
Aussen-T/F 126 27-01-2010 01:05:02 -8.8 C 1.98 g/m*3 -8.8 C 0 km/h
127 27-01-2010 01:17:02 -8.9 C 1.97 g/m*3 -8.9 C 0 km/h
128 27-01-2010 01:29:02 -8.9 C 1.97 g/m*3 -8.9 C 0 km/h
129 27-01-2010 01:41:02 -8.9 C 1.97 g/m*3 -8.9 C 0 km/h
130 27-01-2010 01:53:02 -9.2 C 1.93 g/m*3 -9.2 C 0 km/h
131 27-01-2010 02:05:02 -9.3 C 1.91 g/m*3 -9.3 C 0 km/h
132 27-01-2010 02:17:02 -9.1 C 1.94 g/m*3 -9.1 C 0 km/h
133 27-01-2010 02:29:02 -9.3 C 1.91 g/m*3 -9.3 C 0 km/h
134 27-01-2010 02:41:02 -9.4 C 1.9 g/m*3 -9.4 C 0 km/h
135 27-01-2010 02:53:02 -9.4 C 1.9 g/m*3 -9.4 C 0 km/h
136 27-01-2010 03:05:02 -9.3 C 1.91 g/m*3 -9.3 C 0 km/h
137 27-01-2010 03:17:02 -9.1 C 1.94 g/m*3 -9.1 C 0 km/h
138 27-01-2010 03:29:02 -9.1 C 1.94 g/m*3 -9.1 C 0 km/h
139 27-01-2010 03:41:02 -8.9 C 1.97 g/m*3 -8.9 C 0 km/h
140 27-01-2010 03:53:03 -8.9 C 1.94 g/m*3 -8.9 C 0 km/h
141 27-01-2010 04:05:03 -8.8 C 1.96 g/m*3 -8.8 C 0 km/h
142 27-01-2010 04:17:03 -8.8 C 1.93 g/m*3 -8.8 C 0 km/h
143 27-01-2010 04:29:03 -8.5 C 2 g/m*3 -8.5 C 0 km/h
144 27-01-2010 04:41:03 -8.4 C 2.02 g/m*3 -8.4 C 0 km/h
145 27-01-2010 04:53:03 -8.4 C 2.02 g/m*3 -8.4 C 0 km/h
146 27-01-2010 05:05:03 -8.4 C 2.04 g/m*3 -8.4 C 0 km/h
147 27-01-2010 05:17:03 -8.4 C 2.02 g/m*3 -8.4 C 0 km/h
148 27-01-2010 05:29:03 -8.6 C 1.96 g/m*3 -8.6 C 0 km/h
149 27-01-2010 05:41:03 -8.7 C 1.92 g/m*3 -8.7 C 0 km/h
150 27-01-2010 05:53:03 -8.8 C 1.91 g/m*3 -8.8 C 0 km/h
Sensor: Nr:Datum:Temp:Abs-Feuchte:Windchill:Wind:
Aussen-T/F 151 27-01-2010 06:05:03 -8.7 C 1.95 g/m*3 -8.7 C 0 km/h
152 27-01-2010 06:17:03 -8.8 C 1.93 g/m*3 -8.8 C 0 km/h
153 27-01-2010 06:29:03 -8.9 C 1.92 g/m*3 -8.9 C 0 km/h
154 27-01-2010 06:41:03 -9.1 C 1.89 g/m*3 -9.1 C 0 km/h
155 27-01-2010 06:53:03 -9.2 C 1.88 g/m*3 -9.2 C 0 km/h
156 27-01-2010 07:05:01 -9.4 C 1.82 g/m*3 -9.4 C 0 km/h
157 27-01-2010 07:17:02 -9.3 C 1.84 g/m*3 -9.3 C 0 km/h
158 27-01-2010 07:29:02 -9.1 C 1.89 g/m*3 -9.1 C 0 km/h
159 27-01-2010 07:41:02 -9.1 C 1.89 g/m*3 -9.1 C 0 km/h
160 27-01-2010 07:53:01 -9.2 C 1.88 g/m*3 -9.2 C 0 km/h
161 27-01-2010 08:05:02 -9.3 C 1.84 g/m*3 -9.3 C 0 km/h
162 27-01-2010 08:17:01 -9.2 C 1.88 g/m*3 -9.2 C 0 km/h
163 27-01-2010 08:29:01 -9.2 C 1.88 g/m*3 -9.2 C 0 km/h
164 27-01-2010 08:41:02 -9.2 C 1.88 g/m*3 -9.2 C 0 km/h
165 27-01-2010 08:53:02 -9.3 C 1.86 g/m*3 -9.3 C 0 km/h
166 27-01-2010 09:05:02 -9.2 C 1.88 g/m*3 -9.2 C 0 km/h
167 27-01-2010 09:17:01 -9 C 1.88 g/m*3 -9 C 0 km/h
168 27-01-2010 09:29:01 -8.8 C 1.91 g/m*3 -8.8 C 0 km/h
169 27-01-2010 09:41:02 -8.6 C 1.91 g/m*3 -8.6 C 0 km/h
170 27-01-2010 09:53:02 -8.6 C 1.88 g/m*3 -8.6 C 0 km/h
171 27-01-2010 10:05:02 -8.7 C 1.84 g/m*3 -8.7 C 0 km/h
172 27-01-2010 10:17:01 -8.6 C 1.86 g/m*3 -8.6 C 0 km/h
173 27-01-2010 10:29:01 -8.4 C 1.88 g/m*3 -8.4 C 0 km/h
174 27-01-2010 10:41:02 -7.8 C 1.94 g/m*3 -7.8 C 0 km/h
175 27-01-2010 10:53:02 -7.5 C 1.96 g/m*3 -7.5 C 0 km/h
Sensor: Nr:Datum:Temp:Abs-Feuchte:Windchill:Wind:
Aussen-T/F 176 27-01-2010 11:05:02 -6.9 C 2.02 g/m*3 -6.9 C 0 km/h
177 27-01-2010 11:17:01 -7 C 1.94 g/m*3 -7 C 0 km/h
178 27-01-2010 11:29:01 -6.9 C 1.96 g/m*3 -6.9 C 0 km/h
179 27-01-2010 11:41:02 -6.5 C 2.02 g/m*3 -6.5 C 0 km/h
180 27-01-2010 11:53:02 -5.8 C 2.09 g/m*3 -5.8 C 0 km/h
181 27-01-2010 12:05:02 -5.3 C 2.13 g/m*3 -5.3 C 0 km/h
182 27-01-2010 12:17:02 -5.1 C 2.1 g/m*3 -5.1 C 0 km/h
183 27-01-2010 12:29:02 -4.7 C 2.16 g/m*3 -4.7 C 0 km/h
184 27-01-2010 12:41:02 -4.2 C 2.16 g/m*3 -4.2 C 0 km/h
185 27-01-2010 12:53:01 -3.9 C 2.14 g/m*3 -3.9 C 0 km/h
186 27-01-2010 13:05:02 -4.5 C 1.98 g/m*3 -4.5 C 0 km/h
187 27-01-2010 13:17:02 -4.4 C 2.06 g/m*3 -4.4 C 0 km/h
188 27-01-2010 13:29:02 -3.9 C 2.1 g/m*3 -3.9 C 0 km/h
189 27-01-2010 13:41:01 -3.3 C 2.19 g/m*3 -3.3 C 0 km/h
190 27-01-2010 13:53:02 -2.6 C 2.34 g/m*3 -2.6 C 0 km/h
191 27-01-2010 14:05:01 -2.2 C 2.37 g/m*3 -2.2 C 0 km/h
192 27-01-2010 14:17:02 -2.4 C 2.25 g/m*3 -2.4 C 0 km/h
193 27-01-2010 14:29:02 -2.2 C 2.33 g/m*3 -2.2 C 0 km/h
194 27-01-2010 14:41:01 -2.1 C 2.34 g/m*3 -2.1 C 0 km/h
195 27-01-2010 14:53:02 -2 C 2.44 g/m*3 -2 C 0 km/h
196 27-01-2010 15:05:01 -2 C 2.44 g/m*3 -2 C 0 km/h
197 27-01-2010 15:17:01 -2.1 C 2.43 g/m*3 -2.1 C 0 km/h
198 27-01-2010 15:29:02 -2.1 C 2.47 g/m*3 -2.1 C 0 km/h
199 27-01-2010 15:41:01 -2.3 C 2.44 g/m*3 -2.3 C 0 km/h
200 27-01-2010 15:53:02 -2.2 C 2.45 g/m*3 -2.2 C 0 km/h
Sensor: Nr:Datum:Temp:Abs-Feuchte:Windchill:Wind:
Aussen-T/F 201 27-01-2010 16:05:01 -2.1 C 2.39 g/m*3 -2.1 C 0 km/h
202 27-01-2010 16:17:02 -2.1 C 2.39 g/m*3 -2.1 C 0 km/h
203 27-01-2010 16:29:02 -2 C 2.32 g/m*3 -2 C 0 km/h
204 27-01-2010 16:41:02 -2.1 C 2.26 g/m*3 -2.1 C 0 km/h
205 27-01-2010 16:53:02 -2.1 C 2.18 g/m*3 -2.1 C 0 km/h
206 27-01-2010 17:05:01 -2.3 C 2.06 g/m*3 -2.3 C 0 km/h
207 27-01-2010 17:17:02 -2.4 C 2.13 g/m*3 -2.4 C 0 km/h
208 27-01-2010 17:29:02 -2.4 C 2.17 g/m*3 -2.4 C 0 km/h
209 27-01-2010 17:41:02 -2.4 C 2.21 g/m*3 -2.4 C 0 km/h
210 27-01-2010 17:53:02 -2.4 C 2.21 g/m*3 -2.4 C 0 km/h
211 27-01-2010 18:05:02 -2.3 C 2.27 g/m*3 -2.3 C 0 km/h
212 27-01-2010 18:17:02 -2.4 C 2.29 g/m*3 -2.4 C 0 km/h
213 27-01-2010 18:29:02 -2.3 C 2.31 g/m*3 -2.3 C 0 km/h
214 27-01-2010 18:41:02 -2.3 C 2.35 g/m*3 -2.3 C 0 km/h
215 27-01-2010 18:53:02 -2.3 C 2.39 g/m*3 -2.3 C 0 km/h
216 27-01-2010 19:05:02 -2.1 C 2.39 g/m*3 -2.1 C 0 km/h
217 27-01-2010 19:17:03 -2 C 2.4 g/m*3 -2 C 0 km/h
218 27-01-2010 19:29:03 -1.9 C 2.42 g/m*3 -1.9 C 0 km/h
219 27-01-2010 19:41:02 -1.6 C 2.34 g/m*3 -1.6 C 0 km/h
220 27-01-2010 19:53:02 -1.6 C 2.38 g/m*3 -1.6 C 0 km/h
221 27-01-2010 20:05:02 -1.7 C 2.37 g/m*3 -1.7 C 0 km/h
222 27-01-2010 20:17:02 -2 C 2.57 g/m*3 -2 C 0 km/h
223 27-01-2010 20:29:02 -2 C 2.57 g/m*3 -2 C 0 km/h
224 27-01-2010 20:41:02 -1.9 C 2.59 g/m*3 -1.9 C 0 km/h
225 27-01-2010 20:53:02 -1.9 C 2.55 g/m*3 -1.9 C 0 km/h
Sensor: Nr:Datum:Temp:Abs-Feuchte:Windchill:Wind:
Aussen-T/F 226 27-01-2010 21:05:02 -1.9 C 2.55 g/m*3 -1.9 C 0 km/h
227 27-01-2010 21:17:02 -2 C 2.66 g/m*3 -2 C 0 km/h
228 27-01-2010 21:29:02 -1.8 C 2.61 g/m*3 -1.8 C 0 km/h
229 27-01-2010 21:41:02 -2 C 2.66 g/m*3 -2 C 0 km/h
230 27-01-2010 21:53:02 -1.9 C 2.67 g/m*3 -1.9 C 0 km/h
231 27-01-2010 22:06:03 -2 C 2.74 g/m*3 -2 C 0 km/h
232 27-01-2010 22:18:03 -2 C 2.74 g/m*3 -2 C 0 km/h
233 27-01-2010 22:30:03 -1.9 C 2.67 g/m*3 -1.9 C 0 km/h
234 27-01-2010 22:42:03 -1.9 C 2.67 g/m*3 -1.9 C 0 km/h
235 27-01-2010 22:54:03 -1.9 C 2.72 g/m*3 -1.9 C 0 km/h
236 27-01-2010 23:06:03 -2 C 2.82 g/m*3 -2 C 0 km/h
237 27-01-2010 23:18:03 -2 C 2.91 g/m*3 -2 C 0 km/h
238 27-01-2010 23:30:03 -2 C 2.87 g/m*3 -2 C 0 km/h
239 27-01-2010 23:42:03 -2.1 C 2.89 g/m*3 -2.1 C 0 km/h
240 27-01-2010 23:54:03 -2.2 C 2.95 g/m*3 -2.2 C 0 km/h
241 28-01-2010 00:06:03 -2.1 C 2.93 g/m*3 -2.1 C 0 km/h
242 28-01-2010 00:18:03 -2 C 2.99 g/m*3 -2 C 0 km/h
243 28-01-2010 00:30:03 -2.1 C 3.06 g/m*3 -2.1 C 0 km/h
244 28-01-2010 00:42:03 -2 C 3.16 g/m*3 -2 C 0 km/h
245 28-01-2010 00:54:03 -1.9 C 3.18 g/m*3 -1.9 C 0 km/h
246 28-01-2010 01:06:03 -2 C 3.25 g/m*3 -2 C 0 km/h
247 28-01-2010 01:18:03 -2.1 C 3.43 g/m*3 -2.1 C 0 km/h
248 28-01-2010 01:30:03 -2 C 3.5 g/m*3 -2 C 0 km/h
249 28-01-2010 01:42:03 -1.7 C 3.57 g/m*3 -1.7 C 0 km/h
250 28-01-2010 01:54:03 -1.4 C 3.56 g/m*3 -1.4 C 0 km/h
Sensor: Nr:Datum:Temp:Abs-Feuchte:Windchill:Wind:
Aussen-T/F 251 28-01-2010 02:06:04 -1.2 C 3.52 g/m*3 -1.2 C 0 km/h
252 28-01-2010 02:18:04 -1.1 C 3.5 g/m*3 -1.1 C 0 km/h
253 28-01-2010 02:30:04 -1.1 C 3.46 g/m*3 -1.1 C 0 km/h
254 28-01-2010 02:42:04 -1.1 C 3.46 g/m*3 -1.1 C 0 km/h
255 28-01-2010 02:54:04 -1 C 3.53 g/m*3 -1 C 0 km/h
256 28-01-2010 03:06:04 -1 C 3.53 g/m*3 -1 C 0 km/h
257 28-01-2010 03:18:04 -0.9 C 3.55 g/m*3 -0.9 C 0 km/h
258 28-01-2010 03:30:04 -0.9 C 3.55 g/m*3 -0.9 C 0 km/h
259 28-01-2010 03:42:04 -0.9 C 3.6 g/m*3 -0.9 C 0 km/h
260 28-01-2010 03:54:04 -0.9 C 3.64 g/m*3 -0.9 C 0 km/h
261 28-01-2010 04:06:04 -0.9 C 3.69 g/m*3 -0.9 C 0 km/h
262 28-01-2010 04:18:04 -0.8 C 3.71 g/m*3 -0.8 C 0 km/h
263 28-01-2010 04:30:04 -0.7 C 3.78 g/m*3 -0.7 C 0 km/h
264 28-01-2010 04:42:04 -0.5 C 3.84 g/m*3 -0.5 C 0 km/h
265 28-01-2010 04:54:04 -0.5 C 3.84 g/m*3 -0.5 C 0 km/h
266 28-01-2010 05:06:04 -0.7 C 3.92 g/m*3 -0.7 C 0 km/h
267 28-01-2010 05:18:04 -0.7 C 4.06 g/m*3 -0.7 C 0 km/h
268 28-01-2010 05:30:04 -0.7 C 4.11 g/m*3 -0.7 C 0 km/h
269 28-01-2010 05:42:04 -0.5 C 4.21 g/m*3 -0.5 C 0 km/h
270 28-01-2010 05:54:04 0.1 C 4.44 g/m*3 0.1 C 0 km/h
271 28-01-2010 06:06:05 0.3 C 4.5 g/m*3 0.3 C 0 km/h
272 28-01-2010 06:18:05 0.4 C 4.53 g/m*3 0.4 C 0 km/h
273 28-01-2010 06:30:05 1 C 4.67 g/m*3 1 C 0 km/h
274 28-01-2010 06:42:05 1.5 C 4.62 g/m*3 1.5 C 0 km/h
275 28-01-2010 06:54:05 1.3 C 4.45 g/m*3 1.3 C 0 km/h
Sensor: Nr:Datum:Temp:Abs-Feuchte:Windchill:Wind:
Aussen-T/F 276 28-01-2010 07:06:03 1.3 C 4.34 g/m*3 1.3 C 0 km/h
277 28-01-2010 07:18:02 1.2 C 4.31 g/m*3 1.2 C 0 km/h
278 28-01-2010 07:30:02 1.1 C 4.29 g/m*3 1.1 C 0 km/h
279 28-01-2010 07:42:02 1.1 C 4.29 g/m*3 1.1 C 0 km/h
280 28-01-2010 07:54:01 1.2 C 4.31 g/m*3 1.2 C 0 km/h
281 28-01-2010 08:06:02 1.1 C 4.34 g/m*3 1.1 C 0 km/h
282 28-01-2010 08:18:01 1 C 4.36 g/m*3 1 C 0 km/h
283 28-01-2010 08:30:01 1.4 C 4.48 g/m*3 1.4 C 0 km/h
284 28-01-2010 08:42:01 1.4 C 4.48 g/m*3 1.4 C 0 km/h
285 28-01-2010 08:54:01 1.5 C 4.46 g/m*3 1.5 C 0 km/h
286 28-01-2010 09:06:01 1.5 C 4.46 g/m*3 1.5 C 0 km/h
287 28-01-2010 09:18:02 1.6 C 4.43 g/m*3 1.6 C 0 km/h
288 28-01-2010 09:30:02 1.7 C 4.41 g/m*3 1.7 C 0 km/h
289 28-01-2010 09:42:01 1.8 C 4.39 g/m*3 1.8 C 0 km/h
290 28-01-2010 09:54:02 1.9 C 4.42 g/m*3 1.9 C 0 km/h
291 28-01-2010 10:06:01 2.1 C 4.31 g/m*3 2.1 C 0 km/h
292 28-01-2010 10:18:02 2.2 C 4.22 g/m*3 2.2 C 0 km/h
293 28-01-2010 10:30:02 2.4 C 4.17 g/m*3 2.4 C 0 km/h
294 28-01-2010 10:42:01 2.6 C 4.11 g/m*3 2.6 C 0 km/h
295 28-01-2010 10:54:02 2.8 C 4.05 g/m*3 2.8 C 0 km/h
296 28-01-2010 11:06:02 3 C 3.98 g/m*3 3 C 0 km/h
297 28-01-2010 11:18:02 2.8 C 3.99 g/m*3 2.8 C 0 km/h
298 28-01-2010 11:30:02 2.6 C 3.99 g/m*3 2.6 C 0 km/h
299 28-01-2010 11:42:01 2.5 C 4.02 g/m*3 2.5 C 0 km/h
300 28-01-2010 11:54:02 2.8 C 4.05 g/m*3 2.8 C 0 km/h
Sensor: Nr:Datum:Temp:Abs-Feuchte:Windchill:Wind:
Aussen-T/F 301 28-01-2010 12:06:01 3.3 C 3.94 g/m*3 3.3 C 0 km/h
302 28-01-2010 12:18:01 3.1 C 3.89 g/m*3 3.1 C 0 km/h
303 28-01-2010 12:30:01 3.4 C 3.91 g/m*3 3.4 C 0 km/h
304 28-01-2010 12:42:02 3.3 C 3.82 g/m*3 3.3 C 0 km/h
305 28-01-2010 12:54:02 2.9 C 3.96 g/m*3 2.9 C 0 km/h
306 28-01-2010 13:06:02 2.9 C 4.07 g/m*3 2.9 C 0 km/h
307 28-01-2010 13:18:02 3.3 C 4 g/m*3 3.3 C 0 km/h
308 28-01-2010 13:30:02 3.5 C 3.87 g/m*3 3.5 C 0 km/h
309 28-01-2010 13:42:02 3.6 C 3.71 g/m*3 3.6 C 0 km/h
310 28-01-2010 13:54:02 3.6 C 3.71 g/m*3 3.6 C 0 km/h
311 28-01-2010 14:06:02 2.7 C 3.9 g/m*3 2.7 C 0 km/h
312 28-01-2010 14:18:02 2.3 C 4.14 g/m*3 2.3 C 0 km/h
313 28-01-2010 14:30:02 2.1 C 4.2 g/m*3 2.1 C 0 km/h
314 28-01-2010 14:42:02 1.8 C 4.44 g/m*3 1.8 C 0 km/h
315 28-01-2010 14:54:02 2.1 C 4.59 g/m*3 2.1 C 0 km/h
316 28-01-2010 15:06:02 2.1 C 4.42 g/m*3 2.1 C 0 km/h
317 28-01-2010 15:18:03 2.3 C 4.2 g/m*3 2.3 C 0 km/h
318 28-01-2010 15:30:03 3.1 C 3.95 g/m*3 3.1 C 0 km/h
319 28-01-2010 15:42:02 3 C 3.75 g/m*3 3 C 0 km/h
320 28-01-2010 15:54:02 3 C 3.69 g/m*3 3 C 0 km/h
321 28-01-2010 16:06:02 3 C 3.69 g/m*3 3 C 0 km/h
322 28-01-2010 16:18:02 3 C 3.63 g/m*3 3 C 0 km/h
323 28-01-2010 16:30:02 2.9 C 3.72 g/m*3 2.9 C 0 km/h
324 28-01-2010 16:42:02 2.8 C 3.75 g/m*3 2.8 C 0 km/h
325 28-01-2010 16:54:02 2.7 C 3.79 g/m*3 2.7 C 0 km/h
Sensor: Nr:Datum:Temp:Abs-Feuchte:Windchill:Wind:
Aussen-T/F 326 28-01-2010 17:06:02 2.6 C 3.88 g/m*3 2.6 C 0 km/h
327 28-01-2010 17:18:02 2.4 C 3.88 g/m*3 2.4 C 0 km/h
328 28-01-2010 17:30:02 2.4 C 3.94 g/m*3 2.4 C 0 km/h
329 28-01-2010 17:42:02 2.4 C 4 g/m*3 2.4 C 0 km/h
330 28-01-2010 17:54:02 1.8 C 4.17 g/m*3 1.8 C 0 km/h
331 28-01-2010 18:06:02 1.7 C 4.3 g/m*3 1.7 C 0 km/h
332 28-01-2010 18:18:02 1.5 C 4.35 g/m*3 1.5 C 0 km/h
333 28-01-2010 18:30:02 1.1 C 4.34 g/m*3 1.1 C 0 km/h
334 28-01-2010 18:42:02 1.2 C 4.53 g/m*3 1.2 C 0 km/h
335 28-01-2010 18:54:02 1.2 C 4.58 g/m*3 1.2 C 0 km/h
336 28-01-2010 19:06:01 1.2 C 4.58 g/m*3 1.2 C 0 km/h
337 28-01-2010 19:18:02 1.2 C 4.58 g/m*3 1.2 C 0 km/h
338 28-01-2010 19:30:02 1.4 C 4.59 g/m*3 1.4 C 0 km/h
339 28-01-2010 19:42:02 1.5 C 4.51 g/m*3 1.5 C 0 km/h
340 28-01-2010 19:54:01 1.5 C 4.4 g/m*3 1.5 C 0 km/h
341 28-01-2010 20:06:01 1.7 C 4.36 g/m*3 1.7 C 0 km/h
342 28-01-2010 20:18:01 1.7 C 4.3 g/m*3 1.7 C 0 km/h
343 28-01-2010 20:30:01 1.6 C 4.27 g/m*3 1.6 C 0 km/h
344 28-01-2010 20:42:02 1.6 C 4.22 g/m*3 1.6 C 0 km/h
345 28-01-2010 20:54:02 1.5 C 4.19 g/m*3 1.5 C 0 km/h
346 28-01-2010 21:06:02 1.5 C 4.19 g/m*3 1.5 C 0 km/h
347 28-01-2010 21:18:02 1.7 C 4.25 g/m*3 1.7 C 0 km/h
348 28-01-2010 21:30:02 1.6 C 4.22 g/m*3 1.6 C 0 km/h
349 28-01-2010 21:42:02 1.5 C 4.19 g/m*3 1.5 C 0 km/h
350 28-01-2010 21:54:01 1.6 C 4.22 g/m*3 1.6 C 0 km/h
Sensor: Nr:Datum:Temp:Abs-Feuchte:Windchill:Wind:
Aussen-T/F 351 28-01-2010 22:06:01 1.6 C 4.22 g/m*3 1.6 C 0 km/h
352 28-01-2010 22:18:02 1.7 C 4.19 g/m*3 1.7 C 0 km/h
353 28-01-2010 22:30:02 1.7 C 4.19 g/m*3 1.7 C 0 km/h
354 28-01-2010 22:42:02 1.6 C 4.16 g/m*3 1.6 C 0 km/h
355 28-01-2010 22:54:02 1.7 C 4.14 g/m*3 1.7 C 0 km/h
356 28-01-2010 23:06:02 1.6 C 4.11 g/m*3 1.6 C 0 km/h
357 28-01-2010 23:18:02 1.6 C 4.16 g/m*3 1.6 C 0 km/h
358 28-01-2010 23:30:02 1.6 C 4.16 g/m*3 1.6 C 0 km/h
359 28-01-2010 23:42:02 1.6 C 4.16 g/m*3 1.6 C 0 km/h
360 28-01-2010 23:54:02 1.4 C 4.21 g/m*3 1.4 C 0 km/h
361 29-01-2010 00:06:02 1.4 C 4.27 g/m*3 1.4 C 0 km/h
362 29-01-2010 00:18:02 1.4 C 4.27 g/m*3 1.4 C 0 km/h
363 29-01-2010 00:30:02 1.5 C 4.3 g/m*3 1.5 C 0 km/h
364 29-01-2010 00:42:02 1.5 C 4.24 g/m*3 1.5 C 0 km/h
365 29-01-2010 00:54:02 1.5 C 4.3 g/m*3 1.5 C 0 km/h
366 29-01-2010 01:06:02 1.5 C 4.3 g/m*3 1.5 C 0 km/h
367 29-01-2010 01:18:02 1.4 C 4.32 g/m*3 1.4 C 0 km/h
368 29-01-2010 01:30:02 1.4 C 4.32 g/m*3 1.4 C 0 km/h
369 29-01-2010 01:42:02 1.4 C 4.37 g/m*3 1.4 C 0 km/h
370 29-01-2010 01:54:02 1.3 C 4.34 g/m*3 1.3 C 0 km/h
371 29-01-2010 02:06:02 1.1 C 4.39 g/m*3 1.1 C 0 km/h
372 29-01-2010 02:18:02 1 C 4.41 g/m*3 1 C 0 km/h
373 29-01-2010 02:30:03 1.1 C 4.49 g/m*3 1.1 C 0 km/h
374 29-01-2010 02:42:03 1.1 C 4.49 g/m*3 1.1 C 0 km/h
375 29-01-2010 02:54:03 1.1 C 4.55 g/m*3 1.1 C 0 km/h
Sensor: Nr:Datum:Temp:Abs-Feuchte:Windchill:Wind:
Aussen-T/F 376 29-01-2010 03:06:03 1.3 C 4.56 g/m*3 1.3 C 0 km/h
377 29-01-2010 03:18:03 1.3 C 4.56 g/m*3 1.3 C 0 km/h
378 29-01-2010 03:30:03 1.3 C 4.56 g/m*3 1.3 C 0 km/h
379 29-01-2010 03:42:03 1.3 C 4.56 g/m*3 1.3 C 0 km/h
380 29-01-2010 03:54:03 1.3 C 4.56 g/m*3 1.3 C 0 km/h
381 29-01-2010 04:06:03 1.3 C 4.56 g/m*3 1.3 C 0 km/h
382 29-01-2010 04:18:03 1.4 C 4.59 g/m*3 1.4 C 0 km/h
383 29-01-2010 04:30:03 1.3 C 4.56 g/m*3 1.3 C 0 km/h
384 29-01-2010 04:42:03 1.4 C 4.59 g/m*3 1.4 C 0 km/h
385 29-01-2010 04:54:03 1.3 C 4.56 g/m*3 1.3 C 0 km/h
386 29-01-2010 05:06:03 1.2 C 4.58 g/m*3 1.2 C 0 km/h
387 29-01-2010 05:18:03 1 C 4.57 g/m*3 1 C 0 km/h
388 29-01-2010 05:30:03 1 C 4.62 g/m*3 1 C 0 km/h
389 29-01-2010 05:42:03 0.9 C 4.64 g/m*3 0.9 C 0 km/h
390 29-01-2010 05:54:03 0.9 C 4.69 g/m*3 0.9 C 0 km/h
391 29-01-2010 06:06:03 0.9 C 4.69 g/m*3 0.9 C 0 km/h
392 29-01-2010 06:18:03 0.9 C 4.74 g/m*3 0.9 C 0 km/h
393 29-01-2010 06:30:03 1 C 4.72 g/m*3 1 C 0 km/h
394 29-01-2010 06:42:04 1 C 4.67 g/m*3 1 C 0 km/h
395 29-01-2010 06:54:04 1 C 4.67 g/m*3 1 C 0 km/h
396 29-01-2010 07:06:01 1 C 4.62 g/m*3 1 C 0 km/h
397 29-01-2010 07:18:02 1 C 4.62 g/m*3 1 C 0 km/h
398 29-01-2010 07:30:02 1 C 4.57 g/m*3 1 C 0 km/h
399 29-01-2010 07:42:01 1 C 4.57 g/m*3 1 C 0 km/h
400 29-01-2010 07:54:02 1.2 C 4.58 g/m*3 1.2 C 0 km/h
Sensor: Nr:Datum:Temp:Abs-Feuchte:Windchill:Wind:
Aussen-T/F 401 29-01-2010 08:06:01 1.4 C 4.53 g/m*3 1.4 C 0 km/h
402 29-01-2010 08:18:01 1.5 C 4.46 g/m*3 1.5 C 0 km/h
403 29-01-2010 08:30:01 1.6 C 4.43 g/m*3 1.6 C 0 km/h
404 29-01-2010 08:42:01 1.6 C 4.38 g/m*3 1.6 C 0 km/h
405 29-01-2010 08:54:02 1.5 C 4.4 g/m*3 1.5 C 0 km/h
406 29-01-2010 09:06:01 1.5 C 4.4 g/m*3 1.5 C 0 km/h
407 29-01-2010 09:18:01 1.6 C 4.43 g/m*3 1.6 C 0 km/h
408 29-01-2010 09:30:01 1.7 C 4.46 g/m*3 1.7 C 0 km/h
409 29-01-2010 09:42:02 1.8 C 4.44 g/m*3 1.8 C 0 km/h
410 29-01-2010 09:54:01 1.9 C 4.42 g/m*3 1.9 C 0 km/h
411 29-01-2010 10:06:02 2.1 C 4.36 g/m*3 2.1 C 0 km/h
412 29-01-2010 10:18:01 2.1 C 4.36 g/m*3 2.1 C 0 km/h
413 29-01-2010 10:30:01 2.2 C 4.39 g/m*3 2.2 C 0 km/h
414 29-01-2010 10:42:01 2.3 C 4.42 g/m*3 2.3 C 0 km/h
415 29-01-2010 10:54:01 2.4 C 4.4 g/m*3 2.4 C 0 km/h
416 29-01-2010 11:06:01 2.5 C 4.37 g/m*3 2.5 C 0 km/h
417 29-01-2010 11:18:01 2.5 C 4.37 g/m*3 2.5 C 0 km/h
418 29-01-2010 11:30:01 2.6 C 4.4 g/m*3 2.6 C 0 km/h
419 29-01-2010 11:42:01 2.7 C 4.37 g/m*3 2.7 C 0 km/h
420 29-01-2010 11:54:01 2.7 C 4.31 g/m*3 2.7 C 0 km/h
421 29-01-2010 12:06:01 2.8 C 4.34 g/m*3 2.8 C 0 km/h
422 29-01-2010 12:18:02 2.8 C 4.34 g/m*3 2.8 C 0 km/h
423 29-01-2010 12:30:02 2.8 C 4.34 g/m*3 2.8 C 0 km/h
424 29-01-2010 12:42:01 2.8 C 4.34 g/m*3 2.8 C 0 km/h
425 29-01-2010 12:54:02 2.8 C 4.4 g/m*3 2.8 C 0 km/h
Sensor: Nr:Datum:Temp:Abs-Feuchte:Windchill:Wind:
Aussen-T/F 426 29-01-2010 13:06:01 2.7 C 4.37 g/m*3 2.7 C 0 km/h
427 29-01-2010 13:18:02 2.7 C 4.43 g/m*3 2.7 C 0 km/h
428 29-01-2010 13:30:02 2.7 C 4.43 g/m*3 2.7 C 0 km/h
429 29-01-2010 13:42:01 2.7 C 4.43 g/m*3 2.7 C 0 km/h
430 29-01-2010 13:54:02 2.5 C 4.43 g/m*3 2.5 C 0 km/h
431 29-01-2010 14:06:01 2.4 C 4.51 g/m*3 2.4 C 0 km/h
432 29-01-2010 14:18:01 2.2 C 4.56 g/m*3 2.2 C 0 km/h
433 29-01-2010 14:30:01 2.2 C 4.56 g/m*3 2.2 C 0 km/h
434 29-01-2010 14:42:02 2.2 C 4.56 g/m*3 2.2 C 0 km/h
435 29-01-2010 14:54:01 2.2 C 4.51 g/m*3 2.2 C 0 km/h
436 29-01-2010 15:06:01 2.1 C 4.53 g/m*3 2.1 C 0 km/h
437 29-01-2010 15:18:01 2.1 C 4.53 g/m*3 2.1 C 0 km/h
438 29-01-2010 15:30:01 2 C 4.56 g/m*3 2 C 0 km/h
439 29-01-2010 15:42:02 2 C 4.56 g/m*3 2 C 0 km/h
440 29-01-2010 15:54:01 2.1 C 4.53 g/m*3 2.1 C 0 km/h
441 29-01-2010 16:06:01 2.1 C 4.53 g/m*3 2.1 C 0 km/h
442 29-01-2010 16:18:01 2 C 4.5 g/m*3 2 C 0 km/h
443 29-01-2010 16:30:01 1.8 C 4.55 g/m*3 1.8 C 0 km/h
444 29-01-2010 16:42:02 1.6 C 4.54 g/m*3 1.6 C 0 km/h
445 29-01-2010 16:54:01 1.6 C 4.65 g/m*3 1.6 C 0 km/h
446 29-01-2010 17:06:02 1.5 C 4.67 g/m*3 1.5 C 0 km/h
447 29-01-2010 17:18:01 1.4 C 4.69 g/m*3 1.4 C 0 km/h
448 29-01-2010 17:30:01 1.3 C 4.72 g/m*3 1.3 C 0 km/h
449 29-01-2010 17:42:02 1.3 C 4.72 g/m*3 1.3 C 0 km/h
450 29-01-2010 17:54:02 1.2 C 4.74 g/m*3 1.2 C 0 km/h
Sensor: Nr:Datum:Temp:Abs-Feuchte:Windchill:Wind:
Aussen-T/F 451 29-01-2010 18:06:01 1 C 4.67 g/m*3 1 C 0 km/h
452 29-01-2010 18:18:01 0.9 C 4.69 g/m*3 0.9 C 0 km/h
453 29-01-2010 18:30:01 0.8 C 4.71 g/m*3 0.8 C 0 km/h
454 29-01-2010 18:42:01 0.8 C 4.71 g/m*3 0.8 C 0 km/h
455 29-01-2010 18:54:01 0.7 C 4.73 g/m*3 0.7 C 0 km/h
456 29-01-2010 19:06:01 0.7 C 4.78 g/m*3 0.7 C 0 km/h
457 29-01-2010 19:18:01 0.8 C 4.81 g/m*3 0.8 C 0 km/h
458 29-01-2010 19:30:01 0.8 C 4.81 g/m*3 0.8 C 0 km/h
459 29-01-2010 19:42:02 0.8 C 4.81 g/m*3 0.8 C 0 km/h
460 29-01-2010 19:54:01 0.8 C 4.81 g/m*3 0.8 C 0 km/h
461 29-01-2010 20:06:02 0.8 C 4.81 g/m*3 0.8 C 0 km/h
462 29-01-2010 20:18:01 0.8 C 4.76 g/m*3 0.8 C 0 km/h
463 29-01-2010 20:30:01 0.7 C 4.73 g/m*3 0.7 C 0 km/h
464 29-01-2010 20:42:01 0.7 C 4.68 g/m*3 0.7 C 0 km/h
465 29-01-2010 20:54:01 0.7 C 4.68 g/m*3 0.7 C 0 km/h
466 29-01-2010 21:06:01 0.6 C 4.6 g/m*3 0.6 C 0 km/h
467 29-01-2010 21:18:01 0.5 C 4.51 g/m*3 0.5 C 0 km/h
468 29-01-2010 21:30:01 0.4 C 4.48 g/m*3 0.4 C 0 km/h
469 29-01-2010 21:42:01 0.5 C 4.56 g/m*3 0.5 C 0 km/h
470 29-01-2010 21:54:01 0.4 C 4.48 g/m*3 0.4 C 0 km/h
471 29-01-2010 22:06:01 0.3 C 4.35 g/m*3 0.3 C 0 km/h
472 29-01-2010 22:18:01 0.1 C 4.2 g/m*3 0.1 C 0 km/h
473 29-01-2010 22:30:01 0 C 4.12 g/m*3 0 C 0 km/h
474 29-01-2010 22:42:01 0.1 C 4.1 g/m*3 0.1 C 0 km/h
475 29-01-2010 22:54:01 0.2 C 4.13 g/m*3 0.2 C 0 km/h
Sensor: Nr:Datum:Temp:Abs-Feuchte:Windchill:Wind:
Aussen-T/F 476 29-01-2010 23:06:01 0.3 C 4.16 g/m*3 0.3 C 0 km/h
477 29-01-2010 23:20:12 0 C 4.12 g/m*3 0 C 0 km/h
478 29-01-2010 23:32:12 -0.1 C 4.09 g/m*3 -0.1 C 0 km/h
479 29-01-2010 23:44:12 -0.5 C 3.98 g/m*3 -0.5 C 0 km/h
480 29-01-2010 23:56:12 -0.4 C 4.01 g/m*3 -0.4 C 0 km/h
481 30-01-2010 00:08:12 -0.5 C 3.93 g/m*3 -0.5 C 0 km/h
482 30-01-2010 00:20:12 -0.3 C 3.94 g/m*3 -0.3 C 0 km/h
483 30-01-2010 00:32:12 -0.3 C 3.84 g/m*3 -0.3 C 0 km/h
484 30-01-2010 00:44:12 -0.1 C 3.8 g/m*3 -0.1 C 0 km/h
485 30-01-2010 00:56:12 0.1 C 3.81 g/m*3 0.1 C 0 km/h
486 30-01-2010 01:08:12 -0.1 C 3.8 g/m*3 -0.1 C 0 km/h
487 30-01-2010 01:20:12 -0.1 C 3.8 g/m*3 -0.1 C 0 km/h
488 30-01-2010 01:32:12 -0.1 C 3.8 g/m*3 -0.1 C 0 km/h
489 30-01-2010 01:44:12 -0.4 C 3.77 g/m*3 -0.4 C 0 km/h
490 30-01-2010 01:56:12 -0.4 C 3.82 g/m*3 -0.4 C 0 km/h
491 30-01-2010 02:08:12 -0.6 C 3.81 g/m*3 -0.6 C 0 km/h
492 30-01-2010 02:20:12 -0.9 C 3.78 g/m*3 -0.9 C 0 km/h
493 30-01-2010 02:32:12 -0.9 C 3.82 g/m*3 -0.9 C 0 km/h
494 30-01-2010 02:44:12 -0.9 C 3.82 g/m*3 -0.9 C 0 km/h
495 30-01-2010 02:56:12 -1 C 3.8 g/m*3 -1 C 0 km/h
496 30-01-2010 03:08:12 -0.8 C 3.85 g/m*3 -0.8 C 0 km/h
497 30-01-2010 03:20:12 -0.9 C 3.78 g/m*3 -0.9 C 0 km/h
498 30-01-2010 03:32:12 -1.3 C 3.67 g/m*3 -1.3 C 0 km/h
499 30-01-2010 03:44:13 -1.5 C 3.62 g/m*3 -1.5 C 0 km/h
500 30-01-2010 03:56:13 -1.5 C 3.67 g/m*3 -1.5 C 0 km/h
Sensor: Nr:Datum:Temp:Abs-Feuchte:Windchill:Wind:
Aussen-T/F 501 30-01-2010 04:08:13 -1.3 C 3.67 g/m*3 -1.3 C 0 km/h
502 30-01-2010 04:20:13 -1.5 C 3.54 g/m*3 -1.5 C 0 km/h
503 30-01-2010 04:32:13 -1.5 C 3.49 g/m*3 -1.5 C 0 km/h
504 30-01-2010 04:44:13 -1.4 C 3.52 g/m*3 -1.4 C 0 km/h
505 30-01-2010 04:56:13 -1.4 C 3.47 g/m*3 -1.4 C 0 km/h
506 30-01-2010 05:08:13 -1.4 C 3.47 g/m*3 -1.4 C 0 km/h
507 30-01-2010 05:20:13 -1.2 C 3.52 g/m*3 -1.2 C 0 km/h
508 30-01-2010 05:32:13 -0.9 C 3.51 g/m*3 -0.9 C 0 km/h
509 30-01-2010 05:44:13 -0.9 C 3.46 g/m*3 -0.9 C 0 km/h
510 30-01-2010 05:56:13 -0.5 C 3.46 g/m*3 -0.5 C 0 km/h
511 30-01-2010 06:08:13 -0.4 C 3.44 g/m*3 -0.4 C 0 km/h
512 30-01-2010 06:20:13 -0.3 C 3.42 g/m*3 -0.3 C 0 km/h
513 30-01-2010 06:32:13 -0.1 C 3.51 g/m*3 -0.1 C 0 km/h
514 30-01-2010 06:44:13 -0.1 C 3.51 g/m*3 -0.1 C 0 km/h
515 30-01-2010 06:56:13 0.1 C 3.42 g/m*3 0.1 C 0 km/h
516 30-01-2010 07:08:13 -0.1 C 3.42 g/m*3 -0.1 C 0 km/h
517 30-01-2010 07:20:13 -0.1 C 3.42 g/m*3 -0.1 C 0 km/h
518 30-01-2010 07:32:13 -0.1 C 3.42 g/m*3 -0.1 C 0 km/h
519 30-01-2010 07:44:13 -0.2 C 3.44 g/m*3 -0.2 C 0 km/h
520 30-01-2010 07:56:02 -0.2 C 3.49 g/m*3 -0.2 C 0 km/h
521 30-01-2010 08:08:02 -0.2 C 3.49 g/m*3 -0.2 C 0 km/h
522 30-01-2010 08:20:02 -0.1 C 3.51 g/m*3 -0.1 C 0 km/h
523 30-01-2010 08:32:02 -0.2 C 3.68 g/m*3 -0.2 C 0 km/h
524 30-01-2010 08:44:02 -0.3 C 3.7 g/m*3 -0.3 C 0 km/h
525 30-01-2010 08:56:03 -0.4 C 3.72 g/m*3 -0.4 C 0 km/h
Sensor: Nr:Datum:Temp:Abs-Feuchte:Windchill:Wind:
Aussen-T/F 526 30-01-2010 09:08:02 -0.4 C 3.77 g/m*3 -0.4 C 0 km/h
527 30-01-2010 09:20:02 -0.4 C 3.72 g/m*3 -0.4 C 0 km/h
528 30-01-2010 09:32:03 -0.3 C 3.7 g/m*3 -0.3 C 0 km/h
529 30-01-2010 09:44:03 0 C 3.68 g/m*3 0 C 0 km/h
530 30-01-2010 09:56:02 0.1 C 3.61 g/m*3 0.1 C 0 km/h
531 30-01-2010 10:08:02 0 C 3.59 g/m*3 0 C 0 km/h
532 30-01-2010 10:20:02 0 C 3.63 g/m*3 0 C 0 km/h
533 30-01-2010 10:32:02 -0.1 C 3.61 g/m*3 -0.1 C 0 km/h
534 30-01-2010 10:44:02 -0.1 C 3.75 g/m*3 -0.1 C 0 km/h
535 30-01-2010 10:56:02 -0.1 C 3.9 g/m*3 -0.1 C 0 km/h
536 30-01-2010 11:08:02 -0.4 C 3.91 g/m*3 -0.4 C 0 km/h
537 30-01-2010 11:20:02 -0.5 C 3.93 g/m*3 -0.5 C 0 km/h
538 30-01-2010 11:32:02 -0.3 C 4.03 g/m*3 -0.3 C 0 km/h
539 30-01-2010 11:44:02 0 C 4.02 g/m*3 0 C 0 km/h
540 30-01-2010 11:56:01 0.4 C 3.98 g/m*3 0.4 C 0 km/h
541 30-01-2010 12:08:02 0.2 C 3.88 g/m*3 0.2 C 0 km/h
542 30-01-2010 12:20:02 -0.2 C 3.92 g/m*3 -0.2 C 0 km/h
543 30-01-2010 12:32:01 -0.4 C 4.01 g/m*3 -0.4 C 0 km/h
544 30-01-2010 12:44:01 -0.3 C 4.08 g/m*3 -0.3 C 0 km/h
545 30-01-2010 12:56:01 -0.2 C 4.01 g/m*3 -0.2 C 0 km/h
546 30-01-2010 13:08:01 0 C 3.88 g/m*3 0 C 0 km/h
547 30-01-2010 13:20:02 0 C 3.63 g/m*3 0 C 0 km/h
548 30-01-2010 13:32:01 -0.2 C 3.49 g/m*3 -0.2 C 0 km/h
549 30-01-2010 13:44:01 0.3 C 3.56 g/m*3 0.3 C 0 km/h
550 30-01-2010 13:56:02 0.5 C 3.46 g/m*3 0.5 C 0 km/h
Sensor: Nr:Datum:Temp:Abs-Feuchte:Windchill:Wind:
Aussen-T/F 551 30-01-2010 14:08:01 0.6 C 3.48 g/m*3 0.6 C 0 km/h
552 30-01-2010 14:20:02 0.5 C 3.41 g/m*3 0.5 C 0 km/h
553 30-01-2010 14:32:01 0.4 C 3.44 g/m*3 0.4 C 0 km/h
554 30-01-2010 14:44:01 0.3 C 3.51 g/m*3 0.3 C 0 km/h
555 30-01-2010 14:56:03 -1.1 C 3.41 g/m*3 -1.1 C 0 km/h
556 30-01-2010 15:08:02 -1.3 C 3.5 g/m*3 -1.3 C 0 km/h
557 30-01-2010 15:20:02 -1.1 C 3.59 g/m*3 -1.1 C 0 km/h
558 30-01-2010 15:32:02 -0.9 C 3.6 g/m*3 -0.9 C 0 km/h
559 30-01-2010 15:44:02 -0.7 C 3.6 g/m*3 -0.7 C 0 km/h
560 30-01-2010 15:56:02 -0.9 C 3.41 g/m*3 -0.9 C 0 km/h
561 30-01-2010 16:08:02 -1.3 C 3.19 g/m*3 -1.3 C 0 km/h
562 30-01-2010 16:20:02 -1.4 C 3.21 g/m*3 -1.4 C 0 km/h
563 30-01-2010 16:32:01 -1.6 C 3.21 g/m*3 -1.6 C 0 km/h
564 30-01-2010 16:44:01 -1.5 C 3.27 g/m*3 -1.5 C 0 km/h
565 30-01-2010 16:56:02 -1.5 C 3.32 g/m*3 -1.5 C 0 km/h
566 30-01-2010 17:08:01 -1.6 C 3.34 g/m*3 -1.6 C 0 km/h
567 30-01-2010 17:20:02 -1.7 C 3.36 g/m*3 -1.7 C 0 km/h
568 30-01-2010 17:32:02 -2 C 3.29 g/m*3 -2 C 0 km/h
569 30-01-2010 17:44:02 -2.4 C 3.16 g/m*3 -2.4 C 0 km/h
570 30-01-2010 17:56:02 -2.6 C 3.15 g/m*3 -2.6 C 0 km/h
571 30-01-2010 18:08:02 -2.4 C 3.24 g/m*3 -2.4 C 0 km/h
572 30-01-2010 18:20:02 -2.4 C 3.24 g/m*3 -2.4 C 0 km/h
573 30-01-2010 18:32:03 -2.3 C 3.26 g/m*3 -2.3 C 0 km/h
574 30-01-2010 18:44:03 -2.4 C 3.2 g/m*3 -2.4 C 0 km/h
575 30-01-2010 18:56:02 -2.6 C 3.11 g/m*3 -2.6 C 0 km/h
Sensor: Nr:Datum:Temp:Abs-Feuchte:Windchill:Wind:
Aussen-T/F 576 30-01-2010 19:08:01 -2.9 C 3.05 g/m*3 -2.9 C 0 km/h
577 30-01-2010 19:20:02 -3.1 C 3 g/m*3 -3.1 C 0 km/h
578 30-01-2010 19:32:02 -3.3 C 2.96 g/m*3 -3.3 C 0 km/h
579 30-01-2010 19:44:02 -3.5 C 2.92 g/m*3 -3.5 C 0 km/h
580 30-01-2010 19:56:01 -3.7 C 2.92 g/m*3 -3.7 C 0 km/h
581 30-01-2010 20:08:02 -4 C 2.85 g/m*3 -4 C 0 km/h
582 30-01-2010 20:20:01 -4.2 C 2.81 g/m*3 -4.2 C 0 km/h
583 30-01-2010 20:32:02 -4.5 C 2.75 g/m*3 -4.5 C 0 km/h
584 30-01-2010 20:44:02 -4.9 C 2.68 g/m*3 -4.9 C 0 km/h
585 30-01-2010 20:56:02 -4.7 C 2.75 g/m*3 -4.7 C 0 km/h
586 30-01-2010 21:08:02 -4.3 C 2.86 g/m*3 -4.3 C 0 km/h
587 30-01-2010 21:20:02 -4.1 C 2.91 g/m*3 -4.1 C 0 km/h
588 30-01-2010 21:32:02 -4.2 C 2.89 g/m*3 -4.2 C 0 km/h
589 30-01-2010 21:44:02 -4.6 C 2.77 g/m*3 -4.6 C 0 km/h
590 30-01-2010 21:56:02 -5.1 C 2.64 g/m*3 -5.1 C 0 km/h
591 30-01-2010 22:08:02 -5.6 C 2.54 g/m*3 -5.6 C 0 km/h
592 30-01-2010 22:21:03 -5.9 C 2.49 g/m*3 -5.9 C 0 km/h
593 30-01-2010 22:33:04 -5.7 C 2.56 g/m*3 -5.7 C 0 km/h
594 30-01-2010 22:45:04 -6 C 2.5 g/m*3 -6 C 0 km/h
595 30-01-2010 22:57:04 -6.1 C 2.48 g/m*3 -6.1 C 0 km/h
596 30-01-2010 23:09:04 -6.3 C 2.45 g/m*3 -6.3 C 0 km/h
597 30-01-2010 23:21:04 -6.2 C 2.47 g/m*3 -6.2 C 0 km/h
598 30-01-2010 23:33:04 -6.4 C 2.43 g/m*3 -6.4 C 0 km/h
599 30-01-2010 23:45:04 -6.4 C 2.43 g/m*3 -6.4 C 0 km/h
600 30-01-2010 23:57:04 -6.3 C 2.48 g/m*3 -6.3 C 0 km/h
Sensor: Nr:Datum:Temp:Abs-Feuchte:Windchill:Wind:
Aussen-T/F 601 31-01-2010 00:09:04 -6.2 C 2.5 g/m*3 -6.2 C 0 km/h
602 31-01-2010 00:21:04 -6.1 C 2.52 g/m*3 -6.1 C 0 km/h
603 31-01-2010 00:33:04 -6 C 2.53 g/m*3 -6 C 0 km/h
604 31-01-2010 00:45:04 -6 C 2.5 g/m*3 -6 C 0 km/h
605 31-01-2010 00:57:04 -5.6 C 2.58 g/m*3 -5.6 C 0 km/h
606 31-01-2010 01:09:04 -5.1 C 2.67 g/m*3 -5.1 C 0 km/h
607 31-01-2010 01:21:04 -5 C 2.69 g/m*3 -5 C 0 km/h
608 31-01-2010 01:33:04 -4.7 C 2.71 g/m*3 -4.7 C 0 km/h
609 31-01-2010 01:45:04 -4.6 C 2.73 g/m*3 -4.6 C 0 km/h
610 31-01-2010 01:57:04 -4.6 C 2.8 g/m*3 -4.6 C 0 km/h
611 31-01-2010 02:09:04 -4.4 C 2.88 g/m*3 -4.4 C 0 km/h
612 31-01-2010 02:21:04 -4.3 C 2.94 g/m*3 -4.3 C 0 km/h
613 31-01-2010 02:33:04 -4.2 C 2.96 g/m*3 -4.2 C 0 km/h
614 31-01-2010 02:45:04 -4.2 C 2.99 g/m*3 -4.2 C 0 km/h
615 31-01-2010 02:57:05 -4.2 C 3.03 g/m*3 -4.2 C 0 km/h
616 31-01-2010 03:09:05 -4 C 3.07 g/m*3 -4 C 0 km/h
617 31-01-2010 03:21:05 -3.9 C 3.06 g/m*3 -3.9 C 0 km/h
618 31-01-2010 03:33:05 -3.7 C 3.1 g/m*3 -3.7 C 0 km/h
619 31-01-2010 03:45:05 -3.5 C 3.11 g/m*3 -3.5 C 0 km/h
620 31-01-2010 03:57:05 -3.5 C 3.15 g/m*3 -3.5 C 0 km/h
621 31-01-2010 04:09:05 -3.4 C 3.17 g/m*3 -3.4 C 0 km/h
622 31-01-2010 04:21:05 -3.4 C 3.17 g/m*3 -3.4 C 0 km/h
623 31-01-2010 04:33:05 -3.3 C 3.19 g/m*3 -3.3 C 0 km/h
624 31-01-2010 04:45:05 -3.2 C 3.18 g/m*3 -3.2 C 0 km/h
625 31-01-2010 04:57:05 -3.2 C 3.18 g/m*3 -3.2 C 0 km/h
Sensor: Nr:Datum:Temp:Abs-Feuchte:Windchill:Wind:
Aussen-T/F 626 31-01-2010 05:09:05 -3.2 C 3.21 g/m*3 -3.2 C 0 km/h
627 31-01-2010 05:21:05 -3.1 C 3.24 g/m*3 -3.1 C 0 km/h
628 31-01-2010 05:33:05 -2.9 C 3.24 g/m*3 -2.9 C 0 km/h
629 31-01-2010 05:45:05 -2.9 C 3.24 g/m*3 -2.9 C 0 km/h
630 31-01-2010 05:57:05 -2.9 C 3.24 g/m*3 -2.9 C 0 km/h
631 31-01-2010 06:09:05 -2.8 C 3.27 g/m*3 -2.8 C 0 km/h
632 31-01-2010 06:21:05 -2.8 C 3.27 g/m*3 -2.8 C 0 km/h
633 31-01-2010 06:33:05 -2.8 C 3.27 g/m*3 -2.8 C 0 km/h
634 31-01-2010 06:45:05 -2.8 C 3.27 g/m*3 -2.8 C 0 km/h
635 31-01-2010 06:57:05 -2.7 C 3.29 g/m*3 -2.7 C 0 km/h
636 31-01-2010 07:09:05 -2.6 C 3.31 g/m*3 -2.6 C 0 km/h
637 31-01-2010 07:21:05 -2.6 C 3.31 g/m*3 -2.6 C 0 km/h
638 31-01-2010 07:33:06 -2.6 C 3.31 g/m*3 -2.6 C 0 km/h
639 31-01-2010 07:45:06 -2.5 C 3.3 g/m*3 -2.5 C 0 km/h
640 31-01-2010 07:57:06 -2.5 C 3.3 g/m*3 -2.5 C 0 km/h
641 31-01-2010 08:09:06 -2.4 C 3.36 g/m*3 -2.4 C 0 km/h
642 31-01-2010 08:21:06 -2.4 C 3.4 g/m*3 -2.4 C 0 km/h
643 31-01-2010 08:33:03 -2.4 C 3.36 g/m*3 -2.4 C 0 km/h
644 31-01-2010 08:45:02 -2.4 C 3.36 g/m*3 -2.4 C 0 km/h
645 31-01-2010 08:57:02 -2.4 C 3.36 g/m*3 -2.4 C 0 km/h
646 31-01-2010 09:09:02 -2.1 C 3.43 g/m*3 -2.1 C 0 km/h
647 31-01-2010 09:21:02 -2 C 3.41 g/m*3 -2 C 0 km/h
648 31-01-2010 09:33:01 -2.2 C 3.33 g/m*3 -2.2 C 0 km/h
649 31-01-2010 09:45:02 -2 C 3.33 g/m*3 -2 C 0 km/h
650 31-01-2010 09:57:02 -1.8 C 3.33 g/m*3 -1.8 C 0 km/h
Sensor: Nr:Datum:Temp:Abs-Feuchte:Windchill:Wind:
Aussen-T/F 651 31-01-2010 10:09:01 -1.6 C 3.38 g/m*3 -1.6 C 0 km/h
652 31-01-2010 10:21:02 -1.7 C 3.31 g/m*3 -1.7 C 0 km/h
653 31-01-2010 10:33:01 -1.7 C 3.27 g/m*3 -1.7 C 0 km/h
654 31-01-2010 10:45:02 -1.7 C 3.27 g/m*3 -1.7 C 0 km/h
655 31-01-2010 10:57:02 -1.6 C 3.29 g/m*3 -1.6 C 0 km/h
656 31-01-2010 11:09:02 -1.4 C 3.34 g/m*3 -1.4 C 0 km/h
657 31-01-2010 11:21:02 -1.1 C 3.41 g/m*3 -1.1 C 0 km/h
658 31-01-2010 11:33:03 -0.7 C 3.42 g/m*3 -0.7 C 0 km/h
659 31-01-2010 11:45:02 -0.6 C 3.39 g/m*3 -0.6 C 0 km/h
660 31-01-2010 11:57:03 -0.4 C 3.44 g/m*3 -0.4 C 0 km/h
661 31-01-2010 12:09:01 -0.2 C 3.44 g/m*3 -0.2 C 0 km/h
662 31-01-2010 12:21:02 0.2 C 3.54 g/m*3 0.2 C 0 km/h
663 31-01-2010 12:33:02 0.7 C 3.61 g/m*3 0.7 C 0 km/h
664 31-01-2010 12:45:02 1.1 C 3.5 g/m*3 1.1 C 0 km/h
665 31-01-2010 12:57:02 1.3 C 3.5 g/m*3 1.3 C 0 km/h
666 31-01-2010 13:09:03 1.6 C 3.46 g/m*3 1.6 C 0 km/h
667 31-01-2010 13:21:02 1.7 C 3.38 g/m*3 1.7 C 0 km/h
668 31-01-2010 13:33:03 2 C 3.28 g/m*3 2 C 0 km/h
669 31-01-2010 13:45:02 2 C 3.22 g/m*3 2 C 0 km/h
670 31-01-2010 13:57:02 2.2 C 3.15 g/m*3 2.2 C 0 km/h
671 31-01-2010 14:09:02 2.1 C 3.08 g/m*3 2.1 C 0 km/h
672 31-01-2010 14:21:01 2.2 C 3.15 g/m*3 2.2 C 0 km/h
673 31-01-2010 14:33:02 2.4 C 3.14 g/m*3 2.4 C 0 km/h
674 31-01-2010 14:45:02 2.2 C 2.99 g/m*3 2.2 C 0 km/h
675 31-01-2010 14:57:02 2.2 C 2.93 g/m*3 2.2 C 0 km/h
Sensor: Nr:Datum:Temp:Abs-Feuchte:Windchill:Wind:
Aussen-T/F 676 31-01-2010 15:09:02 1.7 C 2.94 g/m*3 1.7 C 0 km/h
677 31-01-2010 15:21:02 1.3 C 2.97 g/m*3 1.3 C 0 km/h
678 31-01-2010 15:33:02 1.1 C 2.93 g/m*3 1.1 C 0 km/h
679 31-01-2010 15:45:02 1.1 C 3.03 g/m*3 1.1 C 0 km/h
680 31-01-2010 15:57:02 1.3 C 3.13 g/m*3 1.3 C 0 km/h
681 31-01-2010 16:09:02 1.2 C 3.1 g/m*3 1.2 C 0 km/h
682 31-01-2010 16:21:02 0.8 C 3.12 g/m*3 0.8 C 0 km/h
683 31-01-2010 16:33:02 0.7 C 3.1 g/m*3 0.7 C 0 km/h
684 31-01-2010 16:45:02 0.7 C 3.15 g/m*3 0.7 C 0 km/h
685 31-01-2010 16:57:02 0.5 C 3.11 g/m*3 0.5 C 0 km/h
686 31-01-2010 17:09:03 0.3 C 3.07 g/m*3 0.3 C 0 km/h
687 31-01-2010 17:21:02 0 C 3.15 g/m*3 0 C 0 km/h
688 31-01-2010 17:33:02 -0.4 C 3.11 g/m*3 -0.4 C 0 km/h
689 31-01-2010 17:45:01 -0.6 C 3.11 g/m*3 -0.6 C 0 km/h
690 31-01-2010 17:57:01 -1 C 3.07 g/m*3 -1 C 0 km/h
691 31-01-2010 18:09:02 -1.1 C 3.14 g/m*3 -1.1 C 0 km/h
692 31-01-2010 18:21:01 -1.3 C 3.1 g/m*3 -1.3 C 0 km/h
693 31-01-2010 18:33:01 -1.5 C 3.1 g/m*3 -1.5 C 0 km/h
694 31-01-2010 18:45:01 -1.7 C 3.1 g/m*3 -1.7 C 0 km/h
695 31-01-2010 18:57:01 -1.8 C 3.16 g/m*3 -1.8 C 0 km/h
696 31-01-2010 19:09:02 -1.8 C 3.16 g/m*3 -1.8 C 0 km/h
697 31-01-2010 19:21:01 -1.8 C 3.12 g/m*3 -1.8 C 0 km/h
698 31-01-2010 19:33:02 -1.9 C 3.1 g/m*3 -1.9 C 0 km/h
699 31-01-2010 19:45:01 -1.8 C 3.12 g/m*3 -1.8 C 0 km/h
700 31-01-2010 19:57:01 -2.1 C 3.06 g/m*3 -2.1 C 0 km/h
Sensor: Nr:Datum:Temp:Abs-Feuchte:Windchill:Wind:
Aussen-T/F 701 31-01-2010 20:09:02 -2.1 C 3.14 g/m*3 -2.1 C 0 km/h
702 31-01-2010 20:21:01 -1.9 C 3.18 g/m*3 -1.9 C 0 km/h
703 31-01-2010 20:33:02 -2 C 3.16 g/m*3 -2 C 0 km/h
704 31-01-2010 20:45:01 -2 C 3.2 g/m*3 -2 C 0 km/h
705 31-01-2010 20:57:01 -2 C 3.2 g/m*3 -2 C 0 km/h
706 31-01-2010 21:09:02 -1.8 C 3.25 g/m*3 -1.8 C 0 km/h
707 31-01-2010 21:21:01 -1.6 C 3.29 g/m*3 -1.6 C 0 km/h
708 31-01-2010 21:33:02 -1.5 C 3.32 g/m*3 -1.5 C 0 km/h
709 31-01-2010 21:45:01 -1.3 C 3.32 g/m*3 -1.3 C 0 km/h
710 31-01-2010 21:57:01 -1.1 C 3.37 g/m*3 -1.1 C 0 km/h
711 31-01-2010 22:09:02 -0.8 C 3.39 g/m*3 -0.8 C 0 km/h
712 31-01-2010 22:21:02 -0.6 C 3.39 g/m*3 -0.6 C 0 km/h
713 31-01-2010 22:33:01 -0.6 C 3.35 g/m*3 -0.6 C 0 km/h
714 31-01-2010 22:46:02 -0.7 C 3.32 g/m*3 -0.7 C 0 km/h
715 31-01-2010 22:58:02 -0.7 C 3.37 g/m*3 -0.7 C 0 km/h
716 31-01-2010 23:10:02 -0.6 C 3.39 g/m*3 -0.6 C 0 km/h
717 31-01-2010 23:22:02 -0.5 C 3.37 g/m*3 -0.5 C 0 km/h
718 31-01-2010 23:34:02 -0.6 C 3.35 g/m*3 -0.6 C 0 km/h
719 31-01-2010 23:46:02 -0.7 C 3.37 g/m*3 -0.7 C 0 km/h
720 31-01-2010 23:58:02 -0.7 C 3.42 g/m*3 -0.7 C 0 km/h
721 01-02-2010 00:10:02 -0.8 C 3.39 g/m*3 -0.8 C 0 km/h
722 01-02-2010 00:22:02 -1 C 3.35 g/m*3 -1 C 0 km/h
723 01-02-2010 00:34:02 -1.1 C 3.32 g/m*3 -1.1 C 0 km/h
724 01-02-2010 00:46:02 -0.7 C 3.42 g/m*3 -0.7 C 0 km/h
725 01-02-2010 00:58:03 -0.7 C 3.37 g/m*3 -0.7 C 0 km/h
Sensor: Nr:Datum:Temp:Abs-Feuchte:Windchill:Wind:
Aussen-T/F 726 01-02-2010 01:10:03 -0.6 C 3.35 g/m*3 -0.6 C 0 km/h
727 01-02-2010 01:22:03 -0.5 C 3.37 g/m*3 -0.5 C 0 km/h
728 01-02-2010 01:34:03 -0.5 C 3.37 g/m*3 -0.5 C 0 km/h
729 01-02-2010 01:46:03 -0.4 C 3.35 g/m*3 -0.4 C 0 km/h
730 01-02-2010 01:58:03 -0.4 C 3.35 g/m*3 -0.4 C 0 km/h
731 01-02-2010 02:10:03 -0.6 C 3.25 g/m*3 -0.6 C 0 km/h
732 01-02-2010 02:22:03 -0.8 C 3.25 g/m*3 -0.8 C 0 km/h
733 01-02-2010 02:34:03 -0.8 C 3.25 g/m*3 -0.8 C 0 km/h
734 01-02-2010 02:46:03 -0.8 C 3.25 g/m*3 -0.8 C 0 km/h
735 01-02-2010 02:58:03 -0.8 C 3.25 g/m*3 -0.8 C 0 km/h
736 01-02-2010 03:10:03 -0.7 C 3.28 g/m*3 -0.7 C 0 km/h
737 01-02-2010 03:22:03 -0.8 C 3.25 g/m*3 -0.8 C 0 km/h
738 01-02-2010 03:34:03 -0.8 C 3.25 g/m*3 -0.8 C 0 km/h
739 01-02-2010 03:46:03 -0.7 C 3.32 g/m*3 -0.7 C 0 km/h
740 01-02-2010 03:58:03 -0.8 C 3.25 g/m*3 -0.8 C 0 km/h
741 01-02-2010 04:10:03 -0.8 C 3.25 g/m*3 -0.8 C 0 km/h
742 01-02-2010 04:22:03 -0.9 C 3.28 g/m*3 -0.9 C 0 km/h
743 01-02-2010 04:34:03 -1 C 3.25 g/m*3 -1 C 0 km/h
744 01-02-2010 04:46:03 -0.8 C 3.3 g/m*3 -0.8 C 0 km/h
745 01-02-2010 04:58:03 -0.7 C 3.28 g/m*3 -0.7 C 0 km/h
746 01-02-2010 05:10:03 -0.7 C 3.28 g/m*3 -0.7 C 0 km/h
747 01-02-2010 05:22:04 -0.6 C 3.3 g/m*3 -0.6 C 0 km/h
748 01-02-2010 05:34:04 -0.5 C 3.32 g/m*3 -0.5 C 0 km/h
749 01-02-2010 05:46:04 -0.4 C 3.35 g/m*3 -0.4 C 0 km/h
750 01-02-2010 05:58:04 -0.4 C 3.35 g/m*3 -0.4 C 0 km/h
Sensor: Nr:Datum:Temp:Abs-Feuchte:Windchill:Wind:
Aussen-T/F 751 01-02-2010 06:10:04 -0.4 C 3.35 g/m*3 -0.4 C 0 km/h
752 01-02-2010 06:22:04 -0.4 C 3.35 g/m*3 -0.4 C 0 km/h
753 01-02-2010 06:34:04 -0.3 C 3.37 g/m*3 -0.3 C 0 km/h
754 01-02-2010 06:46:04 -0.3 C 3.37 g/m*3 -0.3 C 0 km/h
755 01-02-2010 06:58:04 -0.4 C 3.35 g/m*3 -0.4 C 0 km/h
756 01-02-2010 07:10:02 -0.5 C 3.37 g/m*3 -0.5 C 0 km/h
757 01-02-2010 07:22:03 -0.7 C 3.32 g/m*3 -0.7 C 0 km/h
758 01-02-2010 07:34:02 -0.7 C 3.37 g/m*3 -0.7 C 0 km/h
759 01-02-2010 07:46:02 -0.6 C 3.39 g/m*3 -0.6 C 0 km/h
760 01-02-2010 07:58:02 -0.5 C 3.42 g/m*3 -0.5 C 0 km/h
761 01-02-2010 08:10:02 -0.4 C 3.39 g/m*3 -0.4 C 0 km/h
762 01-02-2010 08:22:02 -0.4 C 3.44 g/m*3 -0.4 C 0 km/h
763 01-02-2010 08:34:02 -0.4 C 3.39 g/m*3 -0.4 C 0 km/h
764 01-02-2010 08:46:02 -0.4 C 3.39 g/m*3 -0.4 C 0 km/h
765 01-02-2010 08:58:02 -0.4 C 3.39 g/m*3 -0.4 C 0 km/h
766 01-02-2010 09:10:02 -0.4 C 3.39 g/m*3 -0.4 C 0 km/h
767 01-02-2010 09:22:02 -0.3 C 3.37 g/m*3 -0.3 C 0 km/h
768 01-02-2010 09:34:02 -0.3 C 3.37 g/m*3 -0.3 C 0 km/h
769 01-02-2010 09:46:02 -0.2 C 3.39 g/m*3 -0.2 C 0 km/h
770 01-02-2010 09:58:02 -0.2 C 3.39 g/m*3 -0.2 C 0 km/h
771 01-02-2010 10:10:02 -0.1 C 3.37 g/m*3 -0.1 C 0 km/h
772 01-02-2010 10:22:02 0.2 C 3.44 g/m*3 0.2 C 0 km/h
773 01-02-2010 10:34:01 0.2 C 3.34 g/m*3 0.2 C 0 km/h
774 01-02-2010 10:46:02 0.3 C 3.36 g/m*3 0.3 C 0 km/h
775 01-02-2010 10:58:02 0.3 C 3.31 g/m*3 0.3 C 0 km/h
Sensor: Nr:Datum:Temp:Abs-Feuchte:Windchill:Wind:
Aussen-T/F 776 01-02-2010 11:10:01 0.5 C 3.31 g/m*3 0.5 C 0 km/h
777 01-02-2010 11:22:02 0.5 C 3.26 g/m*3 0.5 C 0 km/h
778 01-02-2010 11:34:01 0.7 C 3.3 g/m*3 0.7 C 0 km/h
779 01-02-2010 11:46:02 1 C 3.22 g/m*3 1 C 0 km/h
780 01-02-2010 11:58:02 1 C 3.22 g/m*3 1 C 0 km/h
781 01-02-2010 12:10:02 1.4 C 3.31 g/m*3 1.4 C 0 km/h
782 01-02-2010 12:22:02 1.3 C 3.23 g/m*3 1.3 C 0 km/h
783 01-02-2010 12:34:02 1.7 C 3.32 g/m*3 1.7 C 0 km/h
784 01-02-2010 12:46:02 1.5 C 3.28 g/m*3 1.5 C 0 km/h
785 01-02-2010 12:58:02 1.5 C 3.28 g/m*3 1.5 C 0 km/h
786 01-02-2010 13:10:01 1.4 C 3.25 g/m*3 1.4 C 0 km/h
787 01-02-2010 13:22:02 1.6 C 3.3 g/m*3 1.6 C 0 km/h
788 01-02-2010 13:34:01 1.7 C 3.32 g/m*3 1.7 C 0 km/h
789 01-02-2010 13:46:02 2.3 C 3.29 g/m*3 2.3 C 0 km/h
790 01-02-2010 13:58:02 2.3 C 3.18 g/m*3 2.3 C 0 km/h
791 01-02-2010 14:10:01 2.4 C 3.25 g/m*3 2.4 C 0 km/h
792 01-02-2010 14:22:01 2.4 C 3.25 g/m*3 2.4 C 0 km/h
793 01-02-2010 14:34:02 2.1 C 3.24 g/m*3 2.1 C 0 km/h
794 01-02-2010 14:46:02 1.5 C 3.44 g/m*3 1.5 C 0 km/h
795 01-02-2010 14:58:03 1.4 C 3.68 g/m*3 1.4 C 0 km/h
796 01-02-2010 15:10:01 1.3 C 3.71 g/m*3 1.3 C 0 km/h
797 01-02-2010 15:22:02 1.8 C 3.73 g/m*3 1.8 C 0 km/h
798 01-02-2010 15:34:02 1.5 C 3.71 g/m*3 1.5 C 0 km/h
799 01-02-2010 15:46:02 1.1 C 3.81 g/m*3 1.1 C 0 km/h
800 01-02-2010 15:58:02 0.9 C 3.92 g/m*3 0.9 C 0 km/h
Sensor: Nr:Datum:Temp:Abs-Feuchte:Windchill:Wind:
Aussen-T/F 801 01-02-2010 16:10:01 0.7 C 4.02 g/m*3 0.7 C 0 km/h
802 01-02-2010 16:22:02 0.7 C 4.12 g/m*3 0.7 C 0 km/h
803 01-02-2010 16:34:01 0.7 C 4.12 g/m*3 0.7 C 0 km/h
804 01-02-2010 16:46:03 0.8 C 4.1 g/m*3 0.8 C 0 km/h
805 01-02-2010 16:58:03 1 C 4 g/m*3 1 C 0 km/h
806 01-02-2010 17:10:03 0.8 C 4.04 g/m*3 0.8 C 0 km/h
807 01-02-2010 17:22:02 0.4 C 4.13 g/m*3 0.4 C 0 km/h
808 01-02-2010 17:34:03 0.4 C 4.28 g/m*3 0.4 C 0 km/h
809 01-02-2010 17:46:01 0.4 C 4.33 g/m*3 0.4 C 0 km/h
810 01-02-2010 17:58:01 0.3 C 4.3 g/m*3 0.3 C 0 km/h
811 01-02-2010 18:10:02 0.2 C 4.32 g/m*3 0.2 C 0 km/h
812 01-02-2010 18:22:02 0.2 C 4.37 g/m*3 0.2 C 0 km/h
813 01-02-2010 18:34:02 0.2 C 4.42 g/m*3 0.2 C 0 km/h
814 01-02-2010 18:46:02 0.2 C 4.47 g/m*3 0.2 C 0 km/h
815 01-02-2010 18:58:02 0.2 C 4.52 g/m*3 0.2 C 0 km/h
816 01-02-2010 19:10:02 0.3 C 4.55 g/m*3 0.3 C 0 km/h
817 01-02-2010 19:22:02 0.3 C 4.55 g/m*3 0.3 C 0 km/h
818 01-02-2010 19:34:01 0.3 C 4.5 g/m*3 0.3 C 0 km/h
819 01-02-2010 19:46:02 0.3 C 4.5 g/m*3 0.3 C 0 km/h
820 01-02-2010 19:58:02 0.5 C 4.56 g/m*3 0.5 C 0 km/h
821 01-02-2010 20:10:01 0.5 C 4.51 g/m*3 0.5 C 0 km/h
822 01-02-2010 20:22:02 0.5 C 4.46 g/m*3 0.5 C 0 km/h
823 01-02-2010 20:34:01 0.5 C 4.41 g/m*3 0.5 C 0 km/h
824 01-02-2010 20:46:02 0.3 C 4.35 g/m*3 0.3 C 0 km/h
825 01-02-2010 20:58:02 0.3 C 4.35 g/m*3 0.3 C 0 km/h
Sensor: Nr:Datum:Temp:Abs-Feuchte:Windchill:Wind:
Aussen-T/F 826 01-02-2010 21:10:01 0.2 C 4.32 g/m*3 0.2 C 0 km/h
827 01-02-2010 21:22:02 0.3 C 4.35 g/m*3 0.3 C 0 km/h
828 01-02-2010 21:34:01 0.3 C 4.35 g/m*3 0.3 C 0 km/h
829 01-02-2010 21:46:03 0.2 C 4.32 g/m*3 0.2 C 0 km/h
830 01-02-2010 21:58:03 0.2 C 4.32 g/m*3 0.2 C 0 km/h
831 01-02-2010 22:10:02 0.2 C 4.37 g/m*3 0.2 C 0 km/h
832 01-02-2010 22:23:02 0.2 C 4.37 g/m*3 0.2 C 0 km/h
833 01-02-2010 22:35:02 0.5 C 4.51 g/m*3 0.5 C 0 km/h
834 01-02-2010 22:47:02 0.5 C 4.46 g/m*3 0.5 C 0 km/h
835 01-02-2010 22:59:02 0.5 C 4.46 g/m*3 0.5 C 0 km/h
836 01-02-2010 23:11:02 0.4 C 4.33 g/m*3 0.4 C 0 km/h
837 01-02-2010 23:23:03 0.4 C 4.28 g/m*3 0.4 C 0 km/h
838 01-02-2010 23:35:03 0.3 C 4.25 g/m*3 0.3 C 0 km/h
839 01-02-2010 23:47:03 0.3 C 4.3 g/m*3 0.3 C 0 km/h
840 01-02-2010 23:59:03 0.3 C 4.3 g/m*3 0.3 C 0 km/h
841 02-02-2010 00:11:03 0.3 C 4.11 g/m*3 0.3 C 0 km/h
842 02-02-2010 00:23:03 0.4 C 3.84 g/m*3 0.4 C 0 km/h
843 02-02-2010 00:35:03 0.2 C 3.68 g/m*3 0.2 C 0 km/h
844 02-02-2010 00:47:03 0.1 C 3.66 g/m*3 0.1 C 0 km/h
845 02-02-2010 00:59:03 -0.1 C 3.56 g/m*3 -0.1 C 0 km/h
846 02-02-2010 01:11:03 -0.3 C 3.51 g/m*3 -0.3 C 0 km/h
847 02-02-2010 01:23:03 -0.5 C 3.51 g/m*3 -0.5 C 0 km/h
848 02-02-2010 01:35:03 -0.8 C 3.48 g/m*3 -0.8 C 0 km/h
849 02-02-2010 01:47:03 -0.7 C 3.6 g/m*3 -0.7 C 0 km/h
850 02-02-2010 01:59:03 -0.6 C 3.63 g/m*3 -0.6 C 0 km/h
Sensor: Nr:Datum:Temp:Abs-Feuchte:Windchill:Wind:
Aussen-T/F 851 02-02-2010 02:11:03 -0.6 C 3.53 g/m*3 -0.6 C 0 km/h
852 02-02-2010 02:23:03 -0.7 C 3.46 g/m*3 -0.7 C 0 km/h
853 02-02-2010 02:35:03 -1 C 3.3 g/m*3 -1 C 0 km/h
854 02-02-2010 02:47:03 -1.6 C 3.25 g/m*3 -1.6 C 0 km/h
855 02-02-2010 02:59:03 -2.1 C 3.22 g/m*3 -2.1 C 0 km/h
856 02-02-2010 03:11:03 -2.5 C 3.17 g/m*3 -2.5 C 0 km/h
857 02-02-2010 03:23:03 -2.8 C 3.15 g/m*3 -2.8 C 0 km/h
858 02-02-2010 03:35:03 -3 C 3.14 g/m*3 -3 C 0 km/h
859 02-02-2010 03:47:04 -3 C 3.18 g/m*3 -3 C 0 km/h
860 02-02-2010 03:59:04 -3 C 3.22 g/m*3 -3 C 0 km/h
861 02-02-2010 04:11:04 -3.1 C 3.24 g/m*3 -3.1 C 0 km/h
862 02-02-2010 04:23:04 -3 C 3.3 g/m*3 -3 C 0 km/h
863 02-02-2010 04:35:04 -2.9 C 3.36 g/m*3 -2.9 C 0 km/h
864 02-02-2010 04:47:04 -2.7 C 3.45 g/m*3 -2.7 C 0 km/h
865 02-02-2010 04:59:04 -2.6 C 3.48 g/m*3 -2.6 C 0 km/h
866 02-02-2010 05:11:04 -2.4 C 3.57 g/m*3 -2.4 C 0 km/h
867 02-02-2010 05:23:04 -2.2 C 3.62 g/m*3 -2.2 C 0 km/h
868 02-02-2010 05:35:04 -2.3 C 3.59 g/m*3 -2.3 C 0 km/h
869 02-02-2010 05:47:04 -2.4 C 3.52 g/m*3 -2.4 C 0 km/h
870 02-02-2010 05:59:04 -2.4 C 3.52 g/m*3 -2.4 C 0 km/h
871 02-02-2010 06:11:04 -2.3 C 3.55 g/m*3 -2.3 C 0 km/h
872 02-02-2010 06:23:04 -1.7 C 3.75 g/m*3 -1.7 C 0 km/h
873 02-02-2010 06:35:04 -1.2 C 3.74 g/m*3 -1.2 C 0 km/h
874 02-02-2010 06:47:04 -1.2 C 3.66 g/m*3 -1.2 C 0 km/h
875 02-02-2010 06:59:04 -1.3 C 3.59 g/m*3 -1.3 C 0 km/h
Sensor: Nr:Datum:Temp:Abs-Feuchte:Windchill:Wind:
Aussen-T/F 876 02-02-2010 07:11:02 -1.3 C 3.59 g/m*3 -1.3 C 0 km/h
877 02-02-2010 07:23:02 -1.6 C 3.47 g/m*3 -1.6 C 0 km/h
878 02-02-2010 07:35:02 -1.8 C 3.46 g/m*3 -1.8 C 0 km/h
879 02-02-2010 07:47:02 -1.7 C 3.49 g/m*3 -1.7 C 0 km/h
880 02-02-2010 07:59:02 -1.5 C 3.49 g/m*3 -1.5 C 0 km/h
881 02-02-2010 08:11:03 -1.4 C 3.52 g/m*3 -1.4 C 0 km/h
882 02-02-2010 08:23:02 -1.3 C 3.5 g/m*3 -1.3 C 0 km/h
883 02-02-2010 08:35:02 -1.2 C 3.48 g/m*3 -1.2 C 0 km/h
884 02-02-2010 08:47:02 -1.1 C 3.5 g/m*3 -1.1 C 0 km/h
885 02-02-2010 08:59:02 -0.8 C 3.53 g/m*3 -0.8 C 0 km/h
886 02-02-2010 09:11:02 -0.7 C 3.55 g/m*3 -0.7 C 0 km/h
887 02-02-2010 09:23:02 -0.6 C 3.63 g/m*3 -0.6 C 0 km/h
888 02-02-2010 09:35:02 -0.3 C 3.7 g/m*3 -0.3 C 0 km/h
889 02-02-2010 09:47:02 -0.1 C 3.75 g/m*3 -0.1 C 0 km/h
890 02-02-2010 09:59:02 0.1 C 3.81 g/m*3 0.1 C 0 km/h
891 02-02-2010 10:11:02 0.4 C 3.88 g/m*3 0.4 C 0 km/h
892 02-02-2010 10:23:02 0.6 C 3.89 g/m*3 0.6 C 0 km/h
893 02-02-2010 10:35:01 0.8 C 3.89 g/m*3 0.8 C 0 km/h
894 02-02-2010 10:47:02 1 C 3.89 g/m*3 1 C 0 km/h
895 02-02-2010 10:59:02 1.1 C 3.92 g/m*3 1.1 C 0 km/h
896 02-02-2010 11:11:01 1.3 C 3.92 g/m*3 1.3 C 0 km/h
897 02-02-2010 11:23:02 1.5 C 3.97 g/m*3 1.5 C 0 km/h
898 02-02-2010 11:35:01 1.5 C 3.97 g/m*3 1.5 C 0 km/h
899 02-02-2010 11:47:03 1.5 C 3.97 g/m*3 1.5 C 0 km/h
900 02-02-2010 11:59:03 1.6 C 4.06 g/m*3 1.6 C 0 km/h
Sensor: Nr:Datum:Temp:Abs-Feuchte:Windchill:Wind:
Aussen-T/F 901 02-02-2010 12:11:02 1.8 C 4.11 g/m*3 1.8 C 0 km/h
902 02-02-2010 12:23:03 1.9 C 4.14 g/m*3 1.9 C 0 km/h
903 02-02-2010 12:35:02 2 C 4.11 g/m*3 2 C 0 km/h
904 02-02-2010 12:47:02 2.1 C 4.14 g/m*3 2.1 C 0 km/h
905 02-02-2010 12:59:02 2.2 C 4.22 g/m*3 2.2 C 0 km/h
906 02-02-2010 13:11:02 2.2 C 4.22 g/m*3 2.2 C 0 km/h
907 02-02-2010 13:23:02 2.4 C 4.23 g/m*3 2.4 C 0 km/h
908 02-02-2010 13:35:02 2.6 C 4.22 g/m*3 2.6 C 0 km/h
909 02-02-2010 13:47:02 2.6 C 4.17 g/m*3 2.6 C 0 km/h
910 02-02-2010 13:59:02 2.8 C 4.22 g/m*3 2.8 C 0 km/h
911 02-02-2010 14:11:02 2.8 C 4.22 g/m*3 2.8 C 0 km/h
912 02-02-2010 14:23:02 2.9 C 4.25 g/m*3 2.9 C 0 km/h
913 02-02-2010 14:35:01 2.9 C 4.25 g/m*3 2.9 C 0 km/h
914 02-02-2010 14:47:02 2.9 C 4.19 g/m*3 2.9 C 0 km/h
915 02-02-2010 14:59:02 2.7 C 4.2 g/m*3 2.7 C 0 km/h
916 02-02-2010 15:11:01 2.7 C 4.31 g/m*3 2.7 C 0 km/h
917 02-02-2010 15:23:02 2.7 C 4.37 g/m*3 2.7 C 0 km/h
918 02-02-2010 15:35:01 2.7 C 4.37 g/m*3 2.7 C 0 km/h
919 02-02-2010 15:47:03 2.6 C 4.4 g/m*3 2.6 C 0 km/h
920 02-02-2010 15:59:03 2.6 C 4.4 g/m*3 2.6 C 0 km/h
921 02-02-2010 16:11:02 2.5 C 4.37 g/m*3 2.5 C 0 km/h
922 02-02-2010 16:23:03 2.4 C 4.4 g/m*3 2.4 C 0 km/h
923 02-02-2010 16:35:02 2.4 C 4.45 g/m*3 2.4 C 0 km/h
924 02-02-2010 16:47:03 2.3 C 4.48 g/m*3 2.3 C 0 km/h
925 02-02-2010 16:59:03 2.2 C 4.45 g/m*3 2.2 C 0 km/h
Sensor: Nr:Datum:Temp:Abs-Feuchte:Windchill:Wind:
Aussen-T/F 926 02-02-2010 17:11:02 2.1 C 4.48 g/m*3 2.1 C 0 km/h
927 02-02-2010 17:23:02 2.1 C 4.48 g/m*3 2.1 C 0 km/h
928 02-02-2010 17:35:02 2.1 C 4.48 g/m*3 2.1 C 0 km/h
929 02-02-2010 17:47:02 2.2 C 4.45 g/m*3 2.2 C 0 km/h
930 02-02-2010 17:59:02 2.2 C 4.45 g/m*3 2.2 C 0 km/h
931 02-02-2010 18:11:02 2.3 C 4.48 g/m*3 2.3 C 0 km/h
932 02-02-2010 18:23:02 2.2 C 4.45 g/m*3 2.2 C 0 km/h
933 02-02-2010 18:35:01 2.2 C 4.45 g/m*3 2.2 C 0 km/h
934 02-02-2010 18:47:02 2.2 C 4.39 g/m*3 2.2 C 0 km/h
935 02-02-2010 18:59:02 2.2 C 4.39 g/m*3 2.2 C 0 km/h
936 02-02-2010 19:11:01 2.3 C 4.42 g/m*3 2.3 C 0 km/h
937 02-02-2010 19:23:02 2.2 C 4.45 g/m*3 2.2 C 0 km/h
938 02-02-2010 19:35:01 2.1 C 4.48 g/m*3 2.1 C 0 km/h
939 02-02-2010 19:47:02 2.1 C 4.53 g/m*3 2.1 C 0 km/h
940 02-02-2010 19:59:02 2.2 C 4.56 g/m*3 2.2 C 0 km/h
941 02-02-2010 20:11:01 2.2 C 4.56 g/m*3 2.2 C 0 km/h
942 02-02-2010 20:23:02 2.4 C 4.62 g/m*3 2.4 C 0 km/h
943 02-02-2010 20:35:01 2.5 C 4.6 g/m*3 2.5 C 0 km/h
944 02-02-2010 20:47:02 2.4 C 4.57 g/m*3 2.4 C 0 km/h
945 02-02-2010 20:59:02 2.5 C 4.6 g/m*3 2.5 C 0 km/h
946 02-02-2010 21:11:02 2.6 C 4.57 g/m*3 2.6 C 0 km/h
947 02-02-2010 21:23:02 2.6 C 4.57 g/m*3 2.6 C 0 km/h
948 02-02-2010 21:35:02 2.6 C 4.57 g/m*3 2.6 C 0 km/h
949 02-02-2010 21:48:03 2.6 C 4.63 g/m*3 2.6 C 0 km/h
950 02-02-2010 22:00:03 2.7 C 4.66 g/m*3 2.7 C 0 km/h
Sensor: Nr:Datum:Temp:Abs-Feuchte:Windchill:Wind:
Aussen-T/F 951 02-02-2010 22:12:03 2.6 C 4.69 g/m*3 2.6 C 0 km/h
952 02-02-2010 22:24:03 2.5 C 4.77 g/m*3 2.5 C 0 km/h
953 02-02-2010 22:36:03 2.4 C 4.8 g/m*3 2.4 C 0 km/h
954 02-02-2010 22:48:03 2.4 C 4.8 g/m*3 2.4 C 0 km/h
955 02-02-2010 23:00:03 2.5 C 4.83 g/m*3 2.5 C 0 km/h
956 02-02-2010 23:12:03 2.7 C 4.84 g/m*3 2.7 C 0 km/h
957 02-02-2010 23:24:03 2.7 C 4.78 g/m*3 2.7 C 0 km/h
958 02-02-2010 23:36:03 2.8 C 4.81 g/m*3 2.8 C 0 km/h
959 02-02-2010 23:48:04 2.9 C 4.84 g/m*3 2.9 C 0 km/h
960 03-02-2010 00:00:04 2.8 C 4.81 g/m*3 2.8 C 0 km/h
961 03-02-2010 00:12:04 3.3 C 4.91 g/m*3 3.3 C 0 km/h
962 03-02-2010 00:24:04 3.6 C 4.89 g/m*3 3.6 C 0 km/h
963 03-02-2010 00:36:04 3.7 C 4.92 g/m*3 3.7 C 0 km/h
964 03-02-2010 00:48:04 4 C 4.96 g/m*3 4 C 0 km/h
965 03-02-2010 01:00:04 4 C 4.9 g/m*3 4 C 0 km/h
966 03-02-2010 01:12:04 4 C 4.9 g/m*3 4 C 0 km/h
967 03-02-2010 01:24:04 4 C 4.96 g/m*3 4 C 0 km/h
968 03-02-2010 01:36:04 4.3 C 5.06 g/m*3 4.3 C 0 km/h
969 03-02-2010 01:48:04 4.4 C 5.09 g/m*3 4.4 C 0 km/h
970 03-02-2010 02:00:04 4.6 C 5.16 g/m*3 4.6 C 0 km/h
971 03-02-2010 02:12:04 4.8 C 5.16 g/m*3 4.8 C 0 km/h
972 03-02-2010 02:24:04 4.7 C 5.13 g/m*3 4.7 C 0 km/h
973 03-02-2010 02:36:04 2.9 C 4.78 g/m*3 2.9 C 0 km/h
974 03-02-2010 02:48:04 2.4 C 4.8 g/m*3 2.4 C 0 km/h
975 03-02-2010 03:00:04 2.1 C 4.81 g/m*3 2.1 C 0 km/h
Sensor: Nr:Datum:Temp:Abs-Feuchte:Windchill:Wind:
Aussen-T/F 976 03-02-2010 03:12:04 1.9 C 4.86 g/m*3 1.9 C 0 km/h
977 03-02-2010 03:24:04 1.7 C 4.85 g/m*3 1.7 C 0 km/h
978 03-02-2010 03:36:04 1.6 C 4.87 g/m*3 1.6 C 0 km/h
979 03-02-2010 03:48:04 1.6 C 4.87 g/m*3 1.6 C 0 km/h
980 03-02-2010 04:00:05 1.5 C 4.89 g/m*3 1.5 C 0 km/h
981 03-02-2010 04:12:05 1.2 C 4.79 g/m*3 1.2 C 0 km/h
982 03-02-2010 04:24:05 0.9 C 4.69 g/m*3 0.9 C 0 km/h
983 03-02-2010 04:36:05 0.8 C 4.66 g/m*3 0.8 C 0 km/h
984 03-02-2010 04:48:05 1 C 4.72 g/m*3 1 C 0 km/h
985 03-02-2010 05:00:05 1.1 C 4.81 g/m*3 1.1 C 0 km/h
986 03-02-2010 05:12:05 1.1 C 4.81 g/m*3 1.1 C 0 km/h
987 03-02-2010 05:24:05 1.1 C 4.86 g/m*3 1.1 C 0 km/h
988 03-02-2010 05:36:05 1.1 C 4.86 g/m*3 1.1 C 0 km/h
989 03-02-2010 05:48:05 1.2 C 4.89 g/m*3 1.2 C 0 km/h
990 03-02-2010 06:00:05 1.1 C 4.91 g/m*3 1.1 C 0 km/h
991 03-02-2010 06:12:05 1.1 C 4.91 g/m*3 1.1 C 0 km/h
992 03-02-2010 06:24:05 1.1 C 4.91 g/m*3 1.1 C 0 km/h
993 03-02-2010 06:36:05 1 C 4.88 g/m*3 1 C 0 km/h
994 03-02-2010 06:48:05 1.1 C 4.91 g/m*3 1.1 C 0 km/h
995 03-02-2010 07:00:05 1 C 4.88 g/m*3 1 C 0 km/h
996 03-02-2010 07:12:03 0.9 C 4.9 g/m*3 0.9 C 0 km/h
997 03-02-2010 07:24:02 1 C 4.88 g/m*3 1 C 0 km/h
998 03-02-2010 07:36:03 1 C 4.93 g/m*3 1 C 0 km/h
999 03-02-2010 07:48:02 1 C 4.93 g/m*3 1 C 0 km/h
1000 03-02-2010 08:00:02 1 C 4.93 g/m*3 1 C 0 km/h
Sensor: Nr:Datum:Temp:Abs-Feuchte:Windchill:Wind:
Aussen-T/F 1001 03-02-2010 08:12:01 1 C 4.93 g/m*3 1 C 0 km/h
1002 03-02-2010 08:24:02 1 C 4.93 g/m*3 1 C 0 km/h
1003 03-02-2010 08:36:02 1.1 C 4.96 g/m*3 1.1 C 0 km/h
1004 03-02-2010 08:48:02 1.2 C 5 g/m*3 1.2 C 0 km/h
1005 03-02-2010 09:00:02 1.2 C 5 g/m*3 1.2 C 0 km/h
1006 03-02-2010 09:12:03 1.3 C 5.03 g/m*3 1.3 C 0 km/h
1007 03-02-2010 09:24:02 1.5 C 5.1 g/m*3 1.5 C 0 km/h
1008 03-02-2010 09:36:02 1.5 C 5.1 g/m*3 1.5 C 0 km/h
1009 03-02-2010 09:48:02 1.7 C 5.17 g/m*3 1.7 C 0 km/h
1010 03-02-2010 10:00:02 2 C 5.22 g/m*3 2 C 0 km/h
1011 03-02-2010 10:12:01 2.2 C 5.29 g/m*3 2.2 C 0 km/h
1012 03-02-2010 10:24:02 2.3 C 5.27 g/m*3 2.3 C 0 km/h
1013 03-02-2010 10:36:02 2.7 C 5.36 g/m*3 2.7 C 0 km/h
1014 03-02-2010 10:48:02 3.1 C 5.45 g/m*3 3.1 C 0 km/h
1015 03-02-2010 11:00:02 3.1 C 5.33 g/m*3 3.1 C 0 km/h
1016 03-02-2010 11:12:02 3 C 5.11 g/m*3 3 C 0 km/h
1017 03-02-2010 11:24:02 3.3 C 5.22 g/m*3 3.3 C 0 km/h
1018 03-02-2010 11:36:02 3.3 C 5.1 g/m*3 3.3 C 0 km/h
1019 03-02-2010 11:48:02 3.1 C 4.97 g/m*3 3.1 C 0 km/h
1020 03-02-2010 12:00:02 3.2 C 5.06 g/m*3 3.2 C 0 km/h
1021 03-02-2010 12:12:01 3.1 C 5.03 g/m*3 3.1 C 0 km/h
1022 03-02-2010 12:24:02 3 C 5.05 g/m*3 3 C 0 km/h
1023 03-02-2010 12:36:02 3 C 5.11 g/m*3 3 C 0 km/h
1024 03-02-2010 12:48:02 3.1 C 5.15 g/m*3 3.1 C 0 km/h
1025 03-02-2010 13:00:02 3.1 C 5.21 g/m*3 3.1 C 0 km/h
Sensor: Nr:Datum:Temp:Abs-Feuchte:Windchill:Wind:
Aussen-T/F 1026 03-02-2010 13:12:02 3.1 C 5.21 g/m*3 3.1 C 0 km/h
1027 03-02-2010 13:24:02 3.3 C 5.28 g/m*3 3.3 C 0 km/h
1028 03-02-2010 13:36:02 3.2 C 5.24 g/m*3 3.2 C 0 km/h
1029 03-02-2010 13:48:02 3.3 C 5.28 g/m*3 3.3 C 0 km/h
1030 03-02-2010 14:00:02 3.3 C 5.28 g/m*3 3.3 C 0 km/h
1031 03-02-2010 14:12:02 3.3 C 5.28 g/m*3 3.3 C 0 km/h
1032 03-02-2010 14:24:02 3.3 C 5.28 g/m*3 3.3 C 0 km/h
1033 03-02-2010 14:36:02 3.3 C 5.28 g/m*3 3.3 C 0 km/h
1034 03-02-2010 14:48:02 3.2 C 5.24 g/m*3 3.2 C 0 km/h
1035 03-02-2010 15:00:02 3.2 C 5.24 g/m*3 3.2 C 0 km/h
1036 03-02-2010 15:12:02 3.1 C 5.27 g/m*3 3.1 C 0 km/h
1037 03-02-2010 15:24:02 2.9 C 5.2 g/m*3 2.9 C 0 km/h
1038 03-02-2010 15:36:02 3 C 5.23 g/m*3 3 C 0 km/h
1039 03-02-2010 15:48:02 2.9 C 5.26 g/m*3 2.9 C 0 km/h
1040 03-02-2010 16:00:02 2.8 C 5.22 g/m*3 2.8 C 0 km/h
1041 03-02-2010 16:12:02 2.6 C 5.15 g/m*3 2.6 C 0 km/h
1042 03-02-2010 16:24:02 2.6 C 5.15 g/m*3 2.6 C 0 km/h
1043 03-02-2010 16:36:02 2.5 C 5.12 g/m*3 2.5 C 0 km/h
1044 03-02-2010 16:48:02 2.4 C 5.08 g/m*3 2.4 C 0 km/h
1045 03-02-2010 17:00:02 2.4 C 5.14 g/m*3 2.4 C 0 km/h
1046 03-02-2010 17:12:02 2.3 C 5.1 g/m*3 2.3 C 0 km/h
1047 03-02-2010 17:24:02 2.2 C 5.07 g/m*3 2.2 C 0 km/h
1048 03-02-2010 17:36:02 2.1 C 5.04 g/m*3 2.1 C 0 km/h
1049 03-02-2010 17:48:01 1.9 C 5.02 g/m*3 1.9 C 0 km/h
1050 03-02-2010 18:00:01 1.9 C 5.02 g/m*3 1.9 C 0 km/h
Sensor: Nr:Datum:Temp:Abs-Feuchte:Windchill:Wind:
Aussen-T/F 1051 03-02-2010 18:12:02 1.9 C 5.02 g/m*3 1.9 C 0 km/h
1052 03-02-2010 18:24:01 1.9 C 5.08 g/m*3 1.9 C 0 km/h
1053 03-02-2010 18:36:01 1.9 C 5.08 g/m*3 1.9 C 0 km/h
1054 03-02-2010 18:48:01 1.8 C 5.04 g/m*3 1.8 C 0 km/h
1055 03-02-2010 19:00:01 1.8 C 5.04 g/m*3 1.8 C 0 km/h
1056 03-02-2010 19:12:02 1.7 C 5.01 g/m*3 1.7 C 0 km/h
1057 03-02-2010 19:20:01 1.7 C 5.01 g/m*3 1.7 C 0 km/h
1058 03-02-2010 19:45:01 1.8 C 5.04 g/m*3 1.8 C 0 km/h
1059 03-02-2010 20:10:02 1.9 C 5.13 g/m*3 1.9 C 0 km/h
1060 03-02-2010 20:35:01 1.8 C 5.1 g/m*3 1.8 C 0 km/h
1061 03-02-2010 21:00:01 1.7 C 5.06 g/m*3 1.7 C 0 km/h
1062 03-02-2010 21:25:01 1.7 C 5.06 g/m*3 1.7 C 0 km/h
1063 03-02-2010 21:50:02 1.8 C 5.1 g/m*3 1.8 C 0 km/h
1064 03-02-2010 22:15:03 1.8 C 5.1 g/m*3 1.8 C 0 km/h
1065 03-02-2010 22:40:02 1.8 C 5.1 g/m*3 1.8 C 0 km/h
1066 03-02-2010 23:05:02 1.8 C 5.1 g/m*3 1.8 C 0 km/h
1067 03-02-2010 23:30:02 1.8 C 5.1 g/m*3 1.8 C 0 km/h
1068 03-02-2010 23:55:02 2 C 5.17 g/m*3 2 C 0 km/h
1069 04-02-2010 00:20:02 2 C 5.17 g/m*3 2 C 0 km/h
1070 04-02-2010 00:45:02 2 C 5.17 g/m*3 2 C 0 km/h
1071 04-02-2010 01:10:02 2 C 5.17 g/m*3 2 C 0 km/h
1072 04-02-2010 01:35:02 2 C 5.22 g/m*3 2 C 0 km/h
1073 04-02-2010 02:00:02 2.1 C 5.26 g/m*3 2.1 C 0 km/h
1074 04-02-2010 02:25:03 2.2 C 5.29 g/m*3 2.2 C 0 km/h
1075 04-02-2010 02:51:03 2.1 C 5.26 g/m*3 2.1 C 0 km/h
Sensor: Nr:Datum:Temp:Abs-Feuchte:Windchill:Wind:
Aussen-T/F 1076 04-02-2010 03:16:04 2.2 C 5.29 g/m*3 2.2 C 0 km/h
1077 04-02-2010 03:41:01 2.3 C 5.33 g/m*3 2.3 C 0 km/h
1078 04-02-2010 04:06:02 2.3 C 5.33 g/m*3 2.3 C 0 km/h
1079 04-02-2010 04:31:02 2.3 C 5.33 g/m*3 2.3 C 0 km/h
1080 04-02-2010 04:56:01 2.4 C 5.37 g/m*3 2.4 C 0 km/h
1081 04-02-2010 05:21:02 2.5 C 5.46 g/m*3 2.5 C 0 km/h
1082 04-02-2010 05:46:02 2.7 C 5.54 g/m*3 2.7 C 0 km/h
1083 04-02-2010 06:11:01 3 C 5.65 g/m*3 3 C 0 km/h
1084 04-02-2010 06:51:02 3.6 C 5.88 g/m*3 3.6 C 0 km/h
1085 04-02-2010 07:16:02 3.4 C 5.8 g/m*3 3.4 C 0 km/h
1086 04-02-2010 07:41:02 3.2 C 5.72 g/m*3 3.2 C 0 km/h
1087 04-02-2010 08:06:02 3.3 C 5.76 g/m*3 3.3 C 0 km/h
1088 04-02-2010 08:31:02 3.2 C 5.72 g/m*3 3.2 C 0 km/h
1089 04-02-2010 08:56:02 3.3 C 5.76 g/m*3 3.3 C 0 km/h
1090 04-02-2010 09:21:02 3.7 C 5.92 g/m*3 3.7 C 0 km/h
1091 04-02-2010 09:46:02 4.5 C 6.24 g/m*3 4.5 C 0 km/h
1092 04-02-2010 10:11:02 4.7 C 6.19 g/m*3 4.7 C 0 km/h
1093 04-02-2010 10:36:02 5.2 C 6.13 g/m*3 5.2 C 0 km/h
1094 04-02-2010 11:01:02 5.7 C 6.19 g/m*3 5.7 C 0 km/h
1095 04-02-2010 11:26:02 6.3 C 6.07 g/m*3 6.3 C 0 km/h
1096 04-02-2010 11:51:02 6.9 C 6 g/m*3 6.9 C 0 km/h
1097 04-02-2010 12:16:02 7.1 C 5.85 g/m*3 7.1 C 0 km/h
1098 04-02-2010 12:41:02 7.5 C 5.92 g/m*3 7.5 C 0 km/h
1099 04-02-2010 13:06:02 8 C 5.95 g/m*3 8 C 0 km/h
1100 04-02-2010 13:31:02 8.5 C 5.98 g/m*3 8.5 C 0 km/h
Sensor: Nr:Datum:Temp:Abs-Feuchte:Windchill:Wind:
Aussen-T/F 1101 04-02-2010 13:56:02 8.7 C 5.88 g/m*3 8.7 C 0 km/h
1102 04-02-2010 14:21:02 8.5 C 5.81 g/m*3 8.5 C 0 km/h
1103 04-02-2010 14:46:03 8.2 C 5.61 g/m*3 8.2 C 0 km/h
1104 04-02-2010 15:11:03 8.8 C 5.92 g/m*3 8.8 C 0 km/h
1105 04-02-2010 15:36:03 8.8 C 5.74 g/m*3 8.8 C 0 km/h
1106 04-02-2010 16:01:03 7.8 C 5.55 g/m*3 7.8 C 0 km/h
1107 04-02-2010 16:26:03 7.5 C 5.52 g/m*3 7.5 C 0 km/h
1108 04-02-2010 16:51:03 6.2 C 5.37 g/m*3 6.2 C 0 km/h
1109 04-02-2010 17:16:03 5.7 C 5.48 g/m*3 5.7 C 0 km/h
1110 04-02-2010 17:41:03 5 C 5.37 g/m*3 5 C 0 km/h
1111 04-02-2010 18:06:03 4.4 C 5.29 g/m*3 4.4 C 0 km/h
1112 04-02-2010 18:31:03 4 C 5.28 g/m*3 4 C 0 km/h
1113 04-02-2010 18:56:03 3.6 C 5.2 g/m*3 3.6 C 0 km/h
1114 04-02-2010 19:21:03 3.3 C 5.16 g/m*3 3.3 C 0 km/h
1115 04-02-2010 19:46:03 3 C 5.11 g/m*3 3 C 0 km/h
1116 04-02-2010 20:11:03 2.7 C 5.13 g/m*3 2.7 C 0 km/h
1117 04-02-2010 20:36:03 2.5 C 5.12 g/m*3 2.5 C 0 km/h
1118 04-02-2010 21:01:03 2.5 C 5.17 g/m*3 2.5 C 0 km/h
1119 04-02-2010 21:26:03 2.6 C 5.27 g/m*3 2.6 C 0 km/h
1120 04-02-2010 21:51:03 2.1 C 5.04 g/m*3 2.1 C 0 km/h
1121 04-02-2010 22:16:03 2.2 C 5.18 g/m*3 2.2 C 0 km/h
1122 04-02-2010 22:41:03 1.8 C 5.04 g/m*3 1.8 C 0 km/h
1123 04-02-2010 23:06:03 1.8 C 5.1 g/m*3 1.8 C 0 km/h
1124 04-02-2010 23:31:03 1.7 C 5.06 g/m*3 1.7 C 0 km/h
1125 04-02-2010 23:56:04 2.1 C 5.2 g/m*3 2.1 C 0 km/h
Sensor: Nr:Datum:Temp:Abs-Feuchte:Windchill:Wind:
Aussen-T/F 1126 05-02-2010 00:21:04 2.6 C 5.44 g/m*3 2.6 C 0 km/h
1127 05-02-2010 00:46:04 2.2 C 5.24 g/m*3 2.2 C 0 km/h
1128 05-02-2010 01:11:04 2 C 5.17 g/m*3 2 C 0 km/h
1129 05-02-2010 01:36:04 1.7 C 5.12 g/m*3 1.7 C 0 km/h
1130 05-02-2010 02:01:04 2.2 C 5.24 g/m*3 2.2 C 0 km/h
1131 05-02-2010 02:26:04 2.6 C 5.38 g/m*3 2.6 C 0 km/h
1132 05-02-2010 02:51:04 2.7 C 5.3 g/m*3 2.7 C 0 km/h
1133 05-02-2010 03:16:04 2.7 C 5.19 g/m*3 2.7 C 0 km/h
1134 05-02-2010 03:41:04 2.8 C 5.04 g/m*3 2.8 C 0 km/h
1135 05-02-2010 04:06:04 2.8 C 5.04 g/m*3 2.8 C 0 km/h
1136 05-02-2010 04:31:04 2.8 C 4.93 g/m*3 2.8 C 0 km/h
1137 05-02-2010 04:56:04 2.8 C 4.93 g/m*3 2.8 C 0 km/h
1138 05-02-2010 05:21:04 2.7 C 4.89 g/m*3 2.7 C 0 km/h
1139 05-02-2010 05:46:04 2.7 C 4.84 g/m*3 2.7 C 0 km/h
1140 05-02-2010 06:11:04 2.8 C 4.87 g/m*3 2.8 C 0 km/h
1141 05-02-2010 06:36:04 2.7 C 4.84 g/m*3 2.7 C 0 km/h
1142 05-02-2010 07:01:04 2.4 C 4.74 g/m*3 2.4 C 0 km/h
1143 05-02-2010 07:26:04 2.5 C 4.89 g/m*3 2.5 C 0 km/h
1144 05-02-2010 07:51:04 2.8 C 4.99 g/m*3 2.8 C 0 km/h
1145 05-02-2010 08:16:04 3.2 C 4.88 g/m*3 3.2 C 0 km/h
1146 05-02-2010 08:41:05 3.4 C 4.89 g/m*3 3.4 C 0 km/h
1147 05-02-2010 09:06:05 3.6 C 4.89 g/m*3 3.6 C 0 km/h
1148 05-02-2010 09:31:05 3.8 C 4.83 g/m*3 3.8 C 0 km/h
1149 05-02-2010 09:56:05 4.1 C 4.67 g/m*3 4.1 C 0 km/h
1150 05-02-2010 10:21:05 4.1 C 4.54 g/m*3 4.1 C 0 km/h
Sensor: Nr:Datum:Temp:Abs-Feuchte:Windchill:Wind:
Aussen-T/F 1151 05-02-2010 10:46:05 4 C 4.51 g/m*3 4 C 0 km/h
1152 05-02-2010 11:11:05 4.3 C 4.54 g/m*3 4.3 C 0 km/h
1153 05-02-2010 11:36:05 4.3 C 4.41 g/m*3 4.3 C 0 km/h
1154 05-02-2010 12:01:05 4.4 C 4.37 g/m*3 4.4 C 0 km/h
1155 05-02-2010 12:26:05 4.4 C 4.31 g/m*3 4.4 C 0 km/h
1156 05-02-2010 12:51:05 4.3 C 4.28 g/m*3 4.3 C 0 km/h
1157 05-02-2010 13:16:05 4.5 C 4.4 g/m*3 4.5 C 0 km/h
1158 05-02-2010 13:41:05 4.9 C 4.52 g/m*3 4.9 C 0 km/h
1159 05-02-2010 14:06:05 5.1 C 4.38 g/m*3 5.1 C 0 km/h
1160 05-02-2010 14:31:05 4.8 C 4.36 g/m*3 4.8 C 0 km/h
1161 05-02-2010 14:56:05 4.6 C 4.37 g/m*3 4.6 C 0 km/h
1162 05-02-2010 15:21:05 4.5 C 4.4 g/m*3 4.5 C 0 km/h
1163 05-02-2010 15:46:05 4.2 C 4.38 g/m*3 4.2 C 0 km/h
1164 05-02-2010 16:11:05 3.8 C 4.64 g/m*3 3.8 C 0 km/h
1165 05-02-2010 16:36:05 3.6 C 4.7 g/m*3 3.6 C 0 km/h
1166 05-02-2010 17:01:05 3.4 C 4.83 g/m*3 3.4 C 0 km/h
1167 05-02-2010 17:26:05 3.4 C 4.95 g/m*3 3.4 C 0 km/h
1168 05-02-2010 17:51:06 3.2 C 4.94 g/m*3 3.2 C 0 km/h
1169 05-02-2010 18:16:06 3.3 C 5.04 g/m*3 3.3 C 0 km/h
1170 05-02-2010 18:41:06 3.1 C 5.03 g/m*3 3.1 C 0 km/h
1171 05-02-2010 19:06:06 3.2 C 5.12 g/m*3 3.2 C 0 km/h
1172 05-02-2010 19:31:06 3 C 5.05 g/m*3 3 C 0 km/h
1173 05-02-2010 19:56:06 3.1 C 5.09 g/m*3 3.1 C 0 km/h
1174 05-02-2010 20:21:06 3 C 5.11 g/m*3 3 C 0 km/h
1175 05-02-2010 20:46:06 2.8 C 5.1 g/m*3 2.8 C 0 km/h
Sensor: Nr:Datum:Temp:Abs-Feuchte:Windchill:Wind:
Aussen-T/F 1176 05-02-2010 21:11:06 2.8 C 5.16 g/m*3 2.8 C 0 km/h
1177 05-02-2010 21:36:06 2.6 C 5.09 g/m*3 2.6 C 0 km/h
1178 05-02-2010 22:01:06 2.7 C 5.19 g/m*3 2.7 C 0 km/h
1179 05-02-2010 22:26:06 2.9 C 5.26 g/m*3 2.9 C 0 km/h
1180 05-02-2010 22:51:06 3 C 5.23 g/m*3 3 C 0 km/h
1181 05-02-2010 23:16:06 3 C 5.23 g/m*3 3 C 0 km/h
1182 05-02-2010 23:41:06 3 C 5.23 g/m*3 3 C 0 km/h
1183 06-02-2010 00:06:06 2.8 C 5.22 g/m*3 2.8 C 0 km/h
1184 06-02-2010 00:31:06 2.8 C 5.22 g/m*3 2.8 C 0 km/h
1185 06-02-2010 00:56:06 2.7 C 5.19 g/m*3 2.7 C 0 km/h
1186 06-02-2010 01:21:06 2.4 C 5.08 g/m*3 2.4 C 0 km/h
1187 06-02-2010 01:46:06 2.1 C 4.98 g/m*3 2.1 C 0 km/h
1188 06-02-2010 02:11:06 2.4 C 5.14 g/m*3 2.4 C 0 km/h
1189 06-02-2010 02:36:06 2.7 C 5.24 g/m*3 2.7 C 0 km/h
1190 06-02-2010 03:01:07 2.8 C 5.28 g/m*3 2.8 C 0 km/h
1191 06-02-2010 03:26:07 2.5 C 5.17 g/m*3 2.5 C 0 km/h
1192 06-02-2010 03:51:07 2.4 C 5.14 g/m*3 2.4 C 0 km/h
1193 06-02-2010 04:16:07 2.6 C 5.27 g/m*3 2.6 C 0 km/h
1194 06-02-2010 04:41:07 2.8 C 5.34 g/m*3 2.8 C 0 km/h
1195 06-02-2010 05:06:07 3 C 5.41 g/m*3 3 C 0 km/h
1196 06-02-2010 05:31:07 3 C 5.41 g/m*3 3 C 0 km/h
1197 06-02-2010 05:56:07 3 C 5.41 g/m*3 3 C 0 km/h
1198 06-02-2010 06:21:07 3.2 C 5.48 g/m*3 3.2 C 0 km/h
1199 06-02-2010 06:46:07 3 C 5.41 g/m*3 3 C 0 km/h
1200 06-02-2010 07:11:07 3 C 5.41 g/m*3 3 C 0 km/h
Sensor: Nr:Datum:Temp:Abs-Feuchte:Windchill:Wind:
Aussen-T/F 1201 06-02-2010 07:36:07 3.1 C 5.45 g/m*3 3.1 C 0 km/h
1202 06-02-2010 08:01:07 3.1 C 5.45 g/m*3 3.1 C 0 km/h
1203 06-02-2010 08:26:07 3.2 C 5.48 g/m*3 3.2 C 0 km/h
1204 06-02-2010 08:51:07 3.4 C 5.56 g/m*3 3.4 C 0 km/h
1205 06-02-2010 09:16:07 3.7 C 5.67 g/m*3 3.7 C 0 km/h
1206 06-02-2010 09:41:07 4 C 5.72 g/m*3 4 C 0 km/h
1207 06-02-2010 10:06:07 4.6 C 5.89 g/m*3 4.6 C 0 km/h
1208 06-02-2010 10:31:07 5.1 C 5.95 g/m*3 5.1 C 0 km/h
1209 06-02-2010 10:56:07 5.6 C 6.01 g/m*3 5.6 C 0 km/h
1210 06-02-2010 11:21:07 5.7 C 5.84 g/m*3 5.7 C 0 km/h
1211 06-02-2010 11:46:07 6.3 C 5.85 g/m*3 6.3 C 0 km/h
1212 06-02-2010 12:11:07 6.7 C 5.93 g/m*3 6.7 C 0 km/h
1213 06-02-2010 12:36:08 6.9 C 6 g/m*3 6.9 C 0 km/h
1214 06-02-2010 13:01:08 7.3 C 5.69 g/m*3 7.3 C 0 km/h
1215 06-02-2010 13:26:08 7.4 C 5.65 g/m*3 7.4 C 0 km/h
1216 06-02-2010 13:51:08 7.3 C 5.29 g/m*3 7.3 C 0 km/h
1217 06-02-2010 14:16:08 7.1 C 5.23 g/m*3 7.1 C 0 km/h
1218 06-02-2010 14:41:08 7 C 5.27 g/m*3 7 C 0 km/h
1219 06-02-2010 15:06:08 6.7 C 5.39 g/m*3 6.7 C 0 km/h
1220 06-02-2010 15:31:08 6.5 C 5.47 g/m*3 6.5 C 0 km/h
1221 06-02-2010 15:56:08 6.4 C 5.36 g/m*3 6.4 C 0 km/h
1222 06-02-2010 16:21:08 6.2 C 5.44 g/m*3 6.2 C 0 km/h
1223 06-02-2010 16:46:08 6 C 5.37 g/m*3 6 C 0 km/h
1224 06-02-2010 17:11:08 5.8 C 5.44 g/m*3 5.8 C 0 km/h
1225 06-02-2010 17:36:08 5.7 C 5.48 g/m*3 5.7 C 0 km/h
Sensor: Nr:Datum:Temp:Abs-Feuchte:Windchill:Wind:
Aussen-T/F 1226 06-02-2010 18:01:08 5.5 C 5.41 g/m*3 5.5 C 0 km/h
1227 06-02-2010 18:26:08 5.3 C 5.41 g/m*3 5.3 C 0 km/h
1228 06-02-2010 18:51:08 5.2 C 5.37 g/m*3 5.2 C 0 km/h
1229 06-02-2010 19:16:08 5.1 C 5.4 g/m*3 5.1 C 0 km/h
1230 06-02-2010 19:41:08 5.1 C 5.4 g/m*3 5.1 C 0 km/h
1231 06-02-2010 20:06:08 5 C 5.37 g/m*3 5 C 0 km/h
1232 06-02-2010 20:31:08 4.9 C 5.4 g/m*3 4.9 C 0 km/h
1233 06-02-2010 20:56:08 4.9 C 5.47 g/m*3 4.9 C 0 km/h
1234 06-02-2010 21:21:09 4.8 C 5.43 g/m*3 4.8 C 0 km/h
1235 06-02-2010 21:46:09 4.8 C 5.43 g/m*3 4.8 C 0 km/h
1236 06-02-2010 22:11:09 4.8 C 5.5 g/m*3 4.8 C 0 km/h
1237 06-02-2010 22:36:09 4.7 C 5.46 g/m*3 4.7 C 0 km/h
1238 06-02-2010 23:01:09 4.7 C 5.46 g/m*3 4.7 C 0 km/h
1239 06-02-2010 23:26:09 4.6 C 5.43 g/m*3 4.6 C 0 km/h
1240 06-02-2010 23:51:09 4.6 C 5.43 g/m*3 4.6 C 0 km/h
1241 07-02-2010 00:16:09 4.5 C 5.46 g/m*3 4.5 C 0 km/h
1242 07-02-2010 00:41:09 4.5 C 5.46 g/m*3 4.5 C 0 km/h
1243 07-02-2010 01:06:09 4.5 C 5.46 g/m*3 4.5 C 0 km/h
1244 07-02-2010 01:31:09 4.6 C 5.49 g/m*3 4.6 C 0 km/h
1245 07-02-2010 01:56:09 4.4 C 5.42 g/m*3 4.4 C 0 km/h
1246 07-02-2010 02:21:09 4.2 C 5.41 g/m*3 4.2 C 0 km/h
1247 07-02-2010 02:46:09 4.1 C 5.38 g/m*3 4.1 C 0 km/h
1248 07-02-2010 03:11:09 4.1 C 5.5 g/m*3 4.1 C 0 km/h
1249 07-02-2010 03:36:09 4.1 C 5.5 g/m*3 4.1 C 0 km/h
1250 07-02-2010 04:01:09 4.1 C 5.57 g/m*3 4.1 C 0 km/h
Sensor: Nr:Datum:Temp:Abs-Feuchte:Windchill:Wind:
Aussen-T/F 1251 07-02-2010 04:26:09 4 C 5.59 g/m*3 4 C 0 km/h
1252 07-02-2010 04:51:09 4 C 5.59 g/m*3 4 C 0 km/h
1253 07-02-2010 05:16:09 4.1 C 5.7 g/m*3 4.1 C 0 km/h
1254 07-02-2010 05:41:09 3.8 C 5.58 g/m*3 3.8 C 0 km/h
1255 07-02-2010 06:06:10 3.8 C 5.65 g/m*3 3.8 C 0 km/h
1256 07-02-2010 06:31:10 3.8 C 5.65 g/m*3 3.8 C 0 km/h
1257 07-02-2010 06:56:10 3.8 C 5.65 g/m*3 3.8 C 0 km/h
1258 07-02-2010 07:21:10 3.7 C 5.61 g/m*3 3.7 C 0 km/h
1259 07-02-2010 07:46:10 3.7 C 5.67 g/m*3 3.7 C 0 km/h
1260 07-02-2010 08:11:10 3.8 C 5.71 g/m*3 3.8 C 0 km/h
1261 07-02-2010 08:36:10 3.7 C 5.67 g/m*3 3.7 C 0 km/h
1262 07-02-2010 09:01:10 3.8 C 5.71 g/m*3 3.8 C 0 km/h
1263 07-02-2010 09:26:10 3.9 C 5.75 g/m*3 3.9 C 0 km/h
1264 07-02-2010 09:51:10 4.1 C 5.76 g/m*3 4.1 C 0 km/h
1265 07-02-2010 10:16:10 4.1 C 5.7 g/m*3 4.1 C 0 km/h
1266 07-02-2010 10:41:10 4.5 C 5.72 g/m*3 4.5 C 0 km/h
1267 07-02-2010 11:06:10 4.9 C 5.6 g/m*3 4.9 C 0 km/h
1268 07-02-2010 11:31:10 4.7 C 5.13 g/m*3 4.7 C 0 km/h
1269 07-02-2010 11:56:10 4.5 C 4.93 g/m*3 4.5 C 0 km/h
1270 07-02-2010 12:21:10 5.3 C 5.06 g/m*3 5.3 C 0 km/h
1271 07-02-2010 12:46:10 5.7 C 4.84 g/m*3 5.7 C 0 km/h
1272 07-02-2010 13:11:10 5.6 C 4.67 g/m*3 5.6 C 0 km/h
1273 07-02-2010 13:36:10 5.8 C 4.66 g/m*3 5.8 C 0 km/h
1274 07-02-2010 14:01:10 6 C 4.57 g/m*3 6 C 0 km/h
1275 07-02-2010 14:26:10 6.1 C 4.53 g/m*3 6.1 C 0 km/h
Sensor: Nr:Datum:Temp:Abs-Feuchte:Windchill:Wind:
Aussen-T/F 1276 07-02-2010 14:51:10 5.7 C 4.41 g/m*3 5.7 C 0 km/h
1277 07-02-2010 15:16:11 5.5 C 4.49 g/m*3 5.5 C 0 km/h
1278 07-02-2010 15:41:11 5.4 C 4.47 g/m*3 5.4 C 0 km/h
1279 07-02-2010 16:06:11 5 C 4.62 g/m*3 5 C 0 km/h
1280 07-02-2010 16:31:11 4.8 C 4.76 g/m*3 4.8 C 0 km/h
1281 07-02-2010 16:56:11 4.6 C 4.83 g/m*3 4.6 C 0 km/h
1282 07-02-2010 17:21:11 4.7 C 4.93 g/m*3 4.7 C 0 km/h
1283 07-02-2010 17:46:11 4.5 C 4.93 g/m*3 4.5 C 0 km/h
1284 07-02-2010 18:11:11 4.4 C 4.96 g/m*3 4.4 C 0 km/h
1285 07-02-2010 18:36:11 4.2 C 4.96 g/m*3 4.2 C 0 km/h
1286 07-02-2010 19:01:11 4.1 C 4.86 g/m*3 4.1 C 0 km/h
1287 07-02-2010 19:26:11 3.7 C 4.49 g/m*3 3.7 C 0 km/h
1288 07-02-2010 19:51:11 3.7 C 4.42 g/m*3 3.7 C 0 km/h
1289 07-02-2010 20:16:11 3.5 C 4.37 g/m*3 3.5 C 0 km/h
1290 07-02-2010 20:41:11 3.3 C 4.37 g/m*3 3.3 C 0 km/h
1291 07-02-2010 21:06:11 3 C 4.22 g/m*3 3 C 0 km/h
1292 07-02-2010 21:31:11 2.7 C 4.08 g/m*3 2.7 C 0 km/h
1293 07-02-2010 21:56:11 2.5 C 3.97 g/m*3 2.5 C 0 km/h
1294 07-02-2010 22:21:11 2.4 C 3.83 g/m*3 2.4 C 0 km/h
1295 07-02-2010 22:46:11 2 C 3.56 g/m*3 2 C 0 km/h
1296 07-02-2010 23:11:11 2 C 3.67 g/m*3 2 C 0 km/h
1297 07-02-2010 23:36:12 1.7 C 3.65 g/m*3 1.7 C 0 km/h
1298 08-02-2010 00:01:12 1.4 C 3.52 g/m*3 1.4 C 0 km/h
1299 08-02-2010 00:26:12 1.6 C 3.68 g/m*3 1.6 C 0 km/h
1300 08-02-2010 00:51:12 1.4 C 3.47 g/m*3 1.4 C 0 km/h
Sensor: Nr:Datum:Temp:Abs-Feuchte:Windchill:Wind:
Aussen-T/F 1301 08-02-2010 01:16:12 1.2 C 3.42 g/m*3 1.2 C 0 km/h
1302 08-02-2010 01:41:12 1 C 3.43 g/m*3 1 C 0 km/h
1303 08-02-2010 02:06:12 0.8 C 3.48 g/m*3 0.8 C 0 km/h
1304 08-02-2010 02:31:12 0.8 C 3.48 g/m*3 0.8 C 0 km/h
1305 08-02-2010 02:56:12 0.7 C 3.46 g/m*3 0.7 C 0 km/h
1306 08-02-2010 03:21:12 0.5 C 3.41 g/m*3 0.5 C 0 km/h
1307 08-02-2010 03:46:12 0.5 C 3.41 g/m*3 0.5 C 0 km/h
1308 08-02-2010 04:11:12 0.3 C 3.31 g/m*3 0.3 C 0 km/h
1309 08-02-2010 04:36:12 0.3 C 3.31 g/m*3 0.3 C 0 km/h
1310 08-02-2010 05:01:12 0.2 C 3.24 g/m*3 0.2 C 0 km/h
1311 08-02-2010 05:26:12 -0.1 C 3.22 g/m*3 -0.1 C 0 km/h
1312 08-02-2010 05:51:12 -0.3 C 3.23 g/m*3 -0.3 C 0 km/h
1313 08-02-2010 06:16:12 -0.4 C 3.25 g/m*3 -0.4 C 0 km/h
1314 08-02-2010 06:41:12 -0.3 C 3.23 g/m*3 -0.3 C 0 km/h
1315 08-02-2010 07:06:12 -0.5 C 3.18 g/m*3 -0.5 C 0 km/h
1316 08-02-2010 07:31:12 -0.6 C 3.16 g/m*3 -0.6 C 0 km/h
1317 08-02-2010 07:56:12 -0.8 C 3.07 g/m*3 -0.8 C 0 km/h
1318 08-02-2010 08:21:13 -0.9 C 3.05 g/m*3 -0.9 C 0 km/h
1319 08-02-2010 08:46:13 -0.9 C 3 g/m*3 -0.9 C 0 km/h
1320 08-02-2010 09:11:13 -0.7 C 3 g/m*3 -0.7 C 0 km/h
1321 08-02-2010 09:36:13 -0.8 C 2.93 g/m*3 -0.8 C 0 km/h
1322 08-02-2010 10:01:13 -0.6 C 2.93 g/m*3 -0.6 C 0 km/h
1323 08-02-2010 10:26:13 -0.6 C 2.88 g/m*3 -0.6 C 0 km/h
1324 08-02-2010 10:51:13 -0.5 C 2.9 g/m*3 -0.5 C 0 km/h
1325 08-02-2010 11:16:13 -0.5 C 2.86 g/m*3 -0.5 C 0 km/h
Sensor: Nr:Datum:Temp:Abs-Feuchte:Windchill:Wind:
Aussen-T/F 1326 08-02-2010 11:41:13 -0.2 C 2.72 g/m*3 -0.2 C 0 km/h
1327 08-02-2010 12:06:13 -0.3 C 2.66 g/m*3 -0.3 C 0 km/h
1328 08-02-2010 12:31:13 -0.4 C 2.5 g/m*3 -0.4 C 0 km/h
1329 08-02-2010 12:56:13 0.3 C 2.57 g/m*3 0.3 C 0 km/h
1330 08-02-2010 13:21:13 0.5 C 2.56 g/m*3 0.5 C 0 km/h
1331 08-02-2010 13:46:13 0.8 C 2.66 g/m*3 0.8 C 0 km/h
1332 08-02-2010 14:11:13 0.6 C 2.63 g/m*3 0.6 C 0 km/h
1333 08-02-2010 14:36:13 0.5 C 2.66 g/m*3 0.5 C 0 km/h
1334 08-02-2010 15:01:13 -0.2 C 2.63 g/m*3 -0.2 C 0 km/h
1335 08-02-2010 15:26:13 -0.6 C 2.6 g/m*3 -0.6 C 0 km/h
1336 08-02-2010 15:51:13 -1.1 C 2.51 g/m*3 -1.1 C 0 km/h
1337 08-02-2010 16:16:13 -1.1 C 2.6 g/m*3 -1.1 C 0 km/h
1338 08-02-2010 16:41:13 -1.4 C 2.55 g/m*3 -1.4 C 0 km/h
1339 08-02-2010 17:06:13 -1.9 C 2.55 g/m*3 -1.9 C 0 km/h
1340 08-02-2010 17:31:14 -2.1 C 2.51 g/m*3 -2.1 C 0 km/h
1341 08-02-2010 17:56:14 -2.3 C 2.48 g/m*3 -2.3 C 0 km/h
1342 08-02-2010 18:21:14 -2.3 C 2.52 g/m*3 -2.3 C 0 km/h
1343 08-02-2010 18:46:14 -2.4 C 2.5 g/m*3 -2.4 C 0 km/h
1344 08-02-2010 19:11:14 -2.4 C 2.5 g/m*3 -2.4 C 0 km/h
1345 08-02-2010 19:36:14 -2.5 C 2.48 g/m*3 -2.5 C 0 km/h
1346 08-02-2010 20:01:14 -2.6 C 2.46 g/m*3 -2.6 C 0 km/h
1347 08-02-2010 20:26:14 -2.6 C 2.46 g/m*3 -2.6 C 0 km/h
1348 08-02-2010 20:51:14 -2.6 C 2.51 g/m*3 -2.6 C 0 km/h
1349 08-02-2010 21:16:14 -2.6 C 2.51 g/m*3 -2.6 C 0 km/h
1350 08-02-2010 21:41:14 -2.6 C 2.51 g/m*3 -2.6 C 0 km/h
Sensor: Nr:Datum:Temp:Abs-Feuchte:Windchill:Wind:
Aussen-T/F 1351 08-02-2010 22:06:14 -2.5 C 2.52 g/m*3 -2.5 C 0 km/h
1352 08-02-2010 22:31:14 -2.7 C 2.45 g/m*3 -2.7 C 0 km/h
1353 08-02-2010 22:56:14 -2.8 C 2.39 g/m*3 -2.8 C 0 km/h
1354 08-02-2010 23:21:14 -3.1 C 2.34 g/m*3 -3.1 C 0 km/h
1355 08-02-2010 23:46:14 -3.1 C 2.34 g/m*3 -3.1 C 0 km/h
1356 09-02-2010 00:11:14 -3.3 C 2.31 g/m*3 -3.3 C 0 km/h
1357 09-02-2010 00:36:14 -3.4 C 2.33 g/m*3 -3.4 C 0 km/h
1358 09-02-2010 01:01:14 -3.3 C 2.38 g/m*3 -3.3 C 0 km/h
1359 09-02-2010 01:26:14 -3.2 C 2.36 g/m*3 -3.2 C 0 km/h
1360 09-02-2010 01:51:14 -3.3 C 2.35 g/m*3 -3.3 C 0 km/h
1361 09-02-2010 02:16:14 -3.2 C 2.36 g/m*3 -3.2 C 0 km/h
1362 09-02-2010 02:41:15 -3.2 C 2.32 g/m*3 -3.2 C 0 km/h
1363 09-02-2010 03:06:15 -3.2 C 2.32 g/m*3 -3.2 C 0 km/h
1364 09-02-2010 03:31:15 -3.4 C 2.29 g/m*3 -3.4 C 0 km/h
1365 09-02-2010 03:56:15 -3.4 C 2.29 g/m*3 -3.4 C 0 km/h
1366 09-02-2010 04:21:15 -3.4 C 2.29 g/m*3 -3.4 C 0 km/h
1367 09-02-2010 04:46:15 -3.5 C 2.27 g/m*3 -3.5 C 0 km/h
1368 09-02-2010 05:11:15 -3.5 C 2.27 g/m*3 -3.5 C 0 km/h
1369 09-02-2010 05:36:15 -3.5 C 2.27 g/m*3 -3.5 C 0 km/h
1370 09-02-2010 06:01:15 -3.7 C 2.28 g/m*3 -3.7 C 0 km/h
1371 09-02-2010 06:26:15 -3.7 C 2.32 g/m*3 -3.7 C 0 km/h
1372 09-02-2010 06:51:15 -3.7 C 2.32 g/m*3 -3.7 C 0 km/h
1373 09-02-2010 07:16:15 -3.8 C 2.26 g/m*3 -3.8 C 0 km/h
1374 09-02-2010 07:41:15 -3.8 C 2.3 g/m*3 -3.8 C 0 km/h
1375 09-02-2010 08:06:15 -3.9 C 2.28 g/m*3 -3.9 C 0 km/h
Sensor: Nr:Datum:Temp:Abs-Feuchte:Windchill:Wind:
Aussen-T/F 1376 09-02-2010 08:31:15 -3.9 C 2.28 g/m*3 -3.9 C 0 km/h
1377 09-02-2010 08:56:15 -4.1 C 2.25 g/m*3 -4.1 C 0 km/h
1378 09-02-2010 09:21:15 -4 C 2.27 g/m*3 -4 C 0 km/h
1379 09-02-2010 09:46:15 -3.9 C 2.32 g/m*3 -3.9 C 0 km/h
1380 09-02-2010 10:11:15 -4 C 2.38 g/m*3 -4 C 0 km/h
1381 09-02-2010 10:36:15 -3.6 C 2.52 g/m*3 -3.6 C 0 km/h
1382 09-02-2010 11:01:15 -3.2 C 2.56 g/m*3 -3.2 C 0 km/h
1383 09-02-2010 11:26:15 -3.4 C 2.37 g/m*3 -3.4 C 0 km/h
1384 09-02-2010 11:51:16 -3.5 C 2.35 g/m*3 -3.5 C 0 km/h
1385 09-02-2010 12:16:16 -3.4 C 2.25 g/m*3 -3.4 C 0 km/h
1386 09-02-2010 12:41:16 -3.1 C 2.18 g/m*3 -3.1 C 0 km/h
1387 09-02-2010 13:06:16 -2.8 C 2.23 g/m*3 -2.8 C 0 km/h
1388 09-02-2010 13:31:16 -2.8 C 2.11 g/m*3 -2.8 C 0 km/h
1389 09-02-2010 13:56:16 -3 C 2.04 g/m*3 -3 C 0 km/h
1390 09-02-2010 14:21:16 -3.4 C 2.02 g/m*3 -3.4 C 0 km/h
1391 09-02-2010 14:46:16 -3.5 C 2.01 g/m*3 -3.5 C 0 km/h
1392 09-02-2010 15:11:16 -3.5 C 1.97 g/m*3 -3.5 C 0 km/h
1393 09-02-2010 15:36:16 -3.6 C 2 g/m*3 -3.6 C 0 km/h
1394 09-02-2010 16:01:16 -3.8 C 1.97 g/m*3 -3.8 C 0 km/h
1395 09-02-2010 16:26:16 -3.6 C 2 g/m*3 -3.6 C 0 km/h
1396 09-02-2010 16:51:16 -3.5 C 1.97 g/m*3 -3.5 C 0 km/h
1397 09-02-2010 17:16:16 -3.9 C 2.03 g/m*3 -3.9 C 0 km/h
1398 09-02-2010 17:41:16 -4 C 2.09 g/m*3 -4 C 0 km/h
1399 09-02-2010 18:06:16 -4.1 C 2.14 g/m*3 -4.1 C 0 km/h
1400 09-02-2010 18:31:16 -4.1 C 2.14 g/m*3 -4.1 C 0 km/h
Sensor: Nr:Datum:Temp:Abs-Feuchte:Windchill:Wind:
Aussen-T/F 1401 09-02-2010 18:56:16 -4.2 C 2.09 g/m*3 -4.2 C 0 km/h
1402 09-02-2010 19:21:16 -4.1 C 2.18 g/m*3 -4.1 C 0 km/h
1403 09-02-2010 19:46:16 -4.1 C 2.18 g/m*3 -4.1 C 0 km/h
1404 09-02-2010 20:11:16 -4.5 C 2.08 g/m*3 -4.5 C 0 km/h
1405 09-02-2010 20:36:16 -4.6 C 2.1 g/m*3 -4.6 C 0 km/h
1406 09-02-2010 21:01:17 -4.6 C 1.93 g/m*3 -4.6 C 0 km/h
1407 09-02-2010 21:26:17 -4.6 C 1.75 g/m*3 -4.6 C 0 km/h
1408 09-02-2010 21:51:17 -4.7 C 1.77 g/m*3 -4.7 C 0 km/h
1409 09-02-2010 22:16:17 -4.6 C 1.82 g/m*3 -4.6 C 0 km/h
1410 09-02-2010 22:41:17 -4.5 C 1.87 g/m*3 -4.5 C 0 km/h
1411 09-02-2010 23:06:17 -4.6 C 1.93 g/m*3 -4.6 C 0 km/h
1412 09-02-2010 23:31:17 -4.5 C 1.94 g/m*3 -4.5 C 0 km/h
1413 09-02-2010 23:56:17 -4.5 C 1.94 g/m*3 -4.5 C 0 km/h
1414 10-02-2010 00:21:17 -4.6 C 2.07 g/m*3 -4.6 C 0 km/h
1415 10-02-2010 00:46:17 -4.7 C 2.12 g/m*3 -4.7 C 0 km/h
1416 10-02-2010 01:11:17 -4.7 C 2.12 g/m*3 -4.7 C 0 km/h
1417 10-02-2010 01:36:17 -4.7 C 2.16 g/m*3 -4.7 C 0 km/h
1418 10-02-2010 02:01:17 -4.7 C 2.23 g/m*3 -4.7 C 0 km/h
1419 10-02-2010 02:26:17 -4.6 C 2.28 g/m*3 -4.6 C 0 km/h
1420 10-02-2010 02:51:17 -4.7 C 2.3 g/m*3 -4.7 C 0 km/h
1421 10-02-2010 03:16:17 -4.7 C 2.33 g/m*3 -4.7 C 0 km/h
1422 10-02-2010 03:41:17 -4.9 C 2.33 g/m*3 -4.9 C 0 km/h
1423 10-02-2010 04:06:17 -4.9 C 2.3 g/m*3 -4.9 C 0 km/h
1424 10-02-2010 04:31:17 -5 C 2.32 g/m*3 -5 C 0 km/h
1425 10-02-2010 04:56:17 -5 C 2.35 g/m*3 -5 C 0 km/h
Sensor: Nr:Datum:Temp:Abs-Feuchte:Windchill:Wind:
Aussen-T/F 1426 10-02-2010 05:21:17 -5 C 2.38 g/m*3 -5 C 0 km/h
1427 10-02-2010 05:46:17 -5 C 2.35 g/m*3 -5 C 0 km/h
1428 10-02-2010 06:11:18 -5 C 2.35 g/m*3 -5 C 0 km/h
1429 10-02-2010 06:36:18 -5.2 C 2.32 g/m*3 -5.2 C 0 km/h
1430 10-02-2010 07:01:18 -5.4 C 2.28 g/m*3 -5.4 C 0 km/h
1431 10-02-2010 07:26:18 -5.6 C 2.31 g/m*3 -5.6 C 0 km/h
1432 10-02-2010 07:51:18 -5.4 C 2.38 g/m*3 -5.4 C 0 km/h
1433 10-02-2010 08:16:18 -5.5 C 2.36 g/m*3 -5.5 C 0 km/h
1434 10-02-2010 08:41:18 -5.3 C 2.33 g/m*3 -5.3 C 0 km/h
1435 10-02-2010 09:06:18 -5 C 2.42 g/m*3 -5 C 0 km/h
1436 10-02-2010 09:31:18 -4.7 C 2.4 g/m*3 -4.7 C 0 km/h
1437 10-02-2010 09:56:18 -4.7 C 2.4 g/m*3 -4.7 C 0 km/h
1438 10-02-2010 10:21:18 -4.4 C 2.45 g/m*3 -4.4 C 0 km/h
1439 10-02-2010 10:46:18 -4.4 C 2.35 g/m*3 -4.4 C 0 km/h
1440 10-02-2010 11:11:18 -4 C 2.41 g/m*3 -4 C 0 km/h
1441 10-02-2010 11:36:18 -3.7 C 2.35 g/m*3 -3.7 C 0 km/h
1442 10-02-2010 12:01:18 -3.7 C 2.39 g/m*3 -3.7 C 0 km/h
1443 10-02-2010 12:26:18 -3.2 C 2.32 g/m*3 -3.2 C 0 km/h
1444 10-02-2010 12:51:18 -3.4 C 2.37 g/m*3 -3.4 C 0 km/h
1445 10-02-2010 13:16:18 -3.2 C 2.52 g/m*3 -3.2 C 0 km/h
1446 10-02-2010 13:41:18 -2.6 C 2.26 g/m*3 -2.6 C 0 km/h
1447 10-02-2010 14:06:18 -3.2 C 2.21 g/m*3 -3.2 C 0 km/h
1448 10-02-2010 14:31:18 -3.3 C 2.27 g/m*3 -3.3 C 0 km/h
1449 10-02-2010 14:56:18 -3.2 C 2.25 g/m*3 -3.2 C 0 km/h
1450 10-02-2010 15:21:18 -3.3 C 2.42 g/m*3 -3.3 C 0 km/h
Sensor: Nr:Datum:Temp:Abs-Feuchte:Windchill:Wind:
Aussen-T/F 1451 10-02-2010 15:46:19 -3 C 2.24 g/m*3 -3 C 0 km/h
1452 10-02-2010 16:11:19 -3.4 C 2.29 g/m*3 -3.4 C 0 km/h
1453 10-02-2010 16:36:19 -3.5 C 2.27 g/m*3 -3.5 C 0 km/h
1454 10-02-2010 17:01:19 -3.4 C 2.29 g/m*3 -3.4 C 0 km/h
1455 10-02-2010 17:26:19 -3.8 C 2.3 g/m*3 -3.8 C 0 km/h
1456 10-02-2010 17:51:19 -4.4 C 2.42 g/m*3 -4.4 C 0 km/h
1457 10-02-2010 18:16:19 -5.2 C 2.32 g/m*3 -5.2 C 0 km/h
1458 10-02-2010 18:41:19 -5.2 C 2.45 g/m*3 -5.2 C 0 km/h
1459 10-02-2010 19:06:19 -5.3 C 2.37 g/m*3 -5.3 C 0 km/h
1460 10-02-2010 19:31:19 -6 C 2.28 g/m*3 -6 C 0 km/h
1461 10-02-2010 19:56:19 -6.2 C 2.31 g/m*3 -6.2 C 0 km/h
1462 10-02-2010 20:21:19 -6.5 C 2.29 g/m*3 -6.5 C 0 km/h
1463 10-02-2010 20:46:19 -6.3 C 2.35 g/m*3 -6.3 C 0 km/h
1464 10-02-2010 21:11:19 -6.1 C 2.39 g/m*3 -6.1 C 0 km/h
1465 10-02-2010 21:36:19 -6.6 C 2.27 g/m*3 -6.6 C 0 km/h
1466 10-02-2010 22:01:19 -6.3 C 2.35 g/m*3 -6.3 C 0 km/h
1467 10-02-2010 22:26:19 -6.5 C 2.26 g/m*3 -6.5 C 0 km/h
1468 10-02-2010 22:51:19 -6.9 C 2.16 g/m*3 -6.9 C 0 km/h
1469 10-02-2010 23:16:19 -7.4 C 2.09 g/m*3 -7.4 C 0 km/h
1470 10-02-2010 23:41:19 -7 C 2.18 g/m*3 -7 C 0 km/h
1471 11-02-2010 00:06:20 -6.5 C 2.29 g/m*3 -6.5 C 0 km/h
1472 11-02-2010 00:31:20 -6.5 C 2.17 g/m*3 -6.5 C 0 km/h
1473 11-02-2010 00:56:20 -6.6 C 2.12 g/m*3 -6.6 C 0 km/h
1474 11-02-2010 01:21:20 -7.5 C 1.96 g/m*3 -7.5 C 0 km/h
1475 11-02-2010 01:46:20 -8.1 C 1.9 g/m*3 -8.1 C 0 km/h
Sensor: Nr:Datum:Temp:Abs-Feuchte:Windchill:Wind:
Aussen-T/F 1476 11-02-2010 02:11:20 -7.7 C 2.04 g/m*3 -7.7 C 0 km/h
1477 11-02-2010 02:36:20 -7.4 C 2.09 g/m*3 -7.4 C 0 km/h
1478 11-02-2010 03:01:20 -7.2 C 2.12 g/m*3 -7.2 C 0 km/h
1479 11-02-2010 03:26:20 -6.9 C 2.14 g/m*3 -6.9 C 0 km/h
1480 11-02-2010 03:51:20 -6.8 C 2.12 g/m*3 -6.8 C 0 km/h
1481 11-02-2010 04:16:20 -6.8 C 2.09 g/m*3 -6.8 C 0 km/h
1482 11-02-2010 04:41:20 -6.4 C 2.18 g/m*3 -6.4 C 0 km/h
1483 11-02-2010 05:06:20 -6.2 C 2.18 g/m*3 -6.2 C 0 km/h
1484 11-02-2010 05:31:20 -6.1 C 2.23 g/m*3 -6.1 C 0 km/h
1485 11-02-2010 05:56:20 -6 C 2.31 g/m*3 -6 C 0 km/h
1486 11-02-2010 06:21:20 -5.9 C 2.36 g/m*3 -5.9 C 0 km/h
1487 11-02-2010 06:46:20 -5.8 C 2.44 g/m*3 -5.8 C 0 km/h
1488 11-02-2010 07:11:20 -5.7 C 2.46 g/m*3 -5.7 C 0 km/h
1489 11-02-2010 07:36:20 -5.6 C 2.51 g/m*3 -5.6 C 0 km/h
1490 11-02-2010 08:01:20 -5.5 C 2.56 g/m*3 -5.5 C 0 km/h
1491 11-02-2010 08:26:20 -5.4 C 2.58 g/m*3 -5.4 C 0 km/h
1492 11-02-2010 08:51:20 -5.2 C 2.62 g/m*3 -5.2 C 0 km/h
1493 11-02-2010 09:16:20 -4.9 C 2.64 g/m*3 -4.9 C 0 km/h
1494 11-02-2010 09:41:21 -4.5 C 2.68 g/m*3 -4.5 C 0 km/h
1495 11-02-2010 10:06:21 -4 C 2.74 g/m*3 -4 C 0 km/h
1496 11-02-2010 10:31:21 -3.7 C 2.77 g/m*3 -3.7 C 0 km/h
1497 11-02-2010 10:56:21 -3.3 C 2.77 g/m*3 -3.3 C 0 km/h
1498 11-02-2010 11:21:21 -2.9 C 2.77 g/m*3 -2.9 C 0 km/h
1499 11-02-2010 11:46:21 -2.7 C 2.81 g/m*3 -2.7 C 0 km/h
1500 11-02-2010 12:11:21 -2.5 C 2.89 g/m*3 -2.5 C 0 km/h
Sensor: Nr:Datum:Temp:Abs-Feuchte:Windchill:Wind:
Aussen-T/F 1501 11-02-2010 12:36:21 -2 C 2.99 g/m*3 -2 C 0 km/h
1502 11-02-2010 13:01:21 -1.5 C 3.1 g/m*3 -1.5 C 0 km/h
1503 11-02-2010 13:26:21 -1.1 C 3.05 g/m*3 -1.1 C 0 km/h
1504 11-02-2010 13:51:21 -1.3 C 2.92 g/m*3 -1.3 C 0 km/h
1505 11-02-2010 14:16:21 -1.1 C 3.1 g/m*3 -1.1 C 0 km/h
1506 11-02-2010 14:41:21 -1.2 C 2.94 g/m*3 -1.2 C 0 km/h
1507 11-02-2010 15:06:21 -1.2 C 2.9 g/m*3 -1.2 C 0 km/h
1508 11-02-2010 15:31:21 -1.6 C 2.86 g/m*3 -1.6 C 0 km/h
1509 11-02-2010 15:56:21 -1.3 C 2.88 g/m*3 -1.3 C 0 km/h
1510 11-02-2010 16:21:21 -1.4 C 2.9 g/m*3 -1.4 C 0 km/h
1511 11-02-2010 16:46:21 -1.6 C 2.9 g/m*3 -1.6 C 0 km/h
1512 11-02-2010 17:11:21 -1.7 C 2.84 g/m*3 -1.7 C 0 km/h
1513 11-02-2010 17:36:21 -1.7 C 2.76 g/m*3 -1.7 C 0 km/h
1514 11-02-2010 18:01:21 -1.8 C 2.74 g/m*3 -1.8 C 0 km/h
1515 11-02-2010 18:26:21 -1.8 C 2.74 g/m*3 -1.8 C 0 km/h
1516 11-02-2010 18:51:22 -1.8 C 2.69 g/m*3 -1.8 C 0 km/h
1517 11-02-2010 19:16:22 -1.8 C 2.65 g/m*3 -1.8 C 0 km/h
1518 11-02-2010 19:41:22 -1.8 C 2.65 g/m*3 -1.8 C 0 km/h
1519 11-02-2010 20:06:22 -1.8 C 2.65 g/m*3 -1.8 C 0 km/h
1520 11-02-2010 20:31:22 -1.8 C 2.69 g/m*3 -1.8 C 0 km/h
1521 11-02-2010 20:56:22 -1.8 C 2.74 g/m*3 -1.8 C 0 km/h
1522 11-02-2010 21:21:22 -2.1 C 2.85 g/m*3 -2.1 C 0 km/h
1523 11-02-2010 21:46:22 -2.2 C 2.95 g/m*3 -2.2 C 0 km/h
1524 11-02-2010 22:11:22 -2.5 C 3.05 g/m*3 -2.5 C 0 km/h
1525 11-02-2010 22:36:22 -2.5 C 3.09 g/m*3 -2.5 C 0 km/h
Sensor: Nr:Datum:Temp:Abs-Feuchte:Windchill:Wind:
Aussen-T/F 1526 11-02-2010 23:01:22 -2.5 C 3.13 g/m*3 -2.5 C 0 km/h
1527 11-02-2010 23:26:22 -2.6 C 3.15 g/m*3 -2.6 C 0 km/h
1528 11-02-2010 23:51:22 -2.5 C 3.17 g/m*3 -2.5 C 0 km/h
1529 12-02-2010 00:16:22 -2.6 C 3.19 g/m*3 -2.6 C 0 km/h
1530 12-02-2010 00:41:22 -2.7 C 3.21 g/m*3 -2.7 C 0 km/h
1531 12-02-2010 01:06:22 -2.7 C 3.21 g/m*3 -2.7 C 0 km/h
1532 12-02-2010 01:31:22 -2.7 C 3.21 g/m*3 -2.7 C 0 km/h
1533 12-02-2010 01:56:22 -2.6 C 3.19 g/m*3 -2.6 C 0 km/h
1534 12-02-2010 02:21:22 -2.6 C 3.19 g/m*3 -2.6 C 0 km/h
1535 12-02-2010 02:46:22 -2.6 C 3.15 g/m*3 -2.6 C 0 km/h
1536 12-02-2010 03:11:22 -2.6 C 3.19 g/m*3 -2.6 C 0 km/h
1537 12-02-2010 03:36:22 -2.7 C 3.17 g/m*3 -2.7 C 0 km/h
1538 12-02-2010 04:01:23 -2.6 C 3.23 g/m*3 -2.6 C 0 km/h
1539 12-02-2010 04:26:23 -2.6 C 3.19 g/m*3 -2.6 C 0 km/h
1540 12-02-2010 04:51:23 -2.6 C 3.19 g/m*3 -2.6 C 0 km/h
1541 12-02-2010 05:16:23 -2.6 C 3.19 g/m*3 -2.6 C 0 km/h
1542 12-02-2010 05:41:23 -2.5 C 3.21 g/m*3 -2.5 C 0 km/h
1543 12-02-2010 06:06:23 -2.6 C 3.15 g/m*3 -2.6 C 0 km/h
1544 12-02-2010 06:31:23 -2.5 C 3.17 g/m*3 -2.5 C 0 km/h
1545 12-02-2010 06:56:23 -2.6 C 3.19 g/m*3 -2.6 C 0 km/h
1546 12-02-2010 07:21:23 -2.7 C 3.17 g/m*3 -2.7 C 0 km/h
1547 12-02-2010 07:46:23 -2.8 C 3.07 g/m*3 -2.8 C 0 km/h
1548 12-02-2010 08:11:23 -2.7 C 3.01 g/m*3 -2.7 C 0 km/h
1549 12-02-2010 08:36:23 -2.6 C 3.03 g/m*3 -2.6 C 0 km/h
1550 12-02-2010 09:01:23 -2.6 C 3.03 g/m*3 -2.6 C 0 km/h
Sensor: Nr:Datum:Temp:Abs-Feuchte:Windchill:Wind:
Aussen-T/F 1551 12-02-2010 09:26:23 -2.5 C 3.01 g/m*3 -2.5 C 0 km/h
1552 12-02-2010 09:51:23 -2.3 C 2.97 g/m*3 -2.3 C 0 km/h
1553 12-02-2010 10:16:23 -2.1 C 2.93 g/m*3 -2.1 C 0 km/h
1554 12-02-2010 10:41:23 -1.9 C 2.84 g/m*3 -1.9 C 0 km/h
1555 12-02-2010 11:06:23 -1.2 C 2.9 g/m*3 -1.2 C 0 km/h
1556 12-02-2010 11:31:23 -1.3 C 2.74 g/m*3 -1.3 C 0 km/h
1557 12-02-2010 11:56:23 -1 C 2.71 g/m*3 -1 C 0 km/h
1558 12-02-2010 12:21:23 -1.1 C 2.69 g/m*3 -1.1 C 0 km/h
1559 12-02-2010 12:46:23 -1.4 C 2.77 g/m*3 -1.4 C 0 km/h
1560 12-02-2010 13:11:24 -1.2 C 2.85 g/m*3 -1.2 C 0 km/h
1561 12-02-2010 13:36:24 -1.2 C 2.9 g/m*3 -1.2 C 0 km/h
1562 12-02-2010 14:01:24 -1.1 C 2.92 g/m*3 -1.1 C 0 km/h
1563 12-02-2010 14:26:24 -0.7 C 2.95 g/m*3 -0.7 C 0 km/h
1564 12-02-2010 14:51:24 -0.5 C 2.95 g/m*3 -0.5 C 0 km/h
1565 12-02-2010 15:16:24 -0.8 C 2.84 g/m*3 -0.8 C 0 km/h
1566 12-02-2010 15:41:24 -0.8 C 2.89 g/m*3 -0.8 C 0 km/h
1567 12-02-2010 16:06:24 -0.9 C 2.91 g/m*3 -0.9 C 0 km/h
1568 12-02-2010 16:31:24 -1.2 C 2.85 g/m*3 -1.2 C 0 km/h
1569 12-02-2010 16:56:24 -1.2 C 2.76 g/m*3 -1.2 C 0 km/h
1570 12-02-2010 17:21:24 -1.4 C 2.73 g/m*3 -1.4 C 0 km/h
1571 12-02-2010 17:46:24 -1.9 C 2.76 g/m*3 -1.9 C 0 km/h
1572 12-02-2010 18:11:24 -2.1 C 2.72 g/m*3 -2.1 C 0 km/h
1573 12-02-2010 18:36:24 -2.2 C 2.78 g/m*3 -2.2 C 0 km/h
1574 12-02-2010 19:01:24 -2.4 C 2.66 g/m*3 -2.4 C 0 km/h
1575 12-02-2010 19:26:24 -2.5 C 2.69 g/m*3 -2.5 C 0 km/h
Sensor: Nr:Datum:Temp:Abs-Feuchte:Windchill:Wind:
Aussen-T/F 1576 12-02-2010 19:51:24 -2.5 C 2.73 g/m*3 -2.5 C 0 km/h
1577 12-02-2010 20:16:24 -2.6 C 2.71 g/m*3 -2.6 C 0 km/h
1578 12-02-2010 20:41:24 -2.6 C 2.75 g/m*3 -2.6 C 0 km/h
1579 12-02-2010 21:06:24 -2.6 C 2.71 g/m*3 -2.6 C 0 km/h
1580 12-02-2010 21:31:24 -2.7 C 2.73 g/m*3 -2.7 C 0 km/h
1581 12-02-2010 21:56:25 -2.8 C 2.71 g/m*3 -2.8 C 0 km/h
1582 12-02-2010 22:21:25 -2.8 C 2.75 g/m*3 -2.8 C 0 km/h
1583 12-02-2010 22:46:25 -2.9 C 2.73 g/m*3 -2.9 C 0 km/h
1584 12-02-2010 23:11:25 -3 C 2.71 g/m*3 -3 C 0 km/h
1585 12-02-2010 23:36:25 -3.2 C 2.67 g/m*3 -3.2 C 0 km/h
1586 13-02-2010 00:01:25 -3.2 C 2.71 g/m*3 -3.2 C 0 km/h
1587 13-02-2010 00:26:25 -3.4 C 2.75 g/m*3 -3.4 C 0 km/h
1588 13-02-2010 00:51:25 -3.7 C 2.73 g/m*3 -3.7 C 0 km/h
1589 13-02-2010 01:16:25 -3.9 C 2.76 g/m*3 -3.9 C 0 km/h
1590 13-02-2010 01:41:25 -4 C 2.78 g/m*3 -4 C 0 km/h
1591 13-02-2010 02:06:25 -3.9 C 2.8 g/m*3 -3.9 C 0 km/h
1592 13-02-2010 02:31:25 -4 C 2.74 g/m*3 -4 C 0 km/h
1593 13-02-2010 02:56:25 -4.1 C 2.69 g/m*3 -4.1 C 0 km/h
1594 13-02-2010 03:21:25 -4.2 C 2.7 g/m*3 -4.2 C 0 km/h
1595 13-02-2010 03:46:25 -4.2 C 2.74 g/m*3 -4.2 C 0 km/h
1596 13-02-2010 04:11:25 -4.2 C 2.74 g/m*3 -4.2 C 0 km/h
1597 13-02-2010 04:36:25 -4.1 C 2.8 g/m*3 -4.1 C 0 km/h
1598 13-02-2010 05:01:25 -4.1 C 2.8 g/m*3 -4.1 C 0 km/h
1599 13-02-2010 05:26:25 -4 C 2.82 g/m*3 -4 C 0 km/h
1600 13-02-2010 05:51:25 -3.8 C 2.86 g/m*3 -3.8 C 0 km/h
Sensor: Nr:Datum:Temp:Abs-Feuchte:Windchill:Wind:
Aussen-T/F 1601 13-02-2010 06:16:26 -3.9 C 2.84 g/m*3 -3.9 C 0 km/h
1602 13-02-2010 06:41:26 -3.8 C 2.86 g/m*3 -3.8 C 0 km/h
1603 13-02-2010 07:06:26 -3.7 C 2.84 g/m*3 -3.7 C 0 km/h
1604 13-02-2010 07:31:26 -3.8 C 2.78 g/m*3 -3.8 C 0 km/h
1605 13-02-2010 07:56:26 -3.8 C 2.82 g/m*3 -3.8 C 0 km/h
1606 13-02-2010 08:21:26 -3.6 C 2.86 g/m*3 -3.6 C 0 km/h
1607 13-02-2010 08:46:26 -3.2 C 2.9 g/m*3 -3.2 C 0 km/h
1608 13-02-2010 09:11:26 -2.9 C 2.89 g/m*3 -2.9 C 0 km/h
1609 13-02-2010 09:36:26 -2.6 C 2.91 g/m*3 -2.6 C 0 km/h
1610 13-02-2010 10:01:26 -2.7 C 2.73 g/m*3 -2.7 C 0 km/h
1611 13-02-2010 10:26:26 -2.4 C 2.7 g/m*3 -2.4 C 0 km/h
1612 13-02-2010 10:51:26 -2.3 C 2.64 g/m*3 -2.3 C 0 km/h
1613 13-02-2010 11:16:26 -1.9 C 2.76 g/m*3 -1.9 C 0 km/h
1614 13-02-2010 11:41:26 -1.5 C 2.66 g/m*3 -1.5 C 0 km/h
1615 13-02-2010 12:06:26 -1.3 C 2.7 g/m*3 -1.3 C 0 km/h
1616 13-02-2010 12:31:26 -0.5 C 2.86 g/m*3 -0.5 C 0 km/h
1617 13-02-2010 12:56:26 -1.2 C 2.67 g/m*3 -1.2 C 0 km/h
1618 13-02-2010 13:21:26 -1.4 C 2.73 g/m*3 -1.4 C 0 km/h
1619 13-02-2010 13:46:26 -1 C 2.76 g/m*3 -1 C 0 km/h
1620 13-02-2010 14:11:26 -1.1 C 2.51 g/m*3 -1.1 C 0 km/h
1621 13-02-2010 14:36:26 0 C 2.76 g/m*3 0 C 0 km/h
1622 13-02-2010 15:01:27 -0.3 C 2.56 g/m*3 -0.3 C 0 km/h
1623 13-02-2010 15:26:27 -0.5 C 2.57 g/m*3 -0.5 C 0 km/h
1624 13-02-2010 15:51:27 -0.7 C 2.54 g/m*3 -0.7 C 0 km/h
1625 13-02-2010 16:16:27 -0.9 C 2.55 g/m*3 -0.9 C 0 km/h
Sensor: Nr:Datum:Temp:Abs-Feuchte:Windchill:Wind:
Aussen-T/F 1626 13-02-2010 16:41:27 -1 C 2.58 g/m*3 -1 C 0 km/h
1627 13-02-2010 17:06:27 -1.4 C 2.68 g/m*3 -1.4 C 0 km/h
1628 13-02-2010 17:31:27 -1.9 C 2.8 g/m*3 -1.9 C 0 km/h
1629 13-02-2010 17:56:27 -2 C 2.91 g/m*3 -2 C 0 km/h
1630 13-02-2010 18:21:27 -2 C 2.95 g/m*3 -2 C 0 km/h
1631 13-02-2010 18:46:27 -2.1 C 2.97 g/m*3 -2.1 C 0 km/h
1632 13-02-2010 19:11:27 -2.2 C 2.99 g/m*3 -2.2 C 0 km/h
1633 13-02-2010 19:36:27 -2.1 C 3.01 g/m*3 -2.1 C 0 km/h
1634 13-02-2010 20:01:27 -2.2 C 2.99 g/m*3 -2.2 C 0 km/h
1635 13-02-2010 20:26:27 -2.3 C 3.01 g/m*3 -2.3 C 0 km/h
1636 13-02-2010 20:51:27 -2.4 C 2.99 g/m*3 -2.4 C 0 km/h
1637 13-02-2010 21:16:27 -2.4 C 2.99 g/m*3 -2.4 C 0 km/h
1638 13-02-2010 21:41:27 -2.4 C 2.99 g/m*3 -2.4 C 0 km/h
1639 13-02-2010 22:06:27 -2.5 C 2.97 g/m*3 -2.5 C 0 km/h
1640 13-02-2010 22:31:27 -2.6 C 2.99 g/m*3 -2.6 C 0 km/h
1641 13-02-2010 22:56:27 -2.5 C 3.05 g/m*3 -2.5 C 0 km/h
1642 13-02-2010 23:21:28 -2.7 C 3.05 g/m*3 -2.7 C 0 km/h
1643 13-02-2010 23:46:28 -2.8 C 3.03 g/m*3 -2.8 C 0 km/h
1644 14-02-2010 00:11:28 -2.9 C 3.01 g/m*3 -2.9 C 0 km/h
1645 14-02-2010 00:36:28 -3.1 C 3 g/m*3 -3.1 C 0 km/h
1646 14-02-2010 01:01:28 -3.2 C 2.98 g/m*3 -3.2 C 0 km/h
1647 14-02-2010 01:26:28 -3.3 C 2.96 g/m*3 -3.3 C 0 km/h
1648 14-02-2010 01:51:28 -3.4 C 2.94 g/m*3 -3.4 C 0 km/h
1649 14-02-2010 02:16:28 -3.4 C 2.98 g/m*3 -3.4 C 0 km/h
1650 14-02-2010 02:41:28 -3.4 C 2.98 g/m*3 -3.4 C 0 km/h
Sensor: Nr:Datum:Temp:Abs-Feuchte:Windchill:Wind:
Aussen-T/F 1651 14-02-2010 03:06:28 -3.4 C 3.02 g/m*3 -3.4 C 0 km/h
1652 14-02-2010 03:31:28 -3.4 C 3.02 g/m*3 -3.4 C 0 km/h
1653 14-02-2010 03:56:28 -3.6 C 2.97 g/m*3 -3.6 C 0 km/h
1654 14-02-2010 04:21:28 -3.5 C 2.99 g/m*3 -3.5 C 0 km/h
1655 14-02-2010 04:46:28 -3.6 C 2.97 g/m*3 -3.6 C 0 km/h
1656 14-02-2010 05:11:28 -3.7 C 2.95 g/m*3 -3.7 C 0 km/h
1657 14-02-2010 05:36:28 -3.6 C 3.01 g/m*3 -3.6 C 0 km/h
1658 14-02-2010 06:01:28 -3.7 C 2.99 g/m*3 -3.7 C 0 km/h
1659 14-02-2010 06:26:28 -3.7 C 2.99 g/m*3 -3.7 C 0 km/h
1660 14-02-2010 06:51:28 -3.7 C 2.99 g/m*3 -3.7 C 0 km/h
1661 14-02-2010 07:16:28 -3.4 C 3.05 g/m*3 -3.4 C 0 km/h
1662 14-02-2010 07:41:28 -3.6 C 3.01 g/m*3 -3.6 C 0 km/h
1663 14-02-2010 08:06:29 -3.5 C 3.03 g/m*3 -3.5 C 0 km/h
1664 14-02-2010 08:31:29 -3.5 C 3.03 g/m*3 -3.5 C 0 km/h
1665 14-02-2010 08:56:29 -3.3 C 3.08 g/m*3 -3.3 C 0 km/h
1666 14-02-2010 09:21:29 -3.2 C 3.1 g/m*3 -3.2 C 0 km/h
1667 14-02-2010 09:46:29 -3.1 C 3.12 g/m*3 -3.1 C 0 km/h
1668 14-02-2010 10:11:29 -2.8 C 3.19 g/m*3 -2.8 C 0 km/h
1669 14-02-2010 10:36:29 -2.4 C 3.24 g/m*3 -2.4 C 0 km/h
1670 14-02-2010 11:01:29 -2.1 C 3.22 g/m*3 -2.1 C 0 km/h
1671 14-02-2010 11:26:29 -1.9 C 3.23 g/m*3 -1.9 C 0 km/h
1672 14-02-2010 11:51:29 -1.5 C 3.23 g/m*3 -1.5 C 0 km/h
1673 14-02-2010 12:16:29 -1.1 C 3.19 g/m*3 -1.1 C 0 km/h
1674 14-02-2010 12:41:29 -0.6 C 3.07 g/m*3 -0.6 C 0 km/h
1675 14-02-2010 13:06:29 0.2 C 3.14 g/m*3 0.2 C 0 km/h
Sensor: Nr:Datum:Temp:Abs-Feuchte:Windchill:Wind:
Aussen-T/F 1676 14-02-2010 13:31:29 0.6 C 3.03 g/m*3 0.6 C 0 km/h
1677 14-02-2010 13:56:29 1 C 3.01 g/m*3 1 C 0 km/h
1678 14-02-2010 14:21:29 1.4 C 3.09 g/m*3 1.4 C 0 km/h
1679 14-02-2010 14:46:29 1.4 C 3.04 g/m*3 1.4 C 0 km/h
1680 14-02-2010 15:11:29 0.8 C 2.92 g/m*3 0.8 C 0 km/h
1681 14-02-2010 15:36:29 0.7 C 3 g/m*3 0.7 C 0 km/h
1682 14-02-2010 16:01:29 0.1 C 2.98 g/m*3 0.1 C 0 km/h
1683 14-02-2010 16:26:30 -0.3 C 2.99 g/m*3 -0.3 C 0 km/h
1684 14-02-2010 16:51:30 -0.5 C 3.09 g/m*3 -0.5 C 0 km/h
1685 14-02-2010 17:16:30 -0.7 C 3.14 g/m*3 -0.7 C 0 km/h
1686 14-02-2010 17:41:30 -0.9 C 3.19 g/m*3 -0.9 C 0 km/h
1687 14-02-2010 18:06:30 -1.1 C 3.23 g/m*3 -1.1 C 0 km/h
1688 14-02-2010 18:31:30 -1.3 C 3.23 g/m*3 -1.3 C 0 km/h
1689 14-02-2010 18:56:30 -1.5 C 3.27 g/m*3 -1.5 C 0 km/h
1690 14-02-2010 19:21:30 -1.7 C 3.27 g/m*3 -1.7 C 0 km/h
1691 14-02-2010 19:46:30 -1.8 C 3.29 g/m*3 -1.8 C 0 km/h
1692 14-02-2010 20:11:30 -1.7 C 3.36 g/m*3 -1.7 C 0 km/h
1693 14-02-2010 20:36:30 -1.9 C 3.31 g/m*3 -1.9 C 0 km/h
1694 14-02-2010 21:01:30 -2.2 C 3.24 g/m*3 -2.2 C 0 km/h
1695 14-02-2010 21:26:30 -2.4 C 3.16 g/m*3 -2.4 C 0 km/h
1696 14-02-2010 21:51:30 -2.6 C 3.11 g/m*3 -2.6 C 0 km/h
1697 14-02-2010 22:16:30 -2.9 C 3.01 g/m*3 -2.9 C 0 km/h
1698 14-02-2010 22:41:30 -3 C 3.02 g/m*3 -3 C 0 km/h
1699 14-02-2010 23:06:30 -3 C 2.99 g/m*3 -3 C 0 km/h
1700 14-02-2010 23:31:30 -3 C 2.99 g/m*3 -3 C 0 km/h
Sensor: Nr:Datum:Temp:Abs-Feuchte:Windchill:Wind:
Aussen-T/F 1701 14-02-2010 23:56:30 -3 C 2.99 g/m*3 -3 C 0 km/h
1702 15-02-2010 00:21:30 -3 C 2.99 g/m*3 -3 C 0 km/h
1703 15-02-2010 00:46:30 -3 C 2.99 g/m*3 -3 C 0 km/h
1704 15-02-2010 01:11:31 -3 C 2.99 g/m*3 -3 C 0 km/h
1705 15-02-2010 01:36:31 -2.9 C 2.97 g/m*3 -2.9 C 0 km/h
1706 15-02-2010 02:01:31 -2.8 C 2.99 g/m*3 -2.8 C 0 km/h
1707 15-02-2010 02:26:31 -2.7 C 3.01 g/m*3 -2.7 C 0 km/h
1708 15-02-2010 02:51:31 -2.6 C 3.03 g/m*3 -2.6 C 0 km/h
1709 15-02-2010 03:16:31 -2.6 C 2.99 g/m*3 -2.6 C 0 km/h
1710 15-02-2010 03:41:31 -2.6 C 2.99 g/m*3 -2.6 C 0 km/h
1711 15-02-2010 04:06:31 -2.6 C 2.99 g/m*3 -2.6 C 0 km/h
1712 15-02-2010 04:31:31 -2.6 C 3.03 g/m*3 -2.6 C 0 km/h
1713 15-02-2010 04:56:31 -2.6 C 3.03 g/m*3 -2.6 C 0 km/h
1714 15-02-2010 05:21:31 -2.6 C 3.07 g/m*3 -2.6 C 0 km/h
1715 15-02-2010 05:46:31 -2.6 C 3.11 g/m*3 -2.6 C 0 km/h
1716 15-02-2010 06:11:31 -2.7 C 3.05 g/m*3 -2.7 C 0 km/h
1717 15-02-2010 06:36:31 -2.8 C 3.03 g/m*3 -2.8 C 0 km/h
1718 15-02-2010 07:01:31 -2.9 C 3.01 g/m*3 -2.9 C 0 km/h
1719 15-02-2010 07:26:31 -3.2 C 2.9 g/m*3 -3.2 C 0 km/h
1720 15-02-2010 07:51:31 -3.1 C 2.96 g/m*3 -3.1 C 0 km/h
1721 15-02-2010 08:16:31 -3.1 C 2.96 g/m*3 -3.1 C 0 km/h
1722 15-02-2010 08:41:31 -3 C 2.91 g/m*3 -3 C 0 km/h
1723 15-02-2010 09:06:31 -2.7 C 2.93 g/m*3 -2.7 C 0 km/h
1724 15-02-2010 09:31:31 -2.3 C 2.97 g/m*3 -2.3 C 0 km/h
1725 15-02-2010 09:56:32 -1.8 C 3.04 g/m*3 -1.8 C 0 km/h
Sensor: Nr:Datum:Temp:Abs-Feuchte:Windchill:Wind:
Aussen-T/F 1726 15-02-2010 10:21:32 -1.4 C 3.03 g/m*3 -1.4 C 0 km/h
1727 15-02-2010 10:46:32 -0.2 C 3.11 g/m*3 -0.2 C 0 km/h
1728 15-02-2010 11:11:32 -0.3 C 3.04 g/m*3 -0.3 C 0 km/h
1729 15-02-2010 11:36:32 -0.2 C 3.11 g/m*3 -0.2 C 0 km/h
1730 15-02-2010 12:01:32 0.3 C 3.07 g/m*3 0.3 C 0 km/h
1731 15-02-2010 12:26:32 0.9 C 3.2 g/m*3 0.9 C 0 km/h
1732 15-02-2010 12:51:32 1.2 C 3.21 g/m*3 1.2 C 0 km/h
1733 15-02-2010 13:16:32 1.6 C 3.24 g/m*3 1.6 C 0 km/h
1734 15-02-2010 13:41:32 1.8 C 3.29 g/m*3 1.8 C 0 km/h
1735 15-02-2010 14:06:32 2.2 C 3.21 g/m*3 2.2 C 0 km/h
1736 15-02-2010 14:31:32 1.4 C 3.2 g/m*3 1.4 C 0 km/h
1737 15-02-2010 14:56:32 1.6 C 3.41 g/m*3 1.6 C 0 km/h
1738 15-02-2010 15:21:32 1.8 C 3.45 g/m*3 1.8 C 0 km/h
1739 15-02-2010 15:46:32 1.8 C 3.4 g/m*3 1.8 C 0 km/h
1740 15-02-2010 16:11:32 1.5 C 3.38 g/m*3 1.5 C 0 km/h
1741 15-02-2010 16:36:32 1.3 C 3.44 g/m*3 1.3 C 0 km/h
1742 15-02-2010 17:01:32 0.7 C 3.46 g/m*3 0.7 C 0 km/h
1743 15-02-2010 17:26:32 0.3 C 3.46 g/m*3 0.3 C 0 km/h
1744 15-02-2010 17:51:32 -0.2 C 3.39 g/m*3 -0.2 C 0 km/h
1745 15-02-2010 18:16:33 -0.4 C 3.44 g/m*3 -0.4 C 0 km/h
1746 15-02-2010 18:41:33 -0.6 C 3.44 g/m*3 -0.6 C 0 km/h
1747 15-02-2010 19:06:33 -0.9 C 3.46 g/m*3 -0.9 C 0 km/h
1748 15-02-2010 19:31:33 -1 C 3.44 g/m*3 -1 C 0 km/h
1749 15-02-2010 19:56:33 -1 C 3.48 g/m*3 -1 C 0 km/h
1750 15-02-2010 20:21:33 -1.2 C 3.43 g/m*3 -1.2 C 0 km/h
Sensor: Nr:Datum:Temp:Abs-Feuchte:Windchill:Wind:
Aussen-T/F 1751 15-02-2010 20:46:33 -1.3 C 3.41 g/m*3 -1.3 C 0 km/h
1752 15-02-2010 21:11:33 -1.2 C 3.43 g/m*3 -1.2 C 0 km/h
1753 15-02-2010 21:36:33 -1.2 C 3.48 g/m*3 -1.2 C 0 km/h
1754 15-02-2010 22:01:33 -1 C 3.57 g/m*3 -1 C 0 km/h
1755 15-02-2010 22:26:33 -1 C 3.53 g/m*3 -1 C 0 km/h
1756 15-02-2010 22:51:33 -1.2 C 3.48 g/m*3 -1.2 C 0 km/h
1757 15-02-2010 23:16:33 -1.2 C 3.48 g/m*3 -1.2 C 0 km/h
1758 15-02-2010 23:41:33 -1.3 C 3.45 g/m*3 -1.3 C 0 km/h
1759 16-02-2010 00:06:33 -1.4 C 3.43 g/m*3 -1.4 C 0 km/h
1760 16-02-2010 00:31:33 -2.1 C 3.22 g/m*3 -2.1 C 0 km/h
1761 16-02-2010 00:56:33 -2.7 C 3.13 g/m*3 -2.7 C 0 km/h
1762 16-02-2010 01:21:33 -2.9 C 3.13 g/m*3 -2.9 C 0 km/h
1763 16-02-2010 01:46:33 -2.9 C 3.16 g/m*3 -2.9 C 0 km/h
1764 16-02-2010 02:11:33 -2.9 C 3.16 g/m*3 -2.9 C 0 km/h
1765 16-02-2010 02:36:33 -3.2 C 3.1 g/m*3 -3.2 C 0 km/h
1766 16-02-2010 03:01:34 -3.3 C 3.08 g/m*3 -3.3 C 0 km/h
1767 16-02-2010 03:26:34 -3.4 C 3.09 g/m*3 -3.4 C 0 km/h
1768 16-02-2010 03:51:34 -3.1 C 3.16 g/m*3 -3.1 C 0 km/h
1769 16-02-2010 04:16:34 -2.9 C 3.2 g/m*3 -2.9 C 0 km/h
1770 16-02-2010 04:41:34 -2.7 C 3.29 g/m*3 -2.7 C 0 km/h
1771 16-02-2010 05:06:34 -2.7 C 3.25 g/m*3 -2.7 C 0 km/h
1772 16-02-2010 05:31:34 -2.7 C 3.25 g/m*3 -2.7 C 0 km/h
1773 16-02-2010 05:56:34 -2.6 C 3.27 g/m*3 -2.6 C 0 km/h
1774 16-02-2010 06:21:34 -2.3 C 3.34 g/m*3 -2.3 C 0 km/h
1775 16-02-2010 06:46:34 -2.3 C 3.3 g/m*3 -2.3 C 0 km/h
Sensor: Nr:Datum:Temp:Abs-Feuchte:Windchill:Wind:
Aussen-T/F 1776 16-02-2010 07:11:34 -2.5 C 3.26 g/m*3 -2.5 C 0 km/h
1777 16-02-2010 07:36:34 -2.8 C 3.19 g/m*3 -2.8 C 0 km/h
1778 16-02-2010 08:01:34 -2.8 C 3.19 g/m*3 -2.8 C 0 km/h
1779 16-02-2010 08:26:34 -2.5 C 3.3 g/m*3 -2.5 C 0 km/h
1780 16-02-2010 08:51:34 -1.9 C 3.4 g/m*3 -1.9 C 0 km/h
1781 16-02-2010 09:16:34 -1.4 C 3.47 g/m*3 -1.4 C 0 km/h
1782 16-02-2010 09:41:34 -0.7 C 3.51 g/m*3 -0.7 C 0 km/h
1783 16-02-2010 10:06:34 -0.6 C 3.35 g/m*3 -0.6 C 0 km/h
1784 16-02-2010 10:31:34 0.1 C 3.42 g/m*3 0.1 C 0 km/h
1785 16-02-2010 10:56:34 -0.1 C 3.27 g/m*3 -0.1 C 0 km/h
1786 16-02-2010 11:21:34 0.3 C 3.31 g/m*3 0.3 C 0 km/h
1787 16-02-2010 11:46:35 0.4 C 3.19 g/m*3 0.4 C 0 km/h
1788 16-02-2010 12:11:35 1.2 C 3.31 g/m*3 1.2 C 0 km/h
1789 16-02-2010 12:36:35 2.4 C 2.91 g/m*3 2.4 C 0 km/h
1790 16-02-2010 13:01:35 2.8 C 2.76 g/m*3 2.8 C 0 km/h
1791 16-02-2010 13:26:35 2.9 C 2.6 g/m*3 2.9 C 0 km/h
1792 16-02-2010 13:51:35 2.8 C 2.7 g/m*3 2.8 C 0 km/h
1793 16-02-2010 14:16:35 3.5 C 2.64 g/m*3 3.5 C 0 km/h
1794 16-02-2010 14:41:35 3.4 C 2.57 g/m*3 3.4 C 0 km/h
1795 16-02-2010 15:06:35 3.2 C 2.53 g/m*3 3.2 C 0 km/h
1796 16-02-2010 15:31:35 3.9 C 2.4 g/m*3 3.9 C 0 km/h
1797 16-02-2010 15:56:35 4.5 C 2.43 g/m*3 4.5 C 0 km/h
1798 16-02-2010 16:21:35 4.4 C 2.42 g/m*3 4.4 C 0 km/h
1799 16-02-2010 16:46:35 4.1 C 2.43 g/m*3 4.1 C 0 km/h
1800 16-02-2010 17:11:35 2.8 C 2.58 g/m*3 2.8 C 0 km/h
Sensor: Nr:Datum:Temp:Abs-Feuchte:Windchill:Wind:
Aussen-T/F 1801 16-02-2010 17:36:35 1.1 C 2.61 g/m*3 1.1 C 0 km/h
1802 16-02-2010 18:01:35 -0.2 C 2.63 g/m*3 -0.2 C 0 km/h
1803 16-02-2010 18:26:35 -1.4 C 2.73 g/m*3 -1.4 C 0 km/h
1804 16-02-2010 18:51:35 -2 C 2.74 g/m*3 -2 C 0 km/h
1805 16-02-2010 19:16:35 -2.5 C 2.73 g/m*3 -2.5 C 0 km/h
1806 16-02-2010 19:41:35 -2.7 C 2.77 g/m*3 -2.7 C 0 km/h
1807 16-02-2010 20:06:36 -3 C 2.75 g/m*3 -3 C 0 km/h
1808 16-02-2010 20:31:36 -3.2 C 2.75 g/m*3 -3.2 C 0 km/h
1809 16-02-2010 20:56:36 -3.6 C 2.67 g/m*3 -3.6 C 0 km/h
1810 16-02-2010 21:21:36 -3.8 C 2.67 g/m*3 -3.8 C 0 km/h
1811 16-02-2010 21:46:36 -4.1 C 2.62 g/m*3 -4.1 C 0 km/h
1812 16-02-2010 22:11:36 -4.2 C 2.63 g/m*3 -4.2 C 0 km/h
1813 16-02-2010 22:36:36 -4.5 C 2.58 g/m*3 -4.5 C 0 km/h
1814 16-02-2010 23:01:36 -4.7 C 2.54 g/m*3 -4.7 C 0 km/h
1815 16-02-2010 23:26:36 -4.9 C 2.5 g/m*3 -4.9 C 0 km/h
1816 16-02-2010 23:51:36 -5.1 C 2.47 g/m*3 -5.1 C 0 km/h
1817 17-02-2010 00:16:36 -5.4 C 2.41 g/m*3 -5.4 C 0 km/h
1818 17-02-2010 00:41:36 -5.7 C 2.36 g/m*3 -5.7 C 0 km/h
1819 17-02-2010 01:06:36 -6 C 2.34 g/m*3 -6 C 0 km/h
1820 17-02-2010 01:31:36 -6.2 C 2.31 g/m*3 -6.2 C 0 km/h
1821 17-02-2010 01:56:36 -6.5 C 2.26 g/m*3 -6.5 C 0 km/h
1822 17-02-2010 02:21:36 -6.6 C 2.27 g/m*3 -6.6 C 0 km/h
1823 17-02-2010 02:46:36 -6.8 C 2.24 g/m*3 -6.8 C 0 km/h
1824 17-02-2010 03:11:36 -6.9 C 2.22 g/m*3 -6.9 C 0 km/h
1825 17-02-2010 03:36:36 -6.2 C 2.37 g/m*3 -6.2 C 0 km/h
Sensor: Nr:Datum:Temp:Abs-Feuchte:Windchill:Wind:
Aussen-T/F 1826 17-02-2010 04:01:36 -5.8 C 2.44 g/m*3 -5.8 C 0 km/h
1827 17-02-2010 04:26:36 -5.5 C 2.5 g/m*3 -5.5 C 0 km/h
1828 17-02-2010 04:51:37 -5.3 C 2.5 g/m*3 -5.3 C 0 km/h
1829 17-02-2010 05:16:37 -5.2 C 2.48 g/m*3 -5.2 C 0 km/h
1830 17-02-2010 05:41:37 -4.9 C 2.54 g/m*3 -4.9 C 0 km/h
1831 17-02-2010 06:06:37 -4.9 C 2.54 g/m*3 -4.9 C 0 km/h
1832 17-02-2010 06:31:37 -4.7 C 2.57 g/m*3 -4.7 C 0 km/h
1833 17-02-2010 06:56:37 -4.5 C 2.61 g/m*3 -4.5 C 0 km/h
1834 17-02-2010 07:21:37 -4.4 C 2.6 g/m*3 -4.4 C 0 km/h
1835 17-02-2010 07:46:37 -4.1 C 2.62 g/m*3 -4.1 C 0 km/h
1836 17-02-2010 08:11:37 -3.8 C 2.67 g/m*3 -3.8 C 0 km/h
1837 17-02-2010 08:36:37 -3.4 C 2.71 g/m*3 -3.4 C 0 km/h
1838 17-02-2010 09:01:37 -3.1 C 2.65 g/m*3 -3.1 C 0 km/h
1839 17-02-2010 09:26:37 -2.9 C 2.49 g/m*3 -2.9 C 0 km/h
1840 17-02-2010 09:51:37 -2.7 C 2.53 g/m*3 -2.7 C 0 km/h
1841 17-02-2010 10:16:37 -2.7 C 2.53 g/m*3 -2.7 C 0 km/h
1842 17-02-2010 10:41:37 -2.2 C 2.54 g/m*3 -2.2 C 0 km/h
1843 17-02-2010 11:06:37 -1.4 C 2.73 g/m*3 -1.4 C 0 km/h
1844 17-02-2010 11:31:37 -0.6 C 2.79 g/m*3 -0.6 C 0 km/h
1845 17-02-2010 11:56:37 1 C 2.91 g/m*3 1 C 0 km/h
1846 17-02-2010 12:21:37 2.7 C 2.8 g/m*3 2.7 C 0 km/h
1847 17-02-2010 12:46:37 3.5 C 2.71 g/m*3 3.5 C 0 km/h
1848 17-02-2010 13:11:38 2.9 C 2.72 g/m*3 2.9 C 0 km/h
1849 17-02-2010 13:36:38 2.8 C 2.7 g/m*3 2.8 C 0 km/h
1850 17-02-2010 14:01:38 2.7 C 2.97 g/m*3 2.7 C 0 km/h
Sensor: Nr:Datum:Temp:Abs-Feuchte:Windchill:Wind:
Aussen-T/F 1851 17-02-2010 14:26:38 2.1 C 3.3 g/m*3 2.1 C 0 km/h
1852 17-02-2010 14:51:38 2.1 C 3.58 g/m*3 2.1 C 0 km/h
1853 17-02-2010 15:16:38 1.3 C 3.81 g/m*3 1.3 C 0 km/h
1854 17-02-2010 15:41:38 1.2 C 4 g/m*3 1.2 C 0 km/h
1855 17-02-2010 16:06:38 1.3 C 4.13 g/m*3 1.3 C 0 km/h
1856 17-02-2010 16:31:38 1 C 4.15 g/m*3 1 C 0 km/h
1857 17-02-2010 16:56:38 0.9 C 4.23 g/m*3 0.9 C 0 km/h
1858 17-02-2010 17:21:38 0.7 C 4.17 g/m*3 0.7 C 0 km/h
1859 17-02-2010 17:46:38 0.6 C 4.19 g/m*3 0.6 C 0 km/h
1860 17-02-2010 18:11:38 0.5 C 4.21 g/m*3 0.5 C 0 km/h
1861 17-02-2010 18:36:38 0.5 C 4.31 g/m*3 0.5 C 0 km/h
1862 17-02-2010 19:01:38 0.5 C 4.36 g/m*3 0.5 C 0 km/h
1863 17-02-2010 19:26:38 0.5 C 4.36 g/m*3 0.5 C 0 km/h
1864 17-02-2010 19:51:38 0.5 C 4.41 g/m*3 0.5 C 0 km/h
1865 17-02-2010 20:16:38 0.7 C 4.53 g/m*3 0.7 C 0 km/h
1866 17-02-2010 20:41:38 0.7 C 4.53 g/m*3 0.7 C 0 km/h
1867 17-02-2010 21:06:38 0.7 C 4.53 g/m*3 0.7 C 0 km/h
1868 17-02-2010 21:31:38 0.8 C 4.51 g/m*3 0.8 C 0 km/h
1869 17-02-2010 21:56:39 0.8 C 4.56 g/m*3 0.8 C 0 km/h
1870 17-02-2010 22:21:39 0.8 C 4.51 g/m*3 0.8 C 0 km/h
1871 17-02-2010 22:46:39 0.8 C 4.51 g/m*3 0.8 C 0 km/h
1872 17-02-2010 23:11:39 0.8 C 4.51 g/m*3 0.8 C 0 km/h
1873 17-02-2010 23:36:39 0.8 C 4.51 g/m*3 0.8 C 0 km/h
1874 18-02-2010 00:01:39 0.8 C 4.51 g/m*3 0.8 C 0 km/h
1875 18-02-2010 00:26:39 0.9 C 4.54 g/m*3 0.9 C 0 km/h
Sensor: Nr:Datum:Temp:Abs-Feuchte:Windchill:Wind:
Aussen-T/F 1876 18-02-2010 00:51:39 0.9 C 4.54 g/m*3 0.9 C 0 km/h
1877 18-02-2010 01:16:39 1 C 4.57 g/m*3 1 C 0 km/h
1878 18-02-2010 01:41:39 1 C 4.57 g/m*3 1 C 0 km/h
1879 18-02-2010 02:06:39 1 C 4.57 g/m*3 1 C 0 km/h
1880 18-02-2010 02:31:39 1.2 C 4.63 g/m*3 1.2 C 0 km/h
1881 18-02-2010 02:56:39 1 C 4.57 g/m*3 1 C 0 km/h
1882 18-02-2010 03:21:39 1.2 C 4.63 g/m*3 1.2 C 0 km/h
1883 18-02-2010 03:46:39 1 C 4.57 g/m*3 1 C 0 km/h
1884 18-02-2010 04:11:39 1 C 4.62 g/m*3 1 C 0 km/h
1885 18-02-2010 04:36:39 1 C 4.62 g/m*3 1 C 0 km/h
1886 18-02-2010 05:01:39 1.2 C 4.68 g/m*3 1.2 C 0 km/h
1887 18-02-2010 05:26:39 1 C 4.62 g/m*3 1 C 0 km/h
1888 18-02-2010 05:51:39 1.1 C 4.65 g/m*3 1.1 C 0 km/h
1889 18-02-2010 06:16:40 1.1 C 4.65 g/m*3 1.1 C 0 km/h
1890 18-02-2010 06:41:40 1.2 C 4.74 g/m*3 1.2 C 0 km/h
1891 18-02-2010 07:06:40 1.1 C 4.7 g/m*3 1.1 C 0 km/h
1892 18-02-2010 07:31:40 1.1 C 4.7 g/m*3 1.1 C 0 km/h
1893 18-02-2010 07:56:40 1.1 C 4.7 g/m*3 1.1 C 0 km/h
1894 18-02-2010 08:21:40 1.1 C 4.76 g/m*3 1.1 C 0 km/h
1895 18-02-2010 08:46:40 1.4 C 4.85 g/m*3 1.4 C 0 km/h
1896 18-02-2010 09:11:40 1.7 C 5.01 g/m*3 1.7 C 0 km/h
1897 18-02-2010 09:36:40 2 C 5.06 g/m*3 2 C 0 km/h
1898 18-02-2010 10:01:40 2.6 C 5.32 g/m*3 2.6 C 0 km/h
1899 18-02-2010 10:26:40 3.6 C 5.63 g/m*3 3.6 C 0 km/h
1900 18-02-2010 10:51:40 3.8 C 5.58 g/m*3 3.8 C 0 km/h
Sensor: Nr:Datum:Temp:Abs-Feuchte:Windchill:Wind:
Aussen-T/F 1901 18-02-2010 11:16:40 4.1 C 5.25 g/m*3 4.1 C 0 km/h
1902 18-02-2010 11:41:40 4.4 C 5.03 g/m*3 4.4 C 0 km/h
1903 18-02-2010 12:06:40 4.7 C 4.86 g/m*3 4.7 C 0 km/h
1904 18-02-2010 12:31:40 5.1 C 4.65 g/m*3 5.1 C 0 km/h
1905 18-02-2010 12:56:40 5.8 C 4.58 g/m*3 5.8 C 0 km/h
1906 18-02-2010 13:21:40 6.8 C 4.36 g/m*3 6.8 C 0 km/h
1907 18-02-2010 13:46:40 7.4 C 4.14 g/m*3 7.4 C 0 km/h
1908 18-02-2010 14:11:40 8 C 4.13 g/m*3 8 C 0 km/h
1909 18-02-2010 14:36:41 8.5 C 4.1 g/m*3 8.5 C 0 km/h
1910 18-02-2010 15:01:41 9.1 C 3.73 g/m*3 9.1 C 0 km/h
1911 18-02-2010 15:26:41 9.5 C 3.64 g/m*3 9.5 C 0 km/h
1912 18-02-2010 15:51:41 10.1 C 3.59 g/m*3 10.1 C 0 km/h
1913 18-02-2010 16:16:41 9.6 C 3.57 g/m*3 9.6 C 0 km/h
1914 18-02-2010 16:41:41 9.3 C 3.59 g/m*3 9.3 C 0 km/h
1915 18-02-2010 17:06:41 7.5 C 3.36 g/m*3 7.5 C 0 km/h
1916 18-02-2010 17:31:41 6.3 C 3.55 g/m*3 6.3 C 0 km/h
1917 18-02-2010 17:56:41 5.6 C 3.68 g/m*3 5.6 C 0 km/h
1918 18-02-2010 18:21:41 4 C 3.88 g/m*3 4 C 0 km/h
1919 18-02-2010 18:46:41 3.2 C 3.98 g/m*3 3.2 C 0 km/h
1920 18-02-2010 19:11:41 2.6 C 4.11 g/m*3 2.6 C 0 km/h
1921 18-02-2010 19:36:41 2.5 C 4.2 g/m*3 2.5 C 0 km/h
1922 18-02-2010 20:01:41 2.1 C 4.08 g/m*3 2.1 C 0 km/h
1923 18-02-2010 20:26:41 2 C 4.17 g/m*3 2 C 0 km/h
1924 18-02-2010 20:51:41 1.6 C 4.16 g/m*3 1.6 C 0 km/h
1925 18-02-2010 21:16:41 1.4 C 4.21 g/m*3 1.4 C 0 km/h
Sensor: Nr:Datum:Temp:Abs-Feuchte:Windchill:Wind:
Aussen-T/F 1926 18-02-2010 21:41:41 1.4 C 4.21 g/m*3 1.4 C 0 km/h
1927 18-02-2010 22:06:41 1.7 C 4.3 g/m*3 1.7 C 0 km/h
1928 18-02-2010 22:31:41 2 C 4.33 g/m*3 2 C 0 km/h
1929 18-02-2010 22:56:42 1.9 C 4.36 g/m*3 1.9 C 0 km/h
1930 18-02-2010 23:21:42 1.7 C 4.3 g/m*3 1.7 C 0 km/h
1931 18-02-2010 23:46:42 1.9 C 4.53 g/m*3 1.9 C 0 km/h
1932 19-02-2010 00:11:42 2.1 C 4.59 g/m*3 2.1 C 0 km/h
1933 19-02-2010 00:36:42 1.8 C 4.55 g/m*3 1.8 C 0 km/h
1934 19-02-2010 01:01:42 2 C 4.67 g/m*3 2 C 0 km/h
1935 19-02-2010 01:26:42 2 C 4.67 g/m*3 2 C 0 km/h
1936 19-02-2010 01:51:42 2.1 C 4.76 g/m*3 2.1 C 0 km/h
1937 19-02-2010 02:16:42 2.1 C 4.7 g/m*3 2.1 C 0 km/h
1938 19-02-2010 02:41:42 2 C 4.67 g/m*3 2 C 0 km/h
1939 19-02-2010 03:06:42 1.8 C 4.66 g/m*3 1.8 C 0 km/h
1940 19-02-2010 03:31:42 1.8 C 4.71 g/m*3 1.8 C 0 km/h
1941 19-02-2010 03:56:42 1.6 C 4.7 g/m*3 1.6 C 0 km/h
1942 19-02-2010 04:21:42 1.6 C 4.7 g/m*3 1.6 C 0 km/h
1943 19-02-2010 04:46:42 1.6 C 4.7 g/m*3 1.6 C 0 km/h
1944 19-02-2010 05:11:42 1.7 C 4.79 g/m*3 1.7 C 0 km/h
1945 19-02-2010 05:36:42 1.8 C 4.77 g/m*3 1.8 C 0 km/h
1946 19-02-2010 06:01:42 1.9 C 4.8 g/m*3 1.9 C 0 km/h
1947 19-02-2010 06:26:42 2.1 C 4.76 g/m*3 2.1 C 0 km/h
1948 19-02-2010 06:51:42 2 C 4.67 g/m*3 2 C 0 km/h
1949 19-02-2010 07:16:42 1.7 C 4.63 g/m*3 1.7 C 0 km/h
1950 19-02-2010 07:41:43 1.5 C 4.57 g/m*3 1.5 C 0 km/h
Sensor: Nr:Datum:Temp:Abs-Feuchte:Windchill:Wind:
Aussen-T/F 1951 19-02-2010 08:06:43 1.5 C 4.62 g/m*3 1.5 C 0 km/h
1952 19-02-2010 08:31:43 1.6 C 4.65 g/m*3 1.6 C 0 km/h
1953 19-02-2010 08:56:43 2.1 C 4.81 g/m*3 2.1 C 0 km/h
1954 19-02-2010 09:21:43 2.5 C 4.83 g/m*3 2.5 C 0 km/h
1955 19-02-2010 09:46:43 3.1 C 4.91 g/m*3 3.1 C 0 km/h
1956 19-02-2010 10:11:43 3.7 C 5.05 g/m*3 3.7 C 0 km/h
1957 19-02-2010 10:36:02 4.6 C 5.1 g/m*3 4.6 C 0 km/h
1958 19-02-2010 11:01:02 5.3 C 5.06 g/m*3 5.3 C 0 km/h
1959 19-02-2010 11:26:01 6 C 4.79 g/m*3 6 C 0 km/h
1960 19-02-2010 11:51:02 6.5 C 4.72 g/m*3 6.5 C 0 km/h
1961 19-02-2010 12:16:02 7 C 4.49 g/m*3 7 C 0 km/h
1962 19-02-2010 12:41:02 7.6 C 4.27 g/m*3 7.6 C 0 km/h
1963 19-02-2010 13:06:02 7.6 C 4.11 g/m*3 7.6 C 0 km/h
1964 19-02-2010 13:31:02 7.7 C 4.05 g/m*3 7.7 C 0 km/h
1965 19-02-2010 13:56:02 7.6 C 3.95 g/m*3 7.6 C 0 km/h
1966 19-02-2010 14:21:01 7.5 C 4 g/m*3 7.5 C 0 km/h
1967 19-02-2010 14:46:02 7.5 C 3.92 g/m*3 7.5 C 0 km/h
1968 19-02-2010 15:11:03 7.8 C 3.67 g/m*3 7.8 C 0 km/h
1969 19-02-2010 15:36:02 7.2 C 3.53 g/m*3 7.2 C 0 km/h
1970 19-02-2010 16:01:02 6.3 C 3.33 g/m*3 6.3 C 0 km/h
1971 19-02-2010 16:26:01 6.1 C 3.29 g/m*3 6.1 C 0 km/h
1972 19-02-2010 16:51:01 5.5 C 3.23 g/m*3 5.5 C 0 km/h
1973 19-02-2010 17:16:02 5 C 3.06 g/m*3 5 C 0 km/h
1974 19-02-2010 17:41:02 5.1 C 3.01 g/m*3 5.1 C 0 km/h
1975 19-02-2010 18:06:02 4.5 C 3.02 g/m*3 4.5 C 0 km/h
Sensor: Nr:Datum:Temp:Abs-Feuchte:Windchill:Wind:
Aussen-T/F 1976 19-02-2010 18:31:02 4.1 C 3.07 g/m*3 4.1 C 0 km/h
1977 19-02-2010 18:56:01 3.7 C 3.18 g/m*3 3.7 C 0 km/h
1978 19-02-2010 19:21:01 3.6 C 3.22 g/m*3 3.6 C 0 km/h
1979 19-02-2010 19:46:02 3.6 C 3.28 g/m*3 3.6 C 0 km/h
1980 19-02-2010 20:11:02 3.3 C 3.34 g/m*3 3.3 C 0 km/h
1981 19-02-2010 20:36:02 3.3 C 3.46 g/m*3 3.3 C 0 km/h
1982 19-02-2010 21:14:02 3.3 C 3.52 g/m*3 3.3 C 0 km/h
1983 19-02-2010 21:26:02 3.2 C 3.56 g/m*3 3.2 C 0 km/h
1984 19-02-2010 21:38:01 3.2 C 3.5 g/m*3 3.2 C 0 km/h
1985 19-02-2010 21:50:01 3.1 C 3.53 g/m*3 3.1 C 0 km/h
1986 19-02-2010 22:02:02 2.8 C 3.52 g/m*3 2.8 C 0 km/h
1987 19-02-2010 22:14:02 2.6 C 3.53 g/m*3 2.6 C 0 km/h
1988 19-02-2010 22:26:01 2.6 C 3.47 g/m*3 2.6 C 0 km/h
1989 19-02-2010 22:38:02 2.4 C 3.43 g/m*3 2.4 C 0 km/h
1990 19-02-2010 22:50:01 2.2 C 3.38 g/m*3 2.2 C 0 km/h
1991 19-02-2010 23:02:02 2.1 C 3.36 g/m*3 2.1 C 0 km/h
1992 19-02-2010 23:14:02 2.5 C 3.22 g/m*3 2.5 C 0 km/h
1993 19-02-2010 23:26:01 2.5 C 3.16 g/m*3 2.5 C 0 km/h
1994 19-02-2010 23:38:02 2.2 C 3.21 g/m*3 2.2 C 0 km/h
1995 19-02-2010 23:50:01 1.6 C 3.24 g/m*3 1.6 C 0 km/h
1996 20-02-2010 00:02:02 1.5 C 3.33 g/m*3 1.5 C 0 km/h
1997 20-02-2010 00:14:02 1.4 C 3.31 g/m*3 1.4 C 0 km/h
1998 20-02-2010 00:26:02 1.2 C 3.37 g/m*3 1.2 C 0 km/h
1999 20-02-2010 00:38:01 1.1 C 3.4 g/m*3 1.1 C 0 km/h
2000 20-02-2010 00:50:02 0.7 C 3.41 g/m*3 0.7 C 0 km/h
Sensor: Nr:Datum:Temp:Abs-Feuchte:Windchill:Wind:
Aussen-T/F 2001 20-02-2010 01:02:01 0.4 C 3.39 g/m*3 0.4 C 0 km/h
2002 20-02-2010 01:14:01 0.1 C 3.42 g/m*3 0.1 C 0 km/h
2003 20-02-2010 01:26:01 -0.1 C 3.46 g/m*3 -0.1 C 0 km/h
2004 20-02-2010 01:38:02 -0.1 C 3.51 g/m*3 -0.1 C 0 km/h
2005 20-02-2010 01:50:02 -0.1 C 3.56 g/m*3 -0.1 C 0 km/h
2006 20-02-2010 02:02:02 -0.2 C 3.58 g/m*3 -0.2 C 0 km/h
2007 20-02-2010 02:14:02 -0.3 C 3.56 g/m*3 -0.3 C 0 km/h
2008 20-02-2010 02:26:02 -0.3 C 3.61 g/m*3 -0.3 C 0 km/h
2009 20-02-2010 02:38:02 -0.4 C 3.58 g/m*3 -0.4 C 0 km/h
2010 20-02-2010 02:50:01 -0.4 C 3.58 g/m*3 -0.4 C 0 km/h
2011 20-02-2010 03:02:01 -0.4 C 3.58 g/m*3 -0.4 C 0 km/h
2012 20-02-2010 03:14:01 -0.7 C 3.46 g/m*3 -0.7 C 0 km/h
2013 20-02-2010 03:26:01 -0.7 C 3.51 g/m*3 -0.7 C 0 km/h
2014 20-02-2010 03:38:02 -0.8 C 3.48 g/m*3 -0.8 C 0 km/h
2015 20-02-2010 03:50:02 -1 C 3.44 g/m*3 -1 C 0 km/h
2016 20-02-2010 04:02:01 -0.9 C 3.51 g/m*3 -0.9 C 0 km/h
2017 20-02-2010 04:14:01 -0.7 C 3.55 g/m*3 -0.7 C 0 km/h
2018 20-02-2010 04:26:01 -0.7 C 3.51 g/m*3 -0.7 C 0 km/h
2019 20-02-2010 04:38:02 -0.4 C 3.58 g/m*3 -0.4 C 0 km/h
2020 20-02-2010 04:50:01 -0.2 C 3.58 g/m*3 -0.2 C 0 km/h
2021 20-02-2010 05:02:01 -0.1 C 3.61 g/m*3 -0.1 C 0 km/h
2022 20-02-2010 05:14:01 -0.2 C 3.54 g/m*3 -0.2 C 0 km/h
2023 20-02-2010 05:26:01 -0.2 C 3.58 g/m*3 -0.2 C 0 km/h
2024 20-02-2010 05:38:02 -0.2 C 3.58 g/m*3 -0.2 C 0 km/h
2025 20-02-2010 05:50:01 0 C 3.63 g/m*3 0 C 0 km/h
Sensor: Nr:Datum:Temp:Abs-Feuchte:Windchill:Wind:
Aussen-T/F 2026 20-02-2010 06:02:02 -0.2 C 3.58 g/m*3 -0.2 C 0 km/h
2027 20-02-2010 06:14:02 0.1 C 3.71 g/m*3 0.1 C 0 km/h
2028 20-02-2010 06:26:01 0.4 C 3.79 g/m*3 0.4 C 0 km/h
2029 20-02-2010 06:38:01 0.3 C 3.76 g/m*3 0.3 C 0 km/h
2030 20-02-2010 06:50:01 0 C 3.68 g/m*3 0 C 0 km/h
2031 20-02-2010 07:02:01 -0.2 C 3.68 g/m*3 -0.2 C 0 km/h
2032 20-02-2010 07:14:02 -0.5 C 3.65 g/m*3 -0.5 C 0 km/h
2033 20-02-2010 07:26:01 -0.6 C 3.67 g/m*3 -0.6 C 0 km/h
2034 20-02-2010 07:38:01 -0.6 C 3.72 g/m*3 -0.6 C 0 km/h
2035 20-02-2010 07:50:01 -0.6 C 3.76 g/m*3 -0.6 C 0 km/h
2036 20-02-2010 08:02:02 -0.2 C 3.92 g/m*3 -0.2 C 0 km/h
2037 20-02-2010 08:14:02 0.1 C 3.95 g/m*3 0.1 C 0 km/h
2038 20-02-2010 08:26:01 0.4 C 3.98 g/m*3 0.4 C 0 km/h
2039 20-02-2010 08:38:01 0.7 C 3.97 g/m*3 0.7 C 0 km/h
2040 20-02-2010 08:50:01 1 C 3.94 g/m*3 1 C 0 km/h
2041 20-02-2010 09:02:02 1.2 C 3.95 g/m*3 1.2 C 0 km/h
2042 20-02-2010 09:14:02 1.4 C 3.89 g/m*3 1.4 C 0 km/h
2043 20-02-2010 09:26:01 1.5 C 3.87 g/m*3 1.5 C 0 km/h
2044 20-02-2010 09:38:01 1.2 C 3.79 g/m*3 1.2 C 0 km/h
2045 20-02-2010 09:50:01 1.2 C 3.74 g/m*3 1.2 C 0 km/h
2046 20-02-2010 10:02:01 1.3 C 3.76 g/m*3 1.3 C 0 km/h
2047 20-02-2010 10:14:01 1.4 C 3.73 g/m*3 1.4 C 0 km/h
2048 20-02-2010 10:26:01 1.5 C 3.71 g/m*3 1.5 C 0 km/h
2049 20-02-2010 10:38:01 1.7 C 3.76 g/m*3 1.7 C 0 km/h
2050 20-02-2010 10:50:01 1.8 C 3.73 g/m*3 1.8 C 0 km/h
Sensor: Nr:Datum:Temp:Abs-Feuchte:Windchill:Wind:
Aussen-T/F 2051 20-02-2010 11:02:01 2.1 C 3.75 g/m*3 2.1 C 0 km/h
2052 20-02-2010 11:14:01 3 C 3.63 g/m*3 3 C 0 km/h
2053 20-02-2010 11:26:01 3.3 C 3.58 g/m*3 3.3 C 0 km/h
2054 20-02-2010 11:38:01 3.7 C 3.61 g/m*3 3.7 C 0 km/h
2055 20-02-2010 11:50:01 4.1 C 3.46 g/m*3 4.1 C 0 km/h
2056 20-02-2010 12:02:01 4.1 C 3.33 g/m*3 4.1 C 0 km/h
2057 20-02-2010 12:14:01 3.9 C 3.47 g/m*3 3.9 C 0 km/h
2058 20-02-2010 12:26:02 4.1 C 3.39 g/m*3 4.1 C 0 km/h
2059 20-02-2010 12:38:01 3.8 C 3.45 g/m*3 3.8 C 0 km/h
2060 20-02-2010 12:50:01 4.2 C 3.41 g/m*3 4.2 C 0 km/h
2061 20-02-2010 13:02:01 4.2 C 3.22 g/m*3 4.2 C 0 km/h
2062 20-02-2010 13:14:01 4.3 C 3.18 g/m*3 4.3 C 0 km/h
2063 20-02-2010 13:26:02 4.5 C 3.22 g/m*3 4.5 C 0 km/h
2064 20-02-2010 13:38:01 4.5 C 3.16 g/m*3 4.5 C 0 km/h
2065 20-02-2010 13:50:02 4.3 C 3.11 g/m*3 4.3 C 0 km/h
2066 20-02-2010 14:02:01 4.2 C 3.22 g/m*3 4.2 C 0 km/h
2067 20-02-2010 14:14:01 4.5 C 3.22 g/m*3 4.5 C 0 km/h
2068 20-02-2010 14:26:02 4.9 C 3.24 g/m*3 4.9 C 0 km/h
2069 20-02-2010 14:38:01 4.7 C 3.2 g/m*3 4.7 C 0 km/h
2070 20-02-2010 14:50:01 4.5 C 3.22 g/m*3 4.5 C 0 km/h
2071 20-02-2010 15:02:01 4.4 C 3.2 g/m*3 4.4 C 0 km/h
2072 20-02-2010 15:14:01 4.8 C 3.22 g/m*3 4.8 C 0 km/h
2073 20-02-2010 15:26:02 4.9 C 3.17 g/m*3 4.9 C 0 km/h
2074 20-02-2010 15:38:01 5.1 C 3.15 g/m*3 5.1 C 0 km/h
2075 20-02-2010 15:50:02 5.1 C 3.08 g/m*3 5.1 C 0 km/h
Sensor: Nr:Datum:Temp:Abs-Feuchte:Windchill:Wind:
Aussen-T/F 2076 20-02-2010 16:02:01 5 C 3.06 g/m*3 5 C 0 km/h
2077 20-02-2010 16:14:01 4.9 C 3.11 g/m*3 4.9 C 0 km/h
2078 20-02-2010 16:26:02 5 C 3.06 g/m*3 5 C 0 km/h
2079 20-02-2010 16:38:01 5.2 C 3.1 g/m*3 5.2 C 0 km/h
2080 20-02-2010 16:50:02 4.9 C 3.04 g/m*3 4.9 C 0 km/h
2081 20-02-2010 17:02:01 4.5 C 3.09 g/m*3 4.5 C 0 km/h
2082 20-02-2010 17:14:01 4.9 C 3.11 g/m*3 4.9 C 0 km/h
2083 20-02-2010 17:26:01 4.8 C 3.08 g/m*3 4.8 C 0 km/h
2084 20-02-2010 17:38:01 4.2 C 3.16 g/m*3 4.2 C 0 km/h
2085 20-02-2010 17:50:02 3.6 C 3.47 g/m*3 3.6 C 0 km/h
2086 20-02-2010 18:02:01 2.9 C 3.54 g/m*3 2.9 C 0 km/h
2087 20-02-2010 18:14:01 2.5 C 3.56 g/m*3 2.5 C 0 km/h
2088 20-02-2010 18:26:02 2.5 C 3.56 g/m*3 2.5 C 0 km/h
2089 20-02-2010 18:38:01 2.7 C 3.55 g/m*3 2.7 C 0 km/h
2090 20-02-2010 18:50:02 2.6 C 3.47 g/m*3 2.6 C 0 km/h
2091 20-02-2010 19:02:01 2.2 C 3.44 g/m*3 2.2 C 0 km/h
2092 20-02-2010 19:14:01 2 C 3.45 g/m*3 2 C 0 km/h
2093 20-02-2010 19:26:01 1.8 C 3.45 g/m*3 1.8 C 0 km/h
2094 20-02-2010 19:38:02 2 C 3.45 g/m*3 2 C 0 km/h
2095 20-02-2010 19:50:01 1.5 C 3.44 g/m*3 1.5 C 0 km/h
2096 20-02-2010 20:02:01 1.3 C 3.44 g/m*3 1.3 C 0 km/h
2097 20-02-2010 20:14:01 0.9 C 3.45 g/m*3 0.9 C 0 km/h
2098 20-02-2010 20:26:01 0.8 C 3.48 g/m*3 0.8 C 0 km/h
2099 20-02-2010 20:38:02 0.6 C 3.43 g/m*3 0.6 C 0 km/h
2100 20-02-2010 20:50:01 0.7 C 3.41 g/m*3 0.7 C 0 km/h
Sensor: Nr:Datum:Temp:Abs-Feuchte:Windchill:Wind:
Aussen-T/F 2101 20-02-2010 21:02:02 0.7 C 3.41 g/m*3 0.7 C 0 km/h
2102 20-02-2010 21:14:02 0.8 C 3.33 g/m*3 0.8 C 0 km/h
2103 20-02-2010 21:26:01 0.8 C 3.28 g/m*3 0.8 C 0 km/h
2104 20-02-2010 21:38:02 0.7 C 3.3 g/m*3 0.7 C 0 km/h
2105 20-02-2010 21:50:01 1 C 3.32 g/m*3 1 C 0 km/h
2106 20-02-2010 22:02:02 1.1 C 3.34 g/m*3 1.1 C 0 km/h
2107 20-02-2010 22:14:02 0.9 C 3.35 g/m*3 0.9 C 0 km/h
2108 20-02-2010 22:26:01 0.7 C 3.36 g/m*3 0.7 C 0 km/h
2109 20-02-2010 22:38:02 0.4 C 3.34 g/m*3 0.4 C 0 km/h
2110 20-02-2010 22:50:01 0.4 C 3.39 g/m*3 0.4 C 0 km/h
2111 20-02-2010 23:02:02 0.5 C 3.41 g/m*3 0.5 C 0 km/h
2112 20-02-2010 23:14:02 0.6 C 3.48 g/m*3 0.6 C 0 km/h
2113 20-02-2010 23:26:01 0.9 C 3.56 g/m*3 0.9 C 0 km/h
2114 20-02-2010 23:38:01 1.4 C 3.63 g/m*3 1.4 C 0 km/h
2115 20-02-2010 23:50:01 1.5 C 3.6 g/m*3 1.5 C 0 km/h
2116 21-02-2010 00:02:01 1.6 C 3.62 g/m*3 1.6 C 0 km/h
2117 21-02-2010 00:14:01 1.8 C 3.67 g/m*3 1.8 C 0 km/h
2118 21-02-2010 00:26:01 2.1 C 3.64 g/m*3 2.1 C 0 km/h
2119 21-02-2010 00:38:02 2.2 C 3.66 g/m*3 2.2 C 0 km/h
2120 21-02-2010 00:50:01 2.1 C 3.64 g/m*3 2.1 C 0 km/h
2121 21-02-2010 01:02:02 2.1 C 3.64 g/m*3 2.1 C 0 km/h
2122 21-02-2010 01:14:02 2 C 3.61 g/m*3 2 C 0 km/h
2123 21-02-2010 01:26:01 1.7 C 3.59 g/m*3 1.7 C 0 km/h
2124 21-02-2010 01:38:02 1.7 C 3.59 g/m*3 1.7 C 0 km/h
2125 21-02-2010 01:50:01 1.7 C 3.54 g/m*3 1.7 C 0 km/h
Sensor: Nr:Datum:Temp:Abs-Feuchte:Windchill:Wind:
Aussen-T/F 2126 21-02-2010 02:02:02 1.6 C 3.57 g/m*3 1.6 C 0 km/h
2127 21-02-2010 02:14:02 1.6 C 3.57 g/m*3 1.6 C 0 km/h
2128 21-02-2010 02:26:01 1.7 C 3.59 g/m*3 1.7 C 0 km/h
2129 21-02-2010 02:38:01 1.8 C 3.62 g/m*3 1.8 C 0 km/h
2130 21-02-2010 02:50:01 1.7 C 3.7 g/m*3 1.7 C 0 km/h
2131 21-02-2010 03:02:01 1.5 C 3.81 g/m*3 1.5 C 0 km/h
2132 21-02-2010 03:14:02 1.3 C 3.87 g/m*3 1.3 C 0 km/h
2133 21-02-2010 03:26:02 1 C 3.89 g/m*3 1 C 0 km/h
2134 21-02-2010 03:38:01 0.6 C 3.89 g/m*3 0.6 C 0 km/h
2135 21-02-2010 03:50:01 0.4 C 3.93 g/m*3 0.4 C 0 km/h
2136 21-02-2010 04:02:02 0.4 C 3.98 g/m*3 0.4 C 0 km/h
2137 21-02-2010 04:14:02 0.4 C 4.08 g/m*3 0.4 C 0 km/h
2138 21-02-2010 04:26:01 0.3 C 4.11 g/m*3 0.3 C 0 km/h
2139 21-02-2010 04:38:01 0.4 C 4.18 g/m*3 0.4 C 0 km/h
2140 21-02-2010 04:50:01 0.4 C 4.23 g/m*3 0.4 C 0 km/h
2141 21-02-2010 05:02:01 0.5 C 4.31 g/m*3 0.5 C 0 km/h
2142 21-02-2010 05:14:01 0.4 C 4.33 g/m*3 0.4 C 0 km/h
2143 21-02-2010 05:26:01 0.5 C 4.36 g/m*3 0.5 C 0 km/h
2144 21-02-2010 05:38:01 0.5 C 4.41 g/m*3 0.5 C 0 km/h
2145 21-02-2010 05:50:01 0.6 C 4.44 g/m*3 0.6 C 0 km/h
2146 21-02-2010 06:02:01 0.6 C 4.49 g/m*3 0.6 C 0 km/h
2147 21-02-2010 06:14:01 0.7 C 4.53 g/m*3 0.7 C 0 km/h
2148 21-02-2010 06:26:02 0.7 C 4.53 g/m*3 0.7 C 0 km/h
2149 21-02-2010 06:38:01 0.8 C 4.56 g/m*3 0.8 C 0 km/h
2150 21-02-2010 06:50:02 0.8 C 4.56 g/m*3 0.8 C 0 km/h
Sensor: Nr:Datum:Temp:Abs-Feuchte:Windchill:Wind:
Aussen-T/F 2151 21-02-2010 07:02:01 0.9 C 4.54 g/m*3 0.9 C 0 km/h
2152 21-02-2010 07:14:01 0.9 C 4.48 g/m*3 0.9 C 0 km/h
2153 21-02-2010 07:26:02 0.8 C 4.45 g/m*3 0.8 C 0 km/h
2154 21-02-2010 07:38:01 0.8 C 4.4 g/m*3 0.8 C 0 km/h
2155 21-02-2010 07:50:01 0.8 C 4.35 g/m*3 0.8 C 0 km/h
2156 21-02-2010 08:02:02 1.3 C 4.45 g/m*3 1.3 C 0 km/h
2157 21-02-2010 08:14:02 1.2 C 4.42 g/m*3 1.2 C 0 km/h
2158 21-02-2010 08:26:01 1.4 C 4.37 g/m*3 1.4 C 0 km/h
2159 21-02-2010 08:38:01 1.6 C 4.38 g/m*3 1.6 C 0 km/h
2160 21-02-2010 08:50:01 1.5 C 4.4 g/m*3 1.5 C 0 km/h
2161 21-02-2010 09:02:01 1.6 C 4.43 g/m*3 1.6 C 0 km/h
2162 21-02-2010 09:14:02 1.7 C 4.46 g/m*3 1.7 C 0 km/h
2163 21-02-2010 09:26:01 2 C 4.5 g/m*3 2 C 0 km/h
2164 21-02-2010 09:38:01 2.1 C 4.48 g/m*3 2.1 C 0 km/h
2165 21-02-2010 09:50:01 2.3 C 4.48 g/m*3 2.3 C 0 km/h
2166 21-02-2010 10:02:02 2.5 C 4.48 g/m*3 2.5 C 0 km/h
2167 21-02-2010 10:14:02 2.8 C 4.52 g/m*3 2.8 C 0 km/h
2168 21-02-2010 10:26:01 2.9 C 4.49 g/m*3 2.9 C 0 km/h
2169 21-02-2010 10:38:02 3 C 4.34 g/m*3 3 C 0 km/h
2170 21-02-2010 10:50:02 3.1 C 4.37 g/m*3 3.1 C 0 km/h
2171 21-02-2010 11:02:01 3.2 C 4.4 g/m*3 3.2 C 0 km/h
2172 21-02-2010 11:14:01 3.7 C 4.42 g/m*3 3.7 C 0 km/h
2173 21-02-2010 11:26:01 3.8 C 4.33 g/m*3 3.8 C 0 km/h
2174 21-02-2010 11:38:02 4 C 4.26 g/m*3 4 C 0 km/h
2175 21-02-2010 11:50:01 4.2 C 4.25 g/m*3 4.2 C 0 km/h
Sensor: Nr:Datum:Temp:Abs-Feuchte:Windchill:Wind:
Aussen-T/F 2176 21-02-2010 12:02:01 4.4 C 4.05 g/m*3 4.4 C 0 km/h
2177 21-02-2010 12:14:01 4.5 C 3.81 g/m*3 4.5 C 0 km/h
2178 21-02-2010 12:26:02 4.8 C 3.82 g/m*3 4.8 C 0 km/h
2179 21-02-2010 12:38:01 5 C 3.94 g/m*3 5 C 0 km/h
2180 21-02-2010 12:50:01 5.1 C 3.9 g/m*3 5.1 C 0 km/h
2181 21-02-2010 13:02:01 4.9 C 3.78 g/m*3 4.9 C 0 km/h
2182 21-02-2010 13:14:01 4.7 C 3.86 g/m*3 4.7 C 0 km/h
2183 21-02-2010 13:26:01 4.7 C 3.93 g/m*3 4.7 C 0 km/h
2184 21-02-2010 13:38:01 4.7 C 4.06 g/m*3 4.7 C 0 km/h
2185 21-02-2010 13:50:01 5.2 C 4.06 g/m*3 5.2 C 0 km/h
2186 21-02-2010 14:02:02 5.7 C 4.06 g/m*3 5.7 C 0 km/h
2187 21-02-2010 14:14:02 5.3 C 3.95 g/m*3 5.3 C 0 km/h
2188 21-02-2010 14:26:01 5.3 C 3.95 g/m*3 5.3 C 0 km/h
2189 21-02-2010 14:38:01 5.2 C 4.06 g/m*3 5.2 C 0 km/h
2190 21-02-2010 14:50:01 5.2 C 4.06 g/m*3 5.2 C 0 km/h
2191 21-02-2010 15:02:01 5.4 C 4.12 g/m*3 5.4 C 0 km/h
2192 21-02-2010 15:14:01 6.1 C 4.09 g/m*3 6.1 C 0 km/h
2193 21-02-2010 15:26:01 6.3 C 4.07 g/m*3 6.3 C 0 km/h
2194 21-02-2010 15:38:01 6.4 C 4.1 g/m*3 6.4 C 0 km/h
2195 21-02-2010 15:50:02 6.3 C 4.15 g/m*3 6.3 C 0 km/h
2196 21-02-2010 16:02:01 6.4 C 4.17 g/m*3 6.4 C 0 km/h
2197 21-02-2010 16:14:01 6.5 C 4.12 g/m*3 6.5 C 0 km/h
2198 21-02-2010 16:26:02 6.5 C 4.2 g/m*3 6.5 C 0 km/h
2199 21-02-2010 16:38:01 6.2 C 4.04 g/m*3 6.2 C 0 km/h
2200 21-02-2010 16:50:01 7.2 C 4.24 g/m*3 7.2 C 0 km/h
Sensor: Nr:Datum:Temp:Abs-Feuchte:Windchill:Wind:
Aussen-T/F 2201 21-02-2010 17:02:02 6.5 C 3.97 g/m*3 6.5 C 0 km/h
2202 21-02-2010 17:14:02 5.9 C 4.11 g/m*3 5.9 C 0 km/h
2203 21-02-2010 17:26:01 5.6 C 4.1 g/m*3 5.6 C 0 km/h
2204 21-02-2010 17:38:02 5.3 C 4.16 g/m*3 5.3 C 0 km/h
2205 21-02-2010 17:50:01 5.1 C 4.17 g/m*3 5.1 C 0 km/h
2206 21-02-2010 18:02:02 4.8 C 4.29 g/m*3 4.8 C 0 km/h
2207 21-02-2010 18:14:02 4.6 C 4.3 g/m*3 4.6 C 0 km/h
2208 21-02-2010 18:26:01 4.4 C 4.31 g/m*3 4.4 C 0 km/h
2209 21-02-2010 18:38:01 3.8 C 4.27 g/m*3 3.8 C 0 km/h
2210 21-02-2010 18:50:01 3.4 C 4.28 g/m*3 3.4 C 0 km/h
2211 21-02-2010 19:02:02 3 C 4.22 g/m*3 3 C 0 km/h
2212 21-02-2010 19:14:02 2.9 C 4.37 g/m*3 2.9 C 0 km/h
2213 21-02-2010 19:26:01 2.8 C 4.4 g/m*3 2.8 C 0 km/h
2214 21-02-2010 19:38:01 2.8 C 4.46 g/m*3 2.8 C 0 km/h
2215 21-02-2010 19:50:01 2.7 C 4.49 g/m*3 2.7 C 0 km/h
2216 21-02-2010 20:02:01 2.5 C 4.43 g/m*3 2.5 C 0 km/h
2217 21-02-2010 20:14:01 2.4 C 4.4 g/m*3 2.4 C 0 km/h
2218 21-02-2010 20:26:01 2.7 C 4.6 g/m*3 2.7 C 0 km/h
2219 21-02-2010 20:38:01 2.8 C 4.63 g/m*3 2.8 C 0 km/h
2220 21-02-2010 20:50:01 3 C 4.58 g/m*3 3 C 0 km/h
2221 21-02-2010 21:02:01 3 C 4.58 g/m*3 3 C 0 km/h
2222 21-02-2010 21:14:01 3 C 4.58 g/m*3 3 C 0 km/h
2223 21-02-2010 21:26:02 2.9 C 4.61 g/m*3 2.9 C 0 km/h
2224 21-02-2010 21:38:01 2.8 C 4.58 g/m*3 2.8 C 0 km/h
2225 21-02-2010 21:50:02 2.7 C 4.6 g/m*3 2.7 C 0 km/h
Sensor: Nr:Datum:Temp:Abs-Feuchte:Windchill:Wind:
Aussen-T/F 2226 21-02-2010 22:02:01 2.6 C 4.57 g/m*3 2.6 C 0 km/h
2227 21-02-2010 22:14:01 2.4 C 4.51 g/m*3 2.4 C 0 km/h
2228 21-02-2010 22:26:02 2.3 C 4.54 g/m*3 2.3 C 0 km/h
2229 21-02-2010 22:38:01 2.1 C 4.53 g/m*3 2.1 C 0 km/h
2230 21-02-2010 22:50:02 2.1 C 4.53 g/m*3 2.1 C 0 km/h
2231 21-02-2010 23:02:01 2.2 C 4.62 g/m*3 2.2 C 0 km/h
2232 21-02-2010 23:14:01 2.1 C 4.59 g/m*3 2.1 C 0 km/h
2233 21-02-2010 23:26:02 2 C 4.56 g/m*3 2 C 0 km/h
2234 21-02-2010 23:38:01 2 C 4.56 g/m*3 2 C 0 km/h
2235 21-02-2010 23:50:02 1.9 C 4.58 g/m*3 1.9 C 0 km/h
2236 22-02-2010 00:02:01 1.9 C 4.58 g/m*3 1.9 C 0 km/h
2237 22-02-2010 00:14:01 1.8 C 4.55 g/m*3 1.8 C 0 km/h
2238 22-02-2010 00:26:01 1.7 C 4.57 g/m*3 1.7 C 0 km/h
2239 22-02-2010 00:38:02 1.7 C 4.57 g/m*3 1.7 C 0 km/h
2240 22-02-2010 00:50:01 1.6 C 4.54 g/m*3 1.6 C 0 km/h
2241 22-02-2010 01:02:02 1.6 C 4.54 g/m*3 1.6 C 0 km/h
2242 22-02-2010 01:14:02 1.5 C 4.51 g/m*3 1.5 C 0 km/h
2243 22-02-2010 01:26:01 1.3 C 4.45 g/m*3 1.3 C 0 km/h
2244 22-02-2010 01:38:02 1.3 C 4.45 g/m*3 1.3 C 0 km/h
2245 22-02-2010 01:50:01 1.3 C 4.45 g/m*3 1.3 C 0 km/h
2246 22-02-2010 02:02:02 1.3 C 4.45 g/m*3 1.3 C 0 km/h
2247 22-02-2010 02:14:02 1.3 C 4.45 g/m*3 1.3 C 0 km/h
2248 22-02-2010 02:26:01 1 C 4.36 g/m*3 1 C 0 km/h
2249 22-02-2010 02:38:01 1 C 4.36 g/m*3 1 C 0 km/h
2250 22-02-2010 02:50:01 1 C 4.41 g/m*3 1 C 0 km/h
Sensor: Nr:Datum:Temp:Abs-Feuchte:Windchill:Wind:
Aussen-T/F 2251 22-02-2010 03:02:01 1.1 C 4.44 g/m*3 1.1 C 0 km/h
2252 22-02-2010 03:14:02 1.1 C 4.44 g/m*3 1.1 C 0 km/h
2253 22-02-2010 03:26:02 1 C 4.41 g/m*3 1 C 0 km/h
2254 22-02-2010 03:38:01 1.1 C 4.44 g/m*3 1.1 C 0 km/h
2255 22-02-2010 03:50:01 1.1 C 4.49 g/m*3 1.1 C 0 km/h
2256 22-02-2010 04:02:02 1.4 C 4.59 g/m*3 1.4 C 0 km/h
2257 22-02-2010 04:14:02 1.1 C 4.44 g/m*3 1.1 C 0 km/h
2258 22-02-2010 04:26:01 1 C 4.41 g/m*3 1 C 0 km/h
2259 22-02-2010 04:38:02 1.1 C 4.49 g/m*3 1.1 C 0 km/h
2260 22-02-2010 04:50:01 1.1 C 4.49 g/m*3 1.1 C 0 km/h
2261 22-02-2010 05:02:02 1.1 C 4.49 g/m*3 1.1 C 0 km/h
2262 22-02-2010 05:14:02 1.2 C 4.53 g/m*3 1.2 C 0 km/h
2263 22-02-2010 05:26:01 1.4 C 4.59 g/m*3 1.4 C 0 km/h
2264 22-02-2010 05:38:01 1.4 C 4.59 g/m*3 1.4 C 0 km/h
2265 22-02-2010 05:50:01 1.5 C 4.62 g/m*3 1.5 C 0 km/h
2266 22-02-2010 06:02:01 1.5 C 4.62 g/m*3 1.5 C 0 km/h
2267 22-02-2010 06:14:02 1.5 C 4.62 g/m*3 1.5 C 0 km/h
2268 22-02-2010 06:26:01 1.5 C 4.62 g/m*3 1.5 C 0 km/h
2269 22-02-2010 06:38:01 1.6 C 4.65 g/m*3 1.6 C 0 km/h
2270 22-02-2010 06:50:01 1.6 C 4.65 g/m*3 1.6 C 0 km/h
2271 22-02-2010 07:02:01 1.6 C 4.65 g/m*3 1.6 C 0 km/h
2272 22-02-2010 07:14:01 1.8 C 4.77 g/m*3 1.8 C 0 km/h
2273 22-02-2010 07:26:02 2.2 C 4.9 g/m*3 2.2 C 0 km/h
2274 22-02-2010 07:38:01 2.3 C 4.93 g/m*3 2.3 C 0 km/h
2275 22-02-2010 07:50:02 2.5 C 5 g/m*3 2.5 C 0 km/h
Sensor: Nr:Datum:Temp:Abs-Feuchte:Windchill:Wind:
Aussen-T/F 2276 22-02-2010 08:02:01 2.7 C 5.07 g/m*3 2.7 C 0 km/h
2277 22-02-2010 08:14:01 3 C 5.11 g/m*3 3 C 0 km/h
2278 22-02-2010 08:26:02 3.2 C 5.12 g/m*3 3.2 C 0 km/h
2279 22-02-2010 08:38:01 3.5 C 5.16 g/m*3 3.5 C 0 km/h
2280 22-02-2010 08:50:02 3.8 C 5.21 g/m*3 3.8 C 0 km/h
2281 22-02-2010 09:02:01 4.2 C 5.22 g/m*3 4.2 C 0 km/h
2282 22-02-2010 09:14:01 4.5 C 5.32 g/m*3 4.5 C 0 km/h
2283 22-02-2010 09:26:01 4.8 C 5.3 g/m*3 4.8 C 0 km/h
2284 22-02-2010 09:38:01 5.1 C 5.27 g/m*3 5.1 C 0 km/h
2285 22-02-2010 09:50:02 5.3 C 5.2 g/m*3 5.3 C 0 km/h
2286 22-02-2010 10:02:01 5.7 C 5.19 g/m*3 5.7 C 0 km/h
2287 22-02-2010 10:14:01 6.3 C 5.18 g/m*3 6.3 C 0 km/h
2288 22-02-2010 10:26:01 6.9 C 5.08 g/m*3 6.9 C 0 km/h
2289 22-02-2010 10:38:02 7.2 C 5.02 g/m*3 7.2 C 0 km/h
2290 22-02-2010 10:50:01 7.6 C 5.08 g/m*3 7.6 C 0 km/h
2291 22-02-2010 11:02:01 7.7 C 5.19 g/m*3 7.7 C 0 km/h
2292 22-02-2010 11:14:01 8 C 5.21 g/m*3 8 C 0 km/h
2293 22-02-2010 11:26:02 8.5 C 5.21 g/m*3 8.5 C 0 km/h
2294 22-02-2010 11:38:01 8.9 C 5.26 g/m*3 8.9 C 0 km/h
2295 22-02-2010 11:50:02 8.7 C 5.19 g/m*3 8.7 C 0 km/h
2296 22-02-2010 12:02:01 8.6 C 5.33 g/m*3 8.6 C 0 km/h
2297 22-02-2010 12:14:01 8.4 C 5.51 g/m*3 8.4 C 0 km/h
2298 22-02-2010 12:26:02 8.8 C 5.74 g/m*3 8.8 C 0 km/h
2299 22-02-2010 12:38:01 9.7 C 5.81 g/m*3 9.7 C 0 km/h
2300 22-02-2010 12:50:02 10.3 C 5.55 g/m*3 10.3 C 0 km/h
Sensor: Nr:Datum:Temp:Abs-Feuchte:Windchill:Wind:
Aussen-T/F 2301 22-02-2010 13:02:01 10.6 C 5.37 g/m*3 10.6 C 0 km/h
2302 22-02-2010 13:14:01 11.2 C 5.27 g/m*3 11.2 C 0 km/h
2303 22-02-2010 13:26:01 11.7 C 5.12 g/m*3 11.7 C 0 km/h
2304 22-02-2010 13:38:02 11.4 C 5.13 g/m*3 11.4 C 0 km/h
2305 22-02-2010 13:50:01 11.8 C 5.26 g/m*3 11.8 C 0 km/h
2306 22-02-2010 14:02:02 11.9 C 5.08 g/m*3 11.9 C 0 km/h
2307 22-02-2010 14:14:02 12.7 C 5.01 g/m*3 12.7 C 0 km/h
2308 22-02-2010 14:26:01 12.2 C 5.07 g/m*3 12.2 C 0 km/h
2309 22-02-2010 14:38:02 12.5 C 5.06 g/m*3 12.5 C 0 km/h
2310 22-02-2010 14:50:01 12.2 C 5.07 g/m*3 12.2 C 0 km/h
2311 22-02-2010 15:02:02 12.3 C 5.1 g/m*3 12.3 C 0 km/h
2312 22-02-2010 15:14:02 12.7 C 5.12 g/m*3 12.7 C 0 km/h
2313 22-02-2010 15:26:01 13.3 C 5.2 g/m*3 13.3 C 0 km/h
2314 22-02-2010 15:38:02 13.4 C 5 g/m*3 13.4 C 0 km/h
2315 22-02-2010 15:50:01 12.7 C 5.23 g/m*3 12.7 C 0 km/h
2316 22-02-2010 16:02:02 12.4 C 5.14 g/m*3 12.4 C 0 km/h
2317 22-02-2010 16:14:02 11.9 C 5.3 g/m*3 11.9 C 0 km/h
2318 22-02-2010 16:26:01 11.5 C 5.37 g/m*3 11.5 C 0 km/h
2319 22-02-2010 16:38:01 11.4 C 5.44 g/m*3 11.4 C 0 km/h
2320 22-02-2010 16:50:01 11.8 C 5.58 g/m*3 11.8 C 0 km/h
2321 22-02-2010 17:02:01 12.1 C 5.47 g/m*3 12.1 C 0 km/h
2322 22-02-2010 17:14:01 11.8 C 5.47 g/m*3 11.8 C 0 km/h
2323 22-02-2010 17:26:01 11.3 C 5.51 g/m*3 11.3 C 0 km/h
2324 22-02-2010 17:38:01 10.7 C 5.6 g/m*3 10.7 C 0 km/h
2325 22-02-2010 17:50:01 10.4 C 5.69 g/m*3 10.4 C 0 km/h
Sensor: Nr:Datum:Temp:Abs-Feuchte:Windchill:Wind:
Aussen-T/F 2326 22-02-2010 18:02:01 10.1 C 5.67 g/m*3 10.1 C 0 km/h
2327 22-02-2010 18:14:01 9.9 C 5.79 g/m*3 9.9 C 0 km/h
2328 22-02-2010 18:26:02 9.7 C 5.72 g/m*3 9.7 C 0 km/h
2329 22-02-2010 18:38:01 9.4 C 5.7 g/m*3 9.4 C 0 km/h
2330 22-02-2010 18:50:02 9.2 C 5.8 g/m*3 9.2 C 0 km/h
2331 22-02-2010 19:02:01 9 C 5.73 g/m*3 9 C 0 km/h
2332 22-02-2010 19:14:01 8.9 C 5.87 g/m*3 8.9 C 0 km/h
2333 22-02-2010 19:26:02 8.9 C 5.87 g/m*3 8.9 C 0 km/h
2334 22-02-2010 19:38:01 9 C 5.82 g/m*3 9 C 0 km/h
2335 22-02-2010 19:50:02 9.1 C 5.77 g/m*3 9.1 C 0 km/h
2336 22-02-2010 20:02:02 9.1 C 5.68 g/m*3 9.1 C 0 km/h
2337 22-02-2010 20:14:02 9.2 C 5.63 g/m*3 9.2 C 0 km/h
2338 22-02-2010 20:26:01 9.5 C 5.64 g/m*3 9.5 C 0 km/h
2339 22-02-2010 20:38:02 9.4 C 5.52 g/m*3 9.4 C 0 km/h
2340 22-02-2010 20:50:02 9 C 5.47 g/m*3 9 C 0 km/h
2341 22-02-2010 21:02:01 8.7 C 5.53 g/m*3 8.7 C 0 km/h
2342 22-02-2010 21:14:01 8.9 C 5.52 g/m*3 8.9 C 0 km/h
2343 22-02-2010 21:26:01 8.8 C 5.48 g/m*3 8.8 C 0 km/h
2344 22-02-2010 21:38:02 8.9 C 5.52 g/m*3 8.9 C 0 km/h
2345 22-02-2010 21:50:01 8.9 C 5.52 g/m*3 8.9 C 0 km/h
2346 22-02-2010 22:02:02 9.1 C 5.5 g/m*3 9.1 C 0 km/h
2347 22-02-2010 22:14:02 9.5 C 5.55 g/m*3 9.5 C 0 km/h
2348 22-02-2010 22:28:08 10.1 C 5.67 g/m*3 10.1 C 0 km/h
2349 22-02-2010 22:40:08 11.1 C 5.54 g/m*3 11.1 C 0 km/h
2350 22-02-2010 22:52:08 11.5 C 5.47 g/m*3 11.5 C 0 km/h
Sensor: Nr:Datum:Temp:Abs-Feuchte:Windchill:Wind:
Aussen-T/F 2351 22-02-2010 23:04:08 12 C 5.33 g/m*3 12 C 0 km/h
2352 22-02-2010 23:16:08 12.1 C 5.36 g/m*3 12.1 C 0 km/h
2353 22-02-2010 23:28:08 12.1 C 5.47 g/m*3 12.1 C 0 km/h
2354 22-02-2010 23:40:08 12 C 5.44 g/m*3 12 C 0 km/h
2355 22-02-2010 23:52:08 12.2 C 5.5 g/m*3 12.2 C 0 km/h
2356 23-02-2010 00:04:08 12.1 C 5.47 g/m*3 12.1 C 0 km/h
2357 23-02-2010 00:16:08 12.1 C 5.47 g/m*3 12.1 C 0 km/h
2358 23-02-2010 00:28:08 12.2 C 5.5 g/m*3 12.2 C 0 km/h
2359 23-02-2010 00:40:08 12.2 C 5.4 g/m*3 12.2 C 0 km/h
2360 23-02-2010 00:52:08 12.1 C 5.36 g/m*3 12.1 C 0 km/h
2361 23-02-2010 01:04:08 11.8 C 5.47 g/m*3 11.8 C 0 km/h
2362 23-02-2010 01:16:08 11.5 C 5.58 g/m*3 11.5 C 0 km/h
2363 23-02-2010 01:28:08 11.4 C 5.75 g/m*3 11.4 C 0 km/h
2364 23-02-2010 01:40:08 11.4 C 5.75 g/m*3 11.4 C 0 km/h
2365 23-02-2010 01:52:08 11.4 C 5.85 g/m*3 11.4 C 0 km/h
2366 23-02-2010 02:04:08 11.2 C 5.78 g/m*3 11.2 C 0 km/h
2367 23-02-2010 02:16:08 11.2 C 5.88 g/m*3 11.2 C 0 km/h
2368 23-02-2010 02:28:08 10.6 C 6.25 g/m*3 10.6 C 0 km/h
2369 23-02-2010 02:40:08 10.4 C 6.46 g/m*3 10.4 C 0 km/h
2370 23-02-2010 02:52:08 9.6 C 6.78 g/m*3 9.6 C 0 km/h
2371 23-02-2010 03:04:09 9.3 C 6.83 g/m*3 9.3 C 0 km/h
2372 23-02-2010 03:16:09 9.2 C 6.97 g/m*3 9.2 C 0 km/h
2373 23-02-2010 03:28:09 9.1 C 6.92 g/m*3 9.1 C 0 km/h
2374 23-02-2010 03:40:09 9.1 C 7.01 g/m*3 9.1 C 0 km/h
2375 23-02-2010 03:52:09 8.9 C 7.1 g/m*3 8.9 C 0 km/h
Sensor: Nr:Datum:Temp:Abs-Feuchte:Windchill:Wind:
Aussen-T/F 2376 23-02-2010 04:04:09 8.6 C 7.13 g/m*3 8.6 C 0 km/h
2377 23-02-2010 04:16:09 8.6 C 7.22 g/m*3 8.6 C 0 km/h
2378 23-02-2010 04:28:09 8.5 C 7.17 g/m*3 8.5 C 0 km/h
2379 23-02-2010 04:40:09 8.6 C 7.22 g/m*3 8.6 C 0 km/h
2380 23-02-2010 04:52:09 8.5 C 7.17 g/m*3 8.5 C 0 km/h
2381 23-02-2010 05:04:09 8.4 C 7.04 g/m*3 8.4 C 0 km/h
2382 23-02-2010 05:16:09 8.5 C 7.17 g/m*3 8.5 C 0 km/h
2383 23-02-2010 05:28:09 8.3 C 7.08 g/m*3 8.3 C 0 km/h
2384 23-02-2010 05:40:09 8.5 C 7.17 g/m*3 8.5 C 0 km/h
2385 23-02-2010 05:52:09 8.5 C 7.09 g/m*3 8.5 C 0 km/h
2386 23-02-2010 06:04:09 8.5 C 7.09 g/m*3 8.5 C 0 km/h
2387 23-02-2010 06:16:09 8.5 C 7.09 g/m*3 8.5 C 0 km/h
2388 23-02-2010 06:28:09 8.5 C 7.09 g/m*3 8.5 C 0 km/h
2389 23-02-2010 06:40:09 8.5 C 7.09 g/m*3 8.5 C 0 km/h
2390 23-02-2010 06:52:09 8.5 C 7.09 g/m*3 8.5 C 0 km/h
2391 23-02-2010 07:04:09 8.4 C 7.04 g/m*3 8.4 C 0 km/h
2392 23-02-2010 07:16:08 8.2 C 6.95 g/m*3 8.2 C 0 km/h
2393 23-02-2010 07:28:08 8.1 C 6.99 g/m*3 8.1 C 0 km/h
2394 23-02-2010 07:40:08 8.2 C 7.03 g/m*3 8.2 C 0 km/h
2395 23-02-2010 07:52:01 8.2 C 7.03 g/m*3 8.2 C 0 km/h
2396 23-02-2010 08:04:02 8.3 C 7.16 g/m*3 8.3 C 0 km/h
2397 23-02-2010 08:16:01 8.5 C 7.26 g/m*3 8.5 C 0 km/h
2398 23-02-2010 08:28:01 8.6 C 7.22 g/m*3 8.6 C 0 km/h
2399 23-02-2010 08:40:02 8.8 C 7.31 g/m*3 8.8 C 0 km/h
2400 23-02-2010 08:52:02 8.9 C 7.27 g/m*3 8.9 C 0 km/h
Sensor: Nr:Datum:Temp:Abs-Feuchte:Windchill:Wind:
Aussen-T/F 2401 23-02-2010 09:04:02 9 C 7.23 g/m*3 9 C 0 km/h
2402 23-02-2010 09:16:01 9.1 C 7.28 g/m*3 9.1 C 0 km/h
2403 23-02-2010 09:28:01 9.1 C 7.1 g/m*3 9.1 C 0 km/h
2404 23-02-2010 09:40:02 9.1 C 7.01 g/m*3 9.1 C 0 km/h
2405 23-02-2010 09:52:02 9.3 C 7.19 g/m*3 9.3 C 0 km/h
2406 23-02-2010 10:04:02 9.7 C 7.19 g/m*3 9.7 C 0 km/h
2407 23-02-2010 10:16:01 10.4 C 7.04 g/m*3 10.4 C 0 km/h
2408 23-02-2010 10:28:01 10.7 C 6.88 g/m*3 10.7 C 0 km/h
2409 23-02-2010 10:40:02 10.6 C 6.83 g/m*3 10.6 C 0 km/h
2410 23-02-2010 10:52:01 10.6 C 6.73 g/m*3 10.6 C 0 km/h
2411 23-02-2010 11:04:02 10.8 C 6.92 g/m*3 10.8 C 0 km/h
2412 23-02-2010 11:16:02 11 C 6.81 g/m*3 11 C 0 km/h
2413 23-02-2010 11:28:02 11.2 C 6.69 g/m*3 11.2 C 0 km/h
2414 23-02-2010 11:40:02 11.4 C 6.57 g/m*3 11.4 C 0 km/h
2415 23-02-2010 11:52:01 11.6 C 6.55 g/m*3 11.6 C 0 km/h
2416 23-02-2010 12:04:02 11.2 C 6.49 g/m*3 11.2 C 0 km/h
2417 23-02-2010 12:16:02 10.9 C 6.66 g/m*3 10.9 C 0 km/h
2418 23-02-2010 12:28:02 10.3 C 6.9 g/m*3 10.3 C 0 km/h
2419 23-02-2010 12:40:01 10.5 C 7.27 g/m*3 10.5 C 0 km/h
2420 23-02-2010 12:52:02 10.4 C 7.13 g/m*3 10.4 C 0 km/h
2421 23-02-2010 13:04:01 10.3 C 7.18 g/m*3 10.3 C 0 km/h
2422 23-02-2010 13:16:02 10.4 C 7.32 g/m*3 10.4 C 0 km/h
2423 23-02-2010 13:28:02 10.5 C 7.37 g/m*3 10.5 C 0 km/h
2424 23-02-2010 13:40:01 10.3 C 7.47 g/m*3 10.3 C 0 km/h
2425 23-02-2010 13:52:02 10.6 C 7.71 g/m*3 10.6 C 0 km/h
Sensor: Nr:Datum:Temp:Abs-Feuchte:Windchill:Wind:
Aussen-T/F 2426 23-02-2010 14:04:02 10.9 C 7.76 g/m*3 10.9 C 0 km/h
2427 23-02-2010 14:16:02 11 C 7.81 g/m*3 11 C 0 km/h
2428 23-02-2010 14:28:02 10.8 C 7.71 g/m*3 10.8 C 0 km/h
2429 23-02-2010 14:40:03 10.9 C 7.76 g/m*3 10.9 C 0 km/h
2430 23-02-2010 14:52:02 11 C 7.61 g/m*3 11 C 0 km/h
2431 23-02-2010 15:04:01 11 C 7.71 g/m*3 11 C 0 km/h
2432 23-02-2010 15:16:02 11 C 7.71 g/m*3 11 C 0 km/h
2433 23-02-2010 15:28:02 11 C 7.81 g/m*3 11 C 0 km/h
2434 23-02-2010 15:40:02 11.1 C 7.66 g/m*3 11.1 C 0 km/h
2435 23-02-2010 15:52:02 11 C 7.51 g/m*3 11 C 0 km/h
2436 23-02-2010 16:04:03 10.7 C 7.46 g/m*3 10.7 C 0 km/h
2437 23-02-2010 16:16:02 10.5 C 7.47 g/m*3 10.5 C 0 km/h
2438 23-02-2010 16:28:02 10.6 C 7.52 g/m*3 10.6 C 0 km/h
2439 23-02-2010 16:40:02 10.6 C 7.52 g/m*3 10.6 C 0 km/h
2440 23-02-2010 16:52:01 10.4 C 7.32 g/m*3 10.4 C 0 km/h
2441 23-02-2010 17:04:02 10.4 C 7.32 g/m*3 10.4 C 0 km/h
2442 23-02-2010 17:16:01 10.2 C 7.23 g/m*3 10.2 C 0 km/h
2443 23-02-2010 17:28:01 10.1 C 7.09 g/m*3 10.1 C 0 km/h
2444 23-02-2010 17:40:02 10.1 C 7.19 g/m*3 10.1 C 0 km/h
2445 23-02-2010 17:52:01 10 C 7.14 g/m*3 10 C 0 km/h
2446 23-02-2010 18:04:02 9.8 C 7.24 g/m*3 9.8 C 0 km/h
2447 23-02-2010 18:16:01 9.6 C 7.33 g/m*3 9.6 C 0 km/h
2448 23-02-2010 18:28:01 9.6 C 7.33 g/m*3 9.6 C 0 km/h
2449 23-02-2010 18:40:02 9.5 C 7.37 g/m*3 9.5 C 0 km/h
2450 23-02-2010 18:52:01 9.5 C 7.46 g/m*3 9.5 C 0 km/h
Sensor: Nr:Datum:Temp:Abs-Feuchte:Windchill:Wind:
Aussen-T/F 2451 23-02-2010 19:04:02 9.2 C 7.41 g/m*3 9.2 C 0 km/h
2452 23-02-2010 19:16:02 9.1 C 7.45 g/m*3 9.1 C 0 km/h
2453 23-02-2010 19:28:02 9.2 C 7.59 g/m*3 9.2 C 0 km/h
2454 23-02-2010 19:40:02 9.2 C 7.68 g/m*3 9.2 C 0 km/h
2455 23-02-2010 19:52:02 9.2 C 7.68 g/m*3 9.2 C 0 km/h
2456 23-02-2010 20:04:02 9 C 7.67 g/m*3 9 C 0 km/h
2457 23-02-2010 20:16:02 9.1 C 7.81 g/m*3 9.1 C 0 km/h
2458 23-02-2010 20:28:02 9 C 7.76 g/m*3 9 C 0 km/h
2459 23-02-2010 20:40:02 9 C 7.76 g/m*3 9 C 0 km/h
2460 23-02-2010 20:52:01 9.2 C 7.86 g/m*3 9.2 C 0 km/h
2461 23-02-2010 21:04:02 9.3 C 7.91 g/m*3 9.3 C 0 km/h
2462 23-02-2010 21:16:01 9.4 C 7.78 g/m*3 9.4 C 0 km/h
2463 23-02-2010 21:28:01 9.6 C 7.6 g/m*3 9.6 C 0 km/h
2464 23-02-2010 21:40:02 9.6 C 7.33 g/m*3 9.6 C 0 km/h
2465 23-02-2010 21:52:02 9.5 C 7.1 g/m*3 9.5 C 0 km/h
2466 23-02-2010 22:04:02 9.3 C 6.92 g/m*3 9.3 C 0 km/h
2467 23-02-2010 22:16:02 9.3 C 6.92 g/m*3 9.3 C 0 km/h
2468 23-02-2010 22:28:02 9.3 C 6.74 g/m*3 9.3 C 0 km/h
2469 23-02-2010 22:40:02 8.9 C 6.75 g/m*3 8.9 C 0 km/h
2470 23-02-2010 22:52:01 8.7 C 6.75 g/m*3 8.7 C 0 km/h
2471 23-02-2010 23:04:02 8.5 C 6.66 g/m*3 8.5 C 0 km/h
2472 23-02-2010 23:16:02 8.5 C 6.66 g/m*3 8.5 C 0 km/h
2473 23-02-2010 23:28:02 8.2 C 6.62 g/m*3 8.2 C 0 km/h
2474 23-02-2010 23:40:01 8.2 C 6.7 g/m*3 8.2 C 0 km/h
2475 23-02-2010 23:52:02 8.2 C 6.7 g/m*3 8.2 C 0 km/h
Sensor: Nr:Datum:Temp:Abs-Feuchte:Windchill:Wind:
Aussen-T/F 2476 24-02-2010 00:04:01 8.1 C 6.66 g/m*3 8.1 C 0 km/h
2477 24-02-2010 00:16:02 7.9 C 6.74 g/m*3 7.9 C 0 km/h
2478 24-02-2010 00:28:02 7.9 C 6.82 g/m*3 7.9 C 0 km/h
2479 24-02-2010 00:40:01 7.8 C 6.77 g/m*3 7.8 C 0 km/h
2480 24-02-2010 00:52:02 7.5 C 6.64 g/m*3 7.5 C 0 km/h
2481 24-02-2010 01:04:01 7.3 C 6.64 g/m*3 7.3 C 0 km/h
2482 24-02-2010 01:16:02 7.5 C 6.8 g/m*3 7.5 C 0 km/h
2483 24-02-2010 01:28:02 8.1 C 6.99 g/m*3 8.1 C 0 km/h
2484 24-02-2010 01:40:01 8.7 C 6.92 g/m*3 8.7 C 0 km/h
2485 24-02-2010 01:52:02 8.6 C 6.7 g/m*3 8.6 C 0 km/h
2486 24-02-2010 02:04:02 8.3 C 6.57 g/m*3 8.3 C 0 km/h
2487 24-02-2010 02:16:02 8.1 C 6.57 g/m*3 8.1 C 0 km/h
2488 24-02-2010 02:28:02 7.9 C 6.74 g/m*3 7.9 C 0 km/h
2489 24-02-2010 02:40:02 7.9 C 6.82 g/m*3 7.9 C 0 km/h
2490 24-02-2010 02:52:01 7.8 C 6.77 g/m*3 7.8 C 0 km/h
2491 24-02-2010 03:04:01 7.7 C 6.73 g/m*3 7.7 C 0 km/h
2492 24-02-2010 03:16:01 7.9 C 6.9 g/m*3 7.9 C 0 km/h
2493 24-02-2010 03:28:01 8 C 6.86 g/m*3 8 C 0 km/h
2494 24-02-2010 03:40:02 8 C 6.78 g/m*3 8 C 0 km/h
2495 24-02-2010 03:52:02 8 C 6.78 g/m*3 8 C 0 km/h
2496 24-02-2010 04:04:01 8 C 6.78 g/m*3 8 C 0 km/h
2497 24-02-2010 04:16:02 8 C 6.86 g/m*3 8 C 0 km/h
2498 24-02-2010 04:28:02 8 C 6.86 g/m*3 8 C 0 km/h
2499 24-02-2010 04:40:01 8 C 6.86 g/m*3 8 C 0 km/h
2500 24-02-2010 04:52:02 8.1 C 6.91 g/m*3 8.1 C 0 km/h
Sensor: Nr:Datum:Temp:Abs-Feuchte:Windchill:Wind:
Aussen-T/F 2501 24-02-2010 05:04:01 8.3 C 7 g/m*3 8.3 C 0 km/h
2502 24-02-2010 05:16:01 8.4 C 6.96 g/m*3 8.4 C 0 km/h
2503 24-02-2010 05:28:01 8.2 C 6.78 g/m*3 8.2 C 0 km/h
2504 24-02-2010 05:40:01 8.3 C 6.83 g/m*3 8.3 C 0 km/h
2505 24-02-2010 05:52:02 8.4 C 6.79 g/m*3 8.4 C 0 km/h
2506 24-02-2010 06:04:01 8.2 C 6.62 g/m*3 8.2 C 0 km/h
2507 24-02-2010 06:16:01 7.9 C 6.65 g/m*3 7.9 C 0 km/h
2508 24-02-2010 06:28:01 7.8 C 6.61 g/m*3 7.8 C 0 km/h
2509 24-02-2010 06:40:02 7.6 C 6.53 g/m*3 7.6 C 0 km/h
2510 24-02-2010 06:52:01 7.3 C 6.4 g/m*3 7.3 C 0 km/h
2511 24-02-2010 07:04:01 7.3 C 6.56 g/m*3 7.3 C 0 km/h
2512 24-02-2010 07:16:01 7.4 C 6.6 g/m*3 7.4 C 0 km/h
2513 24-02-2010 07:28:01 7.5 C 6.64 g/m*3 7.5 C 0 km/h
2514 24-02-2010 07:40:02 7.5 C 6.56 g/m*3 7.5 C 0 km/h
2515 24-02-2010 07:52:01 7.4 C 6.6 g/m*3 7.4 C 0 km/h
2516 24-02-2010 08:04:02 7.5 C 6.64 g/m*3 7.5 C 0 km/h
2517 24-02-2010 08:16:01 7.5 C 6.56 g/m*3 7.5 C 0 km/h
2518 24-02-2010 08:28:01 7.9 C 6.82 g/m*3 7.9 C 0 km/h
2519 24-02-2010 08:40:02 8.1 C 6.74 g/m*3 8.1 C 0 km/h
2520 24-02-2010 08:52:01 8.5 C 6.92 g/m*3 8.5 C 0 km/h
2521 24-02-2010 09:04:02 8.6 C 6.79 g/m*3 8.6 C 0 km/h
2522 24-02-2010 09:16:01 8.9 C 6.83 g/m*3 8.9 C 0 km/h
2523 24-02-2010 09:28:01 9.1 C 6.65 g/m*3 9.1 C 0 km/h
2524 24-02-2010 09:40:01 9.2 C 6.52 g/m*3 9.2 C 0 km/h
2525 24-02-2010 09:52:01 9.4 C 6.51 g/m*3 9.4 C 0 km/h
Sensor: Nr:Datum:Temp:Abs-Feuchte:Windchill:Wind:
Aussen-T/F 2526 24-02-2010 10:04:02 9.7 C 6.55 g/m*3 9.7 C 0 km/h
2527 24-02-2010 10:16:01 10 C 6.39 g/m*3 10 C 0 km/h
2528 24-02-2010 10:28:01 10.2 C 6.28 g/m*3 10.2 C 0 km/h
2529 24-02-2010 10:40:01 10.4 C 6.26 g/m*3 10.4 C 0 km/h
2530 24-02-2010 10:52:01 10.9 C 6.17 g/m*3 10.9 C 0 km/h
2531 24-02-2010 11:04:01 10.9 C 5.97 g/m*3 10.9 C 0 km/h
2532 24-02-2010 11:16:02 11.1 C 5.74 g/m*3 11.1 C 0 km/h
2533 24-02-2010 11:28:02 11.2 C 5.68 g/m*3 11.2 C 0 km/h
2534 24-02-2010 11:40:01 11.2 C 5.57 g/m*3 11.2 C 0 km/h
2535 24-02-2010 11:52:01 11.3 C 5.61 g/m*3 11.3 C 0 km/h
2536 24-02-2010 12:04:01 11.1 C 5.64 g/m*3 11.1 C 0 km/h
2537 24-02-2010 12:16:02 11.2 C 5.57 g/m*3 11.2 C 0 km/h
2538 24-02-2010 12:28:02 11.6 C 5.72 g/m*3 11.6 C 0 km/h
2539 24-02-2010 12:40:01 11.8 C 5.58 g/m*3 11.8 C 0 km/h
2540 24-02-2010 12:52:02 12 C 5.54 g/m*3 12 C 0 km/h
2541 24-02-2010 13:04:01 12 C 5.54 g/m*3 12 C 0 km/h
2542 24-02-2010 13:16:02 11.8 C 5.58 g/m*3 11.8 C 0 km/h
2543 24-02-2010 13:28:02 12 C 5.44 g/m*3 12 C 0 km/h
2544 24-02-2010 13:40:01 12.2 C 5.61 g/m*3 12.2 C 0 km/h
2545 24-02-2010 13:52:02 12.4 C 5.35 g/m*3 12.4 C 0 km/h
2546 24-02-2010 14:04:01 12.3 C 5.32 g/m*3 12.3 C 0 km/h
2547 24-02-2010 14:16:01 12.6 C 5.53 g/m*3 12.6 C 0 km/h
2548 24-02-2010 14:28:01 12.7 C 5.45 g/m*3 12.7 C 0 km/h
2549 24-02-2010 14:40:01 12.8 C 5.38 g/m*3 12.8 C 0 km/h
2550 24-02-2010 14:52:02 13.1 C 5.36 g/m*3 13.1 C 0 km/h
Sensor: Nr:Datum:Temp:Abs-Feuchte:Windchill:Wind:
Aussen-T/F 2551 24-02-2010 15:04:01 13.2 C 5.4 g/m*3 13.2 C 0 km/h
2552 24-02-2010 15:16:01 13.1 C 5.36 g/m*3 13.1 C 0 km/h
2553 24-02-2010 15:28:01 13.2 C 5.4 g/m*3 13.2 C 0 km/h
2554 24-02-2010 15:40:02 13.7 C 5.45 g/m*3 13.7 C 0 km/h
2555 24-02-2010 15:52:01 14.1 C 5.46 g/m*3 14.1 C 0 km/h
2556 24-02-2010 16:04:01 15.2 C 5.58 g/m*3 15.2 C 0 km/h
2557 24-02-2010 16:16:01 14.4 C 5.19 g/m*3 14.4 C 0 km/h
2558 24-02-2010 16:28:01 14 C 5.43 g/m*3 14 C 0 km/h
2559 24-02-2010 16:40:02 14.4 C 5.32 g/m*3 14.4 C 0 km/h
2560 24-02-2010 16:52:01 14.2 C 5.13 g/m*3 14.2 C 0 km/h
2561 24-02-2010 17:04:02 13.6 C 5.3 g/m*3 13.6 C 0 km/h
2562 24-02-2010 17:16:01 12.8 C 5.38 g/m*3 12.8 C 0 km/h
2563 24-02-2010 17:28:01 11.8 C 5.68 g/m*3 11.8 C 0 km/h
2564 24-02-2010 17:40:02 11.2 C 5.68 g/m*3 11.2 C 0 km/h
2565 24-02-2010 17:52:01 10.7 C 5.8 g/m*3 10.7 C 0 km/h
2566 24-02-2010 18:04:02 10.2 C 5.8 g/m*3 10.2 C 0 km/h
2567 24-02-2010 18:16:01 9.8 C 5.85 g/m*3 9.8 C 0 km/h
2568 24-02-2010 18:28:02 9.7 C 5.9 g/m*3 9.7 C 0 km/h
2569 24-02-2010 18:40:01 9.6 C 5.95 g/m*3 9.6 C 0 km/h
2570 24-02-2010 18:52:01 9.6 C 6.05 g/m*3 9.6 C 0 km/h
2571 24-02-2010 19:04:01 9.7 C 6.18 g/m*3 9.7 C 0 km/h
2572 24-02-2010 19:16:01 9.5 C 6.55 g/m*3 9.5 C 0 km/h
2573 24-02-2010 19:28:01 8.8 C 6.7 g/m*3 8.8 C 0 km/h
2574 24-02-2010 19:40:01 8.5 C 6.92 g/m*3 8.5 C 0 km/h
2575 24-02-2010 19:52:01 8.5 C 7.09 g/m*3 8.5 C 0 km/h
Sensor: Nr:Datum:Temp:Abs-Feuchte:Windchill:Wind:
Aussen-T/F 2576 24-02-2010 20:04:01 8.4 C 7.13 g/m*3 8.4 C 0 km/h
2577 24-02-2010 20:16:02 8.3 C 7.16 g/m*3 8.3 C 0 km/h
2578 24-02-2010 20:28:02 8.4 C 7.3 g/m*3 8.4 C 0 km/h
2579 24-02-2010 20:40:01 8.3 C 7.33 g/m*3 8.3 C 0 km/h
2580 24-02-2010 20:52:01 8.5 C 7.43 g/m*3 8.5 C 0 km/h
2581 24-02-2010 21:04:01 8.5 C 7.51 g/m*3 8.5 C 0 km/h
2582 24-02-2010 21:16:02 8.4 C 7.38 g/m*3 8.4 C 0 km/h
2583 24-02-2010 21:28:02 7.9 C 7.23 g/m*3 7.9 C 0 km/h
2584 24-02-2010 21:40:01 7.8 C 7.18 g/m*3 7.8 C 0 km/h
2585 24-02-2010 21:52:02 7.6 C 7.09 g/m*3 7.6 C 0 km/h
2586 24-02-2010 22:04:01 7.5 C 6.96 g/m*3 7.5 C 0 km/h
2587 24-02-2010 22:16:02 7.6 C 7.01 g/m*3 7.6 C 0 km/h
2588 24-02-2010 22:28:02 7.7 C 7.05 g/m*3 7.7 C 0 km/h
2589 24-02-2010 22:40:01 8 C 7.03 g/m*3 8 C 0 km/h
2590 24-02-2010 22:52:02 8.1 C 6.82 g/m*3 8.1 C 0 km/h
2591 24-02-2010 23:04:01 8.2 C 6.7 g/m*3 8.2 C 0 km/h
2592 24-02-2010 23:16:01 8.3 C 6.74 g/m*3 8.3 C 0 km/h
2593 24-02-2010 23:28:01 8.4 C 6.62 g/m*3 8.4 C 0 km/h
2594 24-02-2010 23:40:01 8.4 C 6.53 g/m*3 8.4 C 0 km/h
2595 24-02-2010 23:52:02 8.4 C 6.45 g/m*3 8.4 C 0 km/h
2596 25-02-2010 00:04:01 8.7 C 6.49 g/m*3 8.7 C 0 km/h
2597 25-02-2010 00:16:02 8.7 C 6.4 g/m*3 8.7 C 0 km/h
2598 25-02-2010 00:28:02 8.6 C 6.36 g/m*3 8.6 C 0 km/h
2599 25-02-2010 00:40:01 8.4 C 6.28 g/m*3 8.4 C 0 km/h
2600 25-02-2010 00:52:02 8.1 C 6.24 g/m*3 8.1 C 0 km/h
Sensor: Nr:Datum:Temp:Abs-Feuchte:Windchill:Wind:
Aussen-T/F 2601 25-02-2010 01:04:01 8.1 C 6.41 g/m*3 8.1 C 0 km/h
2602 25-02-2010 01:16:01 8.4 C 6.36 g/m*3 8.4 C 0 km/h
2603 25-02-2010 01:28:01 8.5 C 6.23 g/m*3 8.5 C 0 km/h
2604 25-02-2010 01:40:02 8.6 C 6.19 g/m*3 8.6 C 0 km/h
2605 25-02-2010 01:52:01 8.6 C 6.19 g/m*3 8.6 C 0 km/h
2606 25-02-2010 02:04:01 8.4 C 6.11 g/m*3 8.4 C 0 km/h
2607 25-02-2010 02:16:01 8 C 6.12 g/m*3 8 C 0 km/h
2608 25-02-2010 02:28:01 7.9 C 6.32 g/m*3 7.9 C 0 km/h
2609 25-02-2010 02:40:02 7.9 C 6.41 g/m*3 7.9 C 0 km/h
2610 25-02-2010 02:52:01 7.8 C 6.28 g/m*3 7.8 C 0 km/h
2611 25-02-2010 03:04:01 7.7 C 6.32 g/m*3 7.7 C 0 km/h
2612 25-02-2010 03:16:02 7.5 C 6.48 g/m*3 7.5 C 0 km/h
2613 25-02-2010 03:28:02 7.4 C 6.6 g/m*3 7.4 C 0 km/h
2614 25-02-2010 03:40:02 7.3 C 6.56 g/m*3 7.3 C 0 km/h
2615 25-02-2010 03:52:02 7.3 C 6.56 g/m*3 7.3 C 0 km/h
2616 25-02-2010 04:04:01 7.2 C 6.52 g/m*3 7.2 C 0 km/h
2617 25-02-2010 04:16:01 7.2 C 6.52 g/m*3 7.2 C 0 km/h
2618 25-02-2010 04:28:01 7.2 C 6.52 g/m*3 7.2 C 0 km/h
2619 25-02-2010 04:40:02 7.1 C 6.47 g/m*3 7.1 C 0 km/h
2620 25-02-2010 04:52:01 7.1 C 6.55 g/m*3 7.1 C 0 km/h
2621 25-02-2010 05:04:02 7.3 C 6.56 g/m*3 7.3 C 0 km/h
2622 25-02-2010 05:16:01 7.2 C 6.52 g/m*3 7.2 C 0 km/h
2623 25-02-2010 05:28:01 7.4 C 6.6 g/m*3 7.4 C 0 km/h
2624 25-02-2010 05:40:02 7.6 C 6.53 g/m*3 7.6 C 0 km/h
2625 25-02-2010 05:52:01 7.9 C 6.32 g/m*3 7.9 C 0 km/h
Sensor: Nr:Datum:Temp:Abs-Feuchte:Windchill:Wind:
Aussen-T/F 2626 25-02-2010 06:04:02 8.1 C 6.07 g/m*3 8.1 C 0 km/h
2627 25-02-2010 06:16:01 8.3 C 5.98 g/m*3 8.3 C 0 km/h
2628 25-02-2010 06:28:01 8.5 C 5.89 g/m*3 8.5 C 0 km/h
2629 25-02-2010 06:40:02 8.6 C 5.84 g/m*3 8.6 C 0 km/h
2630 25-02-2010 06:52:02 8.7 C 5.79 g/m*3 8.7 C 0 km/h
2631 25-02-2010 07:04:01 8.7 C 5.79 g/m*3 8.7 C 0 km/h
2632 25-02-2010 07:16:01 8.8 C 5.74 g/m*3 8.8 C 0 km/h
2633 25-02-2010 07:28:01 8.8 C 5.83 g/m*3 8.8 C 0 km/h
2634 25-02-2010 07:40:01 8.7 C 5.88 g/m*3 8.7 C 0 km/h
2635 25-02-2010 07:52:02 8.6 C 5.93 g/m*3 8.6 C 0 km/h
2636 25-02-2010 08:04:01 8.4 C 6.02 g/m*3 8.4 C 0 km/h
2637 25-02-2010 08:16:01 8.6 C 5.93 g/m*3 8.6 C 0 km/h
2638 25-02-2010 08:28:01 8.9 C 5.78 g/m*3 8.9 C 0 km/h
2639 25-02-2010 08:40:02 9 C 5.64 g/m*3 9 C 0 km/h
2640 25-02-2010 08:52:01 9.1 C 5.68 g/m*3 9.1 C 0 km/h
2641 25-02-2010 09:04:02 9.3 C 5.66 g/m*3 9.3 C 0 km/h
2642 25-02-2010 09:16:01 9.5 C 5.64 g/m*3 9.5 C 0 km/h
2643 25-02-2010 09:28:01 9.6 C 5.5 g/m*3 9.6 C 0 km/h
2644 25-02-2010 09:40:02 9.6 C 5.59 g/m*3 9.6 C 0 km/h
2645 25-02-2010 09:52:01 9.9 C 5.6 g/m*3 9.9 C 0 km/h
2646 25-02-2010 10:04:02 9.9 C 5.51 g/m*3 9.9 C 0 km/h
2647 25-02-2010 10:16:01 9.9 C 5.6 g/m*3 9.9 C 0 km/h
2648 25-02-2010 10:28:01 10.2 C 5.42 g/m*3 10.2 C 0 km/h
2649 25-02-2010 10:40:02 10.6 C 5.37 g/m*3 10.6 C 0 km/h
2650 25-02-2010 10:52:01 10.7 C 5.21 g/m*3 10.7 C 0 km/h
Sensor: Nr:Datum:Temp:Abs-Feuchte:Windchill:Wind:
Aussen-T/F 2651 25-02-2010 11:04:01 10.6 C 5.17 g/m*3 10.6 C 0 km/h
2652 25-02-2010 11:16:01 11.2 C 5.17 g/m*3 11.2 C 0 km/h
2653 25-02-2010 11:28:01 10.9 C 5.17 g/m*3 10.9 C 0 km/h
2654 25-02-2010 11:40:02 11.2 C 5.07 g/m*3 11.2 C 0 km/h
2655 25-02-2010 11:52:01 11.3 C 5.1 g/m*3 11.3 C 0 km/h
2656 25-02-2010 12:04:02 11.4 C 4.82 g/m*3 11.4 C 0 km/h
2657 25-02-2010 12:16:01 11.4 C 4.82 g/m*3 11.4 C 0 km/h
2658 25-02-2010 12:28:01 11.4 C 4.82 g/m*3 11.4 C 0 km/h
2659 25-02-2010 12:40:02 11.1 C 4.73 g/m*3 11.1 C 0 km/h
2660 25-02-2010 12:52:01 11.4 C 4.82 g/m*3 11.4 C 0 km/h
2661 25-02-2010 13:04:02 11.7 C 4.81 g/m*3 11.7 C 0 km/h
2662 25-02-2010 13:16:01 12.9 C 4.85 g/m*3 12.9 C 0 km/h
2663 25-02-2010 13:28:01 13 C 4.54 g/m*3 13 C 0 km/h
2664 25-02-2010 13:40:02 12.7 C 4.68 g/m*3 12.7 C 0 km/h
2665 25-02-2010 13:52:01 11.9 C 4.77 g/m*3 11.9 C 0 km/h
2666 25-02-2010 14:04:02 12.2 C 4.96 g/m*3 12.2 C 0 km/h
2667 25-02-2010 14:16:01 13 C 4.88 g/m*3 13 C 0 km/h
2668 25-02-2010 14:28:01 12.8 C 4.82 g/m*3 12.8 C 0 km/h
2669 25-02-2010 14:40:01 12.4 C 4.7 g/m*3 12.4 C 0 km/h
2670 25-02-2010 14:52:01 12.6 C 4.87 g/m*3 12.6 C 0 km/h
2671 25-02-2010 15:04:02 12.7 C 4.68 g/m*3 12.7 C 0 km/h
2672 25-02-2010 15:16:01 12.8 C 4.59 g/m*3 12.8 C 0 km/h
2673 25-02-2010 15:28:01 12.5 C 4.4 g/m*3 12.5 C 0 km/h
2674 25-02-2010 15:40:01 12.5 C 4.4 g/m*3 12.5 C 0 km/h
2675 25-02-2010 15:52:01 12.3 C 4.34 g/m*3 12.3 C 0 km/h
Sensor: Nr:Datum:Temp:Abs-Feuchte:Windchill:Wind:
Aussen-T/F 2676 25-02-2010 16:04:01 12.2 C 4.32 g/m*3 12.2 C 0 km/h
2677 25-02-2010 16:16:02 12 C 4.26 g/m*3 12 C 0 km/h
2678 25-02-2010 16:28:02 11.8 C 4.53 g/m*3 11.8 C 0 km/h
2679 25-02-2010 16:40:01 11.6 C 4.68 g/m*3 11.6 C 0 km/h
2680 25-02-2010 16:52:01 11.5 C 4.75 g/m*3 11.5 C 0 km/h
2681 25-02-2010 17:04:01 11.2 C 5.07 g/m*3 11.2 C 0 km/h
2682 25-02-2010 17:16:01 11.2 C 4.97 g/m*3 11.2 C 0 km/h
2683 25-02-2010 17:28:01 11 C 4.8 g/m*3 11 C 0 km/h
2684 25-02-2010 17:40:01 11 C 4.8 g/m*3 11 C 0 km/h
2685 25-02-2010 17:52:01 10.9 C 4.87 g/m*3 10.9 C 0 km/h
2686 25-02-2010 18:04:02 10.5 C 5.14 g/m*3 10.5 C 0 km/h
2687 25-02-2010 18:16:01 9.7 C 5.35 g/m*3 9.7 C 0 km/h
2688 25-02-2010 18:28:01 9.3 C 5.93 g/m*3 9.3 C 0 km/h
2689 25-02-2010 18:40:02 8.9 C 6.22 g/m*3 8.9 C 0 km/h
2690 25-02-2010 18:52:02 8.8 C 6.53 g/m*3 8.8 C 0 km/h
2691 25-02-2010 19:04:01 8.5 C 6.57 g/m*3 8.5 C 0 km/h
2692 25-02-2010 19:16:01 8.6 C 6.79 g/m*3 8.6 C 0 km/h
2693 25-02-2010 19:28:01 8.5 C 6.83 g/m*3 8.5 C 0 km/h
2694 25-02-2010 19:40:02 8.4 C 6.87 g/m*3 8.4 C 0 km/h
2695 25-02-2010 19:52:01 8.5 C 6.83 g/m*3 8.5 C 0 km/h
2696 25-02-2010 20:04:02 8.6 C 6.79 g/m*3 8.6 C 0 km/h
2697 25-02-2010 20:16:01 8.6 C 6.7 g/m*3 8.6 C 0 km/h
2698 25-02-2010 20:28:01 8.6 C 6.7 g/m*3 8.6 C 0 km/h
2699 25-02-2010 20:40:02 8.7 C 6.66 g/m*3 8.7 C 0 km/h
2700 25-02-2010 20:52:01 8.8 C 6.61 g/m*3 8.8 C 0 km/h
Sensor: Nr:Datum:Temp:Abs-Feuchte:Windchill:Wind:
Aussen-T/F 2701 25-02-2010 21:04:02 8.9 C 6.66 g/m*3 8.9 C 0 km/h
2702 25-02-2010 21:16:01 9 C 6.52 g/m*3 9 C 0 km/h
2703 25-02-2010 21:28:01 9.2 C 6.61 g/m*3 9.2 C 0 km/h
2704 25-02-2010 21:40:02 9.2 C 6.52 g/m*3 9.2 C 0 km/h
2705 25-02-2010 21:52:01 9.2 C 6.52 g/m*3 9.2 C 0 km/h
2706 25-02-2010 22:04:01 9.1 C 6.57 g/m*3 9.1 C 0 km/h
2707 25-02-2010 22:16:01 9.1 C 6.65 g/m*3 9.1 C 0 km/h
2708 25-02-2010 22:28:01 9.2 C 6.61 g/m*3 9.2 C 0 km/h
2709 25-02-2010 22:40:01 9.3 C 6.65 g/m*3 9.3 C 0 km/h
2710 25-02-2010 22:52:02 9.2 C 6.61 g/m*3 9.2 C 0 km/h
2711 25-02-2010 23:04:01 9.2 C 6.7 g/m*3 9.2 C 0 km/h
2712 25-02-2010 23:16:01 9.5 C 6.83 g/m*3 9.5 C 0 km/h
2713 25-02-2010 23:28:01 9.4 C 6.78 g/m*3 9.4 C 0 km/h
2714 25-02-2010 23:40:02 9.3 C 6.74 g/m*3 9.3 C 0 km/h
2715 25-02-2010 23:52:01 9.4 C 6.78 g/m*3 9.4 C 0 km/h
2716 26-02-2010 00:04:02 9.3 C 6.83 g/m*3 9.3 C 0 km/h
2717 26-02-2010 00:16:01 9.4 C 6.87 g/m*3 9.4 C 0 km/h
2718 26-02-2010 00:28:01 9.4 C 6.87 g/m*3 9.4 C 0 km/h
2719 26-02-2010 00:40:02 9.3 C 6.83 g/m*3 9.3 C 0 km/h
2720 26-02-2010 00:52:01 9.3 C 6.92 g/m*3 9.3 C 0 km/h
2721 26-02-2010 01:04:02 9.4 C 6.96 g/m*3 9.4 C 0 km/h
2722 26-02-2010 01:16:01 9.5 C 7.01 g/m*3 9.5 C 0 km/h
2723 26-02-2010 01:28:01 9.4 C 6.96 g/m*3 9.4 C 0 km/h
2724 26-02-2010 01:40:01 9.6 C 7.05 g/m*3 9.6 C 0 km/h
2725 26-02-2010 01:52:01 9.6 C 6.96 g/m*3 9.6 C 0 km/h
Sensor: Nr:Datum:Temp:Abs-Feuchte:Windchill:Wind:
Aussen-T/F 2726 26-02-2010 02:04:01 9.8 C 7.05 g/m*3 9.8 C 0 km/h
2727 26-02-2010 02:16:01 9.8 C 7.05 g/m*3 9.8 C 0 km/h
2728 26-02-2010 02:28:01 9.7 C 7.01 g/m*3 9.7 C 0 km/h
2729 26-02-2010 02:40:01 9.8 C 7.05 g/m*3 9.8 C 0 km/h
2730 26-02-2010 02:53:06 9.8 C 7.05 g/m*3 9.8 C 0 km/h
2731 26-02-2010 03:05:06 9.8 C 7.05 g/m*3 9.8 C 0 km/h
2732 26-02-2010 03:17:06 10 C 6.95 g/m*3 10 C 0 km/h
2733 26-02-2010 03:29:06 9.9 C 7 g/m*3 9.9 C 0 km/h
2734 26-02-2010 03:41:02 9.9 C 6.91 g/m*3 9.9 C 0 km/h
2735 26-02-2010 03:53:02 9.7 C 6.82 g/m*3 9.7 C 0 km/h
2736 26-02-2010 04:05:03 9.5 C 6.83 g/m*3 9.5 C 0 km/h
2737 26-02-2010 04:17:02 9.5 C 6.83 g/m*3 9.5 C 0 km/h
2738 26-02-2010 04:29:02 9.5 C 6.83 g/m*3 9.5 C 0 km/h
2739 26-02-2010 04:41:02 9.7 C 6.73 g/m*3 9.7 C 0 km/h
2740 26-02-2010 04:53:01 9.5 C 6.64 g/m*3 9.5 C 0 km/h
2741 26-02-2010 05:05:02 9.4 C 6.51 g/m*3 9.4 C 0 km/h
2742 26-02-2010 05:17:01 9.4 C 6.42 g/m*3 9.4 C 0 km/h
2743 26-02-2010 05:29:01 9.6 C 6.32 g/m*3 9.6 C 0 km/h
2744 26-02-2010 05:41:02 9.2 C 6.34 g/m*3 9.2 C 0 km/h
2745 26-02-2010 05:53:01 9.1 C 6.3 g/m*3 9.1 C 0 km/h
2746 26-02-2010 06:05:02 8.8 C 6.27 g/m*3 8.8 C 0 km/h
2747 26-02-2010 06:17:01 9 C 6.26 g/m*3 9 C 0 km/h
2748 26-02-2010 06:29:01 9.1 C 6.21 g/m*3 9.1 C 0 km/h
2749 26-02-2010 06:41:02 9.2 C 6.07 g/m*3 9.2 C 0 km/h
2750 26-02-2010 06:53:01 9.4 C 6.15 g/m*3 9.4 C 0 km/h
Sensor: Nr:Datum:Temp:Abs-Feuchte:Windchill:Wind:
Aussen-T/F 2751 26-02-2010 07:05:02 9.1 C 6.03 g/m*3 9.1 C 0 km/h
2752 26-02-2010 07:17:02 8.9 C 6.31 g/m*3 8.9 C 0 km/h
2753 26-02-2010 07:29:02 9 C 6.26 g/m*3 9 C 0 km/h
2754 26-02-2010 07:41:02 9.2 C 6.07 g/m*3 9.2 C 0 km/h
2755 26-02-2010 07:53:02 9.5 C 5.92 g/m*3 9.5 C 0 km/h
2756 26-02-2010 08:05:02 9.6 C 5.77 g/m*3 9.6 C 0 km/h
2757 26-02-2010 08:17:02 9.6 C 5.68 g/m*3 9.6 C 0 km/h
2758 26-02-2010 08:29:02 9.8 C 5.57 g/m*3 9.8 C 0 km/h
2759 26-02-2010 08:41:02 9.7 C 5.72 g/m*3 9.7 C 0 km/h
2760 26-02-2010 08:53:02 9.8 C 5.66 g/m*3 9.8 C 0 km/h
2761 26-02-2010 09:05:02 10.2 C 5.52 g/m*3 10.2 C 0 km/h
2762 26-02-2010 09:17:02 10.2 C 5.42 g/m*3 10.2 C 0 km/h
2763 26-02-2010 09:29:02 10.1 C 5.58 g/m*3 10.1 C 0 km/h
2764 26-02-2010 09:41:02 10.1 C 5.39 g/m*3 10.1 C 0 km/h
2765 26-02-2010 09:53:02 10.5 C 5.33 g/m*3 10.5 C 0 km/h
2766 26-02-2010 10:05:02 9.8 C 5.66 g/m*3 9.8 C 0 km/h
2767 26-02-2010 10:17:02 9.5 C 5.92 g/m*3 9.5 C 0 km/h
2768 26-02-2010 10:29:02 9.9 C 5.88 g/m*3 9.9 C 0 km/h
2769 26-02-2010 10:41:02 10.1 C 5.48 g/m*3 10.1 C 0 km/h
2770 26-02-2010 10:53:02 10.3 C 5.36 g/m*3 10.3 C 0 km/h
2771 26-02-2010 11:05:02 10.6 C 5.47 g/m*3 10.6 C 0 km/h
2772 26-02-2010 11:17:03 10.8 C 5.34 g/m*3 10.8 C 0 km/h
2773 26-02-2010 11:29:03 11 C 5.2 g/m*3 11 C 0 km/h
2774 26-02-2010 11:41:02 11.2 C 5.17 g/m*3 11.2 C 0 km/h
2775 26-02-2010 11:53:02 10.2 C 5.52 g/m*3 10.2 C 0 km/h
Sensor: Nr:Datum:Temp:Abs-Feuchte:Windchill:Wind:
Aussen-T/F 2776 26-02-2010 12:05:02 9.7 C 5.72 g/m*3 9.7 C 0 km/h
2777 26-02-2010 12:17:02 10 C 5.64 g/m*3 10 C 0 km/h
2778 26-02-2010 12:29:02 10.8 C 5.73 g/m*3 10.8 C 0 km/h
2779 26-02-2010 12:41:02 10.8 C 5.44 g/m*3 10.8 C 0 km/h
2780 26-02-2010 12:53:02 10.3 C 5.84 g/m*3 10.3 C 0 km/h
2781 26-02-2010 13:05:02 10.4 C 5.78 g/m*3 10.4 C 0 km/h
2782 26-02-2010 13:17:03 10.7 C 5.6 g/m*3 10.7 C 0 km/h
2783 26-02-2010 13:29:03 11.4 C 5.44 g/m*3 11.4 C 0 km/h
2784 26-02-2010 13:41:02 11.1 C 5.24 g/m*3 11.1 C 0 km/h
2785 26-02-2010 13:53:01 10.9 C 5.07 g/m*3 10.9 C 0 km/h
2786 26-02-2010 14:05:01 11.1 C 5.34 g/m*3 11.1 C 0 km/h
2787 26-02-2010 14:17:02 10.8 C 5.14 g/m*3 10.8 C 0 km/h
2788 26-02-2010 14:29:02 10.6 C 5.17 g/m*3 10.6 C 0 km/h
2789 26-02-2010 14:41:02 10.1 C 5.01 g/m*3 10.1 C 0 km/h
2790 26-02-2010 14:53:03 9.4 C 5.25 g/m*3 9.4 C 0 km/h
2791 26-02-2010 15:05:03 9.2 C 5.36 g/m*3 9.2 C 0 km/h
2792 26-02-2010 15:17:02 8.9 C 5.26 g/m*3 8.9 C 0 km/h
2793 26-02-2010 15:29:03 8.7 C 5.28 g/m*3 8.7 C 0 km/h
2794 26-02-2010 15:41:02 8.4 C 5.34 g/m*3 8.4 C 0 km/h
2795 26-02-2010 15:53:02 8.3 C 4.89 g/m*3 8.3 C 0 km/h
2796 26-02-2010 16:05:02 8.2 C 4.69 g/m*3 8.2 C 0 km/h
2797 26-02-2010 16:17:02 8 C 4.3 g/m*3 8 C 0 km/h
2798 26-02-2010 16:29:02 7.9 C 4.19 g/m*3 7.9 C 0 km/h
2799 26-02-2010 16:41:04 7.9 C 4.02 g/m*3 7.9 C 0 km/h
2800 26-02-2010 16:53:02 7.9 C 4.11 g/m*3 7.9 C 0 km/h
Sensor: Nr:Datum:Temp:Abs-Feuchte:Windchill:Wind:
Aussen-T/F 2801 26-02-2010 17:05:01 8.1 C 4.08 g/m*3 8.1 C 0 km/h
2802 26-02-2010 17:17:02 8 C 4.05 g/m*3 8 C 0 km/h
2803 26-02-2010 17:29:02 7.9 C 4.11 g/m*3 7.9 C 0 km/h
2804 26-02-2010 17:41:02 7.8 C 4.16 g/m*3 7.8 C 0 km/h
2805 26-02-2010 17:53:02 7.7 C 4.22 g/m*3 7.7 C 0 km/h
2806 26-02-2010 18:05:02 7.6 C 4.27 g/m*3 7.6 C 0 km/h
2807 26-02-2010 18:17:01 7.3 C 4.42 g/m*3 7.3 C 0 km/h
2808 26-02-2010 18:29:01 6.6 C 4.76 g/m*3 6.6 C 0 km/h
2809 26-02-2010 18:41:02 6.3 C 4.44 g/m*3 6.3 C 0 km/h
2810 26-02-2010 18:53:02 6.3 C 4.22 g/m*3 6.3 C 0 km/h
2811 26-02-2010 19:05:02 6.5 C 4.2 g/m*3 6.5 C 0 km/h
2812 26-02-2010 19:17:02 6.3 C 4.29 g/m*3 6.3 C 0 km/h
2813 26-02-2010 19:29:02 5.8 C 4.3 g/m*3 5.8 C 0 km/h
2814 26-02-2010 19:41:04 5.8 C 4.01 g/m*3 5.8 C 0 km/h
2815 26-02-2010 19:53:04 5.8 C 3.94 g/m*3 5.8 C 0 km/h
2816 26-02-2010 20:05:02 5.9 C 4.04 g/m*3 5.9 C 0 km/h
2817 26-02-2010 20:17:02 6 C 4.14 g/m*3 6 C 0 km/h
2818 26-02-2010 20:29:02 5.9 C 4.18 g/m*3 5.9 C 0 km/h
2819 26-02-2010 20:41:03 6 C 3.92 g/m*3 6 C 0 km/h
2820 26-02-2010 20:53:02 5.9 C 3.89 g/m*3 5.9 C 0 km/h
2821 26-02-2010 21:05:02 5.8 C 3.94 g/m*3 5.8 C 0 km/h
2822 26-02-2010 21:17:03 5.6 C 4.03 g/m*3 5.6 C 0 km/h
2823 26-02-2010 21:29:03 5.5 C 4 g/m*3 5.5 C 0 km/h
2824 26-02-2010 21:41:02 5.6 C 3.89 g/m*3 5.6 C 0 km/h
2825 26-02-2010 21:53:03 5.7 C 3.91 g/m*3 5.7 C 0 km/h
Sensor: Nr:Datum:Temp:Abs-Feuchte:Windchill:Wind:
Aussen-T/F 2826 26-02-2010 22:05:02 5.5 C 3.86 g/m*3 5.5 C 0 km/h
2827 26-02-2010 22:17:03 5.4 C 3.84 g/m*3 5.4 C 0 km/h
2828 26-02-2010 22:29:03 5.3 C 3.81 g/m*3 5.3 C 0 km/h
2829 26-02-2010 22:42:04 5.2 C 3.65 g/m*3 5.2 C 0 km/h
2830 26-02-2010 22:54:04 5.1 C 3.69 g/m*3 5.1 C 0 km/h
2831 26-02-2010 23:06:04 5.1 C 3.63 g/m*3 5.1 C 0 km/h
2832 26-02-2010 23:18:04 5.1 C 3.63 g/m*3 5.1 C 0 km/h
2833 26-02-2010 23:30:04 4.9 C 3.71 g/m*3 4.9 C 0 km/h
2834 26-02-2010 23:42:04 4.7 C 3.66 g/m*3 4.7 C 0 km/h
2835 26-02-2010 23:54:05 4.7 C 3.6 g/m*3 4.7 C 0 km/h
2836 27-02-2010 00:06:05 4.5 C 3.62 g/m*3 4.5 C 0 km/h
2837 27-02-2010 00:18:05 4.4 C 3.59 g/m*3 4.4 C 0 km/h
2838 27-02-2010 00:30:05 4.4 C 3.59 g/m*3 4.4 C 0 km/h
2839 27-02-2010 00:42:05 4.3 C 3.57 g/m*3 4.3 C 0 km/h
2840 27-02-2010 00:54:05 4.1 C 3.58 g/m*3 4.1 C 0 km/h
2841 27-02-2010 01:06:05 3.8 C 3.64 g/m*3 3.8 C 0 km/h
2842 27-02-2010 01:18:05 3.9 C 3.73 g/m*3 3.9 C 0 km/h
2843 27-02-2010 01:30:05 4 C 3.62 g/m*3 4 C 0 km/h
2844 27-02-2010 01:42:05 4.1 C 3.58 g/m*3 4.1 C 0 km/h
2845 27-02-2010 01:54:05 3.7 C 3.68 g/m*3 3.7 C 0 km/h
2846 27-02-2010 02:06:05 3.2 C 3.74 g/m*3 3.2 C 0 km/h
2847 27-02-2010 02:18:05 2.8 C 3.75 g/m*3 2.8 C 0 km/h
2848 27-02-2010 02:30:05 3.1 C 3.77 g/m*3 3.1 C 0 km/h
2849 27-02-2010 02:42:05 3.1 C 3.77 g/m*3 3.1 C 0 km/h
2850 27-02-2010 02:54:05 3.2 C 3.74 g/m*3 3.2 C 0 km/h
Sensor: Nr:Datum:Temp:Abs-Feuchte:Windchill:Wind:
Aussen-T/F 2851 27-02-2010 03:06:05 3.3 C 3.76 g/m*3 3.3 C 0 km/h
2852 27-02-2010 03:18:05 3.5 C 3.69 g/m*3 3.5 C 0 km/h
2853 27-02-2010 03:30:05 3.7 C 3.74 g/m*3 3.7 C 0 km/h
2854 27-02-2010 03:42:05 3.6 C 3.78 g/m*3 3.6 C 0 km/h
2855 27-02-2010 03:54:05 3.5 C 3.81 g/m*3 3.5 C 0 km/h
2856 27-02-2010 04:06:06 3.4 C 3.79 g/m*3 3.4 C 0 km/h
2857 27-02-2010 04:18:06 3.3 C 3.88 g/m*3 3.3 C 0 km/h
2858 27-02-2010 04:30:06 3.4 C 3.97 g/m*3 3.4 C 0 km/h
2859 27-02-2010 04:42:06 3.6 C 4.09 g/m*3 3.6 C 0 km/h
2860 27-02-2010 04:54:06 4.1 C 4.16 g/m*3 4.1 C 0 km/h
2861 27-02-2010 05:06:06 4 C 4.07 g/m*3 4 C 0 km/h
2862 27-02-2010 05:18:06 3.9 C 4.17 g/m*3 3.9 C 0 km/h
2863 27-02-2010 05:30:06 3.9 C 4.23 g/m*3 3.9 C 0 km/h
2864 27-02-2010 05:42:06 3.8 C 4.2 g/m*3 3.8 C 0 km/h
2865 27-02-2010 05:54:06 3.6 C 4.21 g/m*3 3.6 C 0 km/h
2866 27-02-2010 06:06:06 4 C 4.26 g/m*3 4 C 0 km/h
2867 27-02-2010 06:18:06 4.3 C 4.28 g/m*3 4.3 C 0 km/h
2868 27-02-2010 06:30:06 4.3 C 4.22 g/m*3 4.3 C 0 km/h
2869 27-02-2010 06:42:06 4.4 C 4.31 g/m*3 4.4 C 0 km/h
2870 27-02-2010 06:54:06 4.6 C 4.37 g/m*3 4.6 C 0 km/h
2871 27-02-2010 07:06:06 4.4 C 4.31 g/m*3 4.4 C 0 km/h
2872 27-02-2010 07:18:06 4.7 C 4.46 g/m*3 4.7 C 0 km/h
2873 27-02-2010 07:30:06 4.8 C 4.49 g/m*3 4.8 C 0 km/h
2874 27-02-2010 07:42:06 5.2 C 4.54 g/m*3 5.2 C 0 km/h
2875 27-02-2010 07:54:06 5.3 C 4.57 g/m*3 5.3 C 0 km/h
Sensor: Nr:Datum:Temp:Abs-Feuchte:Windchill:Wind:
Aussen-T/F 2876 27-02-2010 08:06:07 5.4 C 4.6 g/m*3 5.4 C 0 km/h
2877 27-02-2010 08:18:07 5.6 C 4.67 g/m*3 5.6 C 0 km/h
2878 27-02-2010 08:30:07 5.8 C 4.66 g/m*3 5.8 C 0 km/h
2879 27-02-2010 08:42:03 6.4 C 4.62 g/m*3 6.4 C 0 km/h
2880 27-02-2010 08:54:01 6.5 C 4.57 g/m*3 6.5 C 0 km/h
2881 27-02-2010 09:06:02 6.6 C 4.6 g/m*3 6.6 C 0 km/h
2882 27-02-2010 09:18:02 6.8 C 4.59 g/m*3 6.8 C 0 km/h
2883 27-02-2010 09:30:02 7 C 4.49 g/m*3 7 C 0 km/h
2884 27-02-2010 09:42:01 7.1 C 4.45 g/m*3 7.1 C 0 km/h
2885 27-02-2010 09:54:02 7.3 C 4.5 g/m*3 7.3 C 0 km/h
2886 27-02-2010 10:06:01 7.5 C 4.48 g/m*3 7.5 C 0 km/h
2887 27-02-2010 10:18:02 7.6 C 4.43 g/m*3 7.6 C 0 km/h
2888 27-02-2010 10:30:02 8.1 C 4.49 g/m*3 8.1 C 0 km/h
2889 27-02-2010 10:42:01 8.7 C 4.58 g/m*3 8.7 C 0 km/h
2890 27-02-2010 10:54:03 8.6 C 4.55 g/m*3 8.6 C 0 km/h
2891 27-02-2010 11:06:02 8.7 C 4.5 g/m*3 8.7 C 0 km/h
2892 27-02-2010 11:18:02 9.1 C 4.53 g/m*3 9.1 C 0 km/h
2893 27-02-2010 11:30:03 9.3 C 4.49 g/m*3 9.3 C 0 km/h
2894 27-02-2010 11:42:02 9.3 C 4.31 g/m*3 9.3 C 0 km/h
2895 27-02-2010 11:54:02 9.3 C 4.31 g/m*3 9.3 C 0 km/h
2896 27-02-2010 12:06:02 9.4 C 4.34 g/m*3 9.4 C 0 km/h
2897 27-02-2010 12:18:02 9.8 C 4.36 g/m*3 9.8 C 0 km/h
2898 27-02-2010 12:30:02 10.1 C 4.35 g/m*3 10.1 C 0 km/h
2899 27-02-2010 12:42:02 10.8 C 4.35 g/m*3 10.8 C 0 km/h
2900 27-02-2010 12:54:02 11.2 C 4.16 g/m*3 11.2 C 0 km/h
Sensor: Nr:Datum:Temp:Abs-Feuchte:Windchill:Wind:
Aussen-T/F 2901 27-02-2010 13:06:01 11.8 C 4.1 g/m*3 11.8 C 0 km/h
2902 27-02-2010 13:18:01 11.8 C 3.68 g/m*3 11.8 C 0 km/h
2903 27-02-2010 13:30:01 12.3 C 3.58 g/m*3 12.3 C 0 km/h
2904 27-02-2010 13:42:02 12.9 C 3.49 g/m*3 12.9 C 0 km/h
2905 27-02-2010 13:54:02 12.9 C 3.38 g/m*3 12.9 C 0 km/h
2906 27-02-2010 14:06:02 13.4 C 3.49 g/m*3 13.4 C 0 km/h
2907 27-02-2010 14:18:02 14.2 C 3.42 g/m*3 14.2 C 0 km/h
2908 27-02-2010 14:30:02 14.5 C 3.23 g/m*3 14.5 C 0 km/h
2909 27-02-2010 14:42:02 14.8 C 3.17 g/m*3 14.8 C 0 km/h
2910 27-02-2010 14:54:01 14.9 C 2.8 g/m*3 14.9 C 0 km/h
2911 27-02-2010 15:06:02 14.8 C 2.79 g/m*3 14.8 C 0 km/h
2912 27-02-2010 15:18:01 15.5 C 2.78 g/m*3 15.5 C 0 km/h
2913 27-02-2010 15:30:01 15.9 C 2.84 g/m*3 15.9 C 0 km/h
2914 27-02-2010 15:42:02 15.6 C 2.93 g/m*3 15.6 C 0 km/h
2915 27-02-2010 15:54:02 15.7 C 3.08 g/m*3 15.7 C 0 km/h
2916 27-02-2010 16:06:02 15.7 C 2.81 g/m*3 15.7 C 0 km/h
2917 27-02-2010 16:18:01 14.8 C 2.66 g/m*3 14.8 C 0 km/h
2918 27-02-2010 16:30:01 15 C 2.56 g/m*3 15 C 0 km/h
2919 27-02-2010 16:42:02 14.3 C 2.46 g/m*3 14.3 C 0 km/h
2920 27-02-2010 16:54:02 14.6 C 2.5 g/m*3 14.6 C 0 km/h
2921 27-02-2010 17:06:02 15.7 C 2.68 g/m*3 15.7 C 0 km/h
2922 27-02-2010 17:18:02 14.4 C 2.47 g/m*3 14.4 C 0 km/h
2923 27-02-2010 17:30:02 13.5 C 2.57 g/m*3 13.5 C 0 km/h
2924 27-02-2010 17:42:02 12.9 C 3.38 g/m*3 12.9 C 0 km/h
2925 27-02-2010 17:54:02 11.7 C 3.66 g/m*3 11.7 C 0 km/h
Sensor: Nr:Datum:Temp:Abs-Feuchte:Windchill:Wind:
Aussen-T/F 2926 27-02-2010 18:06:02 11 C 3.7 g/m*3 11 C 0 km/h
2927 27-02-2010 18:18:03 10.5 C 3.88 g/m*3 10.5 C 0 km/h
2928 27-02-2010 18:30:03 10.2 C 3.81 g/m*3 10.2 C 0 km/h
2929 27-02-2010 18:42:02 10 C 3.95 g/m*3 10 C 0 km/h
2930 27-02-2010 18:54:02 9.9 C 4.2 g/m*3 9.9 C 0 km/h
2931 27-02-2010 19:06:02 9.8 C 4.27 g/m*3 9.8 C 0 km/h
2932 27-02-2010 19:18:02 10 C 4.23 g/m*3 10 C 0 km/h
2933 27-02-2010 19:30:02 10 C 4.23 g/m*3 10 C 0 km/h
2934 27-02-2010 19:42:02 9.8 C 4.18 g/m*3 9.8 C 0 km/h
2935 27-02-2010 19:54:02 9.8 C 4.18 g/m*3 9.8 C 0 km/h
2936 27-02-2010 20:06:02 10 C 4.13 g/m*3 10 C 0 km/h
2937 27-02-2010 20:18:02 9.9 C 4.2 g/m*3 9.9 C 0 km/h
2938 27-02-2010 20:30:02 9.7 C 4.15 g/m*3 9.7 C 0 km/h
2939 27-02-2010 20:42:02 9.9 C 4.01 g/m*3 9.9 C 0 km/h
2940 27-02-2010 20:54:02 9.8 C 4.18 g/m*3 9.8 C 0 km/h
2941 27-02-2010 21:06:01 9.6 C 3.94 g/m*3 9.6 C 0 km/h
2942 27-02-2010 21:18:02 9.6 C 3.94 g/m*3 9.6 C 0 km/h
2943 27-02-2010 21:30:02 9.6 C 3.94 g/m*3 9.6 C 0 km/h
2944 27-02-2010 21:42:01 9.7 C 3.69 g/m*3 9.7 C 0 km/h
2945 27-02-2010 21:54:03 9.6 C 3.66 g/m*3 9.6 C 0 km/h
2946 27-02-2010 22:06:03 9.7 C 3.78 g/m*3 9.7 C 0 km/h
2947 27-02-2010 22:18:02 9.8 C 3.71 g/m*3 9.8 C 0 km/h
2948 27-02-2010 22:30:02 9.8 C 3.71 g/m*3 9.8 C 0 km/h
2949 27-02-2010 22:43:02 9.9 C 3.64 g/m*3 9.9 C 0 km/h
2950 27-02-2010 22:55:02 9.8 C 3.71 g/m*3 9.8 C 0 km/h
Sensor: Nr:Datum:Temp:Abs-Feuchte:Windchill:Wind:
Aussen-T/F 2951 27-02-2010 23:07:02 9.8 C 3.71 g/m*3 9.8 C 0 km/h
2952 27-02-2010 23:19:02 9.7 C 3.69 g/m*3 9.7 C 0 km/h
2953 27-02-2010 23:31:02 9.6 C 3.66 g/m*3 9.6 C 0 km/h
2954 27-02-2010 23:43:03 9.6 C 3.76 g/m*3 9.6 C 0 km/h
2955 27-02-2010 23:55:03 9.4 C 3.8 g/m*3 9.4 C 0 km/h
2956 28-02-2010 00:07:03 9.3 C 3.77 g/m*3 9.3 C 0 km/h
2957 28-02-2010 00:19:03 8.9 C 4.2 g/m*3 8.9 C 0 km/h
2958 28-02-2010 00:31:03 8.6 C 4.04 g/m*3 8.6 C 0 km/h
2959 28-02-2010 00:43:03 8.5 C 4.44 g/m*3 8.5 C 0 km/h
2960 28-02-2010 00:55:03 7.3 C 4.98 g/m*3 7.3 C 0 km/h
2961 28-02-2010 01:07:03 6.9 C 5.54 g/m*3 6.9 C 0 km/h
2962 28-02-2010 01:19:03 6.6 C 5.59 g/m*3 6.6 C 0 km/h
2963 28-02-2010 01:31:03 6.4 C 5.74 g/m*3 6.4 C 0 km/h
2964 28-02-2010 01:43:03 6.4 C 5.89 g/m*3 6.4 C 0 km/h
2965 28-02-2010 01:55:03 6.2 C 5.88 g/m*3 6.2 C 0 km/h
2966 28-02-2010 02:07:03 6.2 C 6.03 g/m*3 6.2 C 0 km/h
2967 28-02-2010 02:19:03 6.2 C 6.1 g/m*3 6.2 C 0 km/h
2968 28-02-2010 02:31:03 5.9 C 6.06 g/m*3 5.9 C 0 km/h
2969 28-02-2010 02:43:03 5.9 C 6.13 g/m*3 5.9 C 0 km/h
2970 28-02-2010 02:55:03 5.8 C 6.09 g/m*3 5.8 C 0 km/h
2971 28-02-2010 03:07:03 5.8 C 6.16 g/m*3 5.8 C 0 km/h
2972 28-02-2010 03:19:03 5.7 C 6.12 g/m*3 5.7 C 0 km/h
2973 28-02-2010 03:31:03 5.7 C 6.12 g/m*3 5.7 C 0 km/h
2974 28-02-2010 03:43:03 5.7 C 6.12 g/m*3 5.7 C 0 km/h
2975 28-02-2010 03:55:04 5.8 C 6.09 g/m*3 5.8 C 0 km/h
Sensor: Nr:Datum:Temp:Abs-Feuchte:Windchill:Wind:
Aussen-T/F 2976 28-02-2010 04:07:04 5.9 C 6.13 g/m*3 5.9 C 0 km/h
2977 28-02-2010 04:19:04 6 C 6.17 g/m*3 6 C 0 km/h
2978 28-02-2010 04:31:04 6.3 C 6.29 g/m*3 6.3 C 0 km/h
2979 28-02-2010 04:43:04 6.3 C 6.37 g/m*3 6.3 C 0 km/h
2980 28-02-2010 04:55:04 6.1 C 6.28 g/m*3 6.1 C 0 km/h
2981 28-02-2010 05:07:04 6.1 C 6.36 g/m*3 6.1 C 0 km/h
2982 28-02-2010 05:19:04 6.3 C 6.44 g/m*3 6.3 C 0 km/h
2983 28-02-2010 05:31:04 6.3 C 6.44 g/m*3 6.3 C 0 km/h
2984 28-02-2010 05:43:04 6.3 C 6.44 g/m*3 6.3 C 0 km/h
2985 28-02-2010 05:55:04 6.3 C 6.44 g/m*3 6.3 C 0 km/h
2986 28-02-2010 06:07:04 6.1 C 6.43 g/m*3 6.1 C 0 km/h
2987 28-02-2010 06:19:04 6.3 C 6.51 g/m*3 6.3 C 0 km/h
2988 28-02-2010 06:31:04 6.2 C 6.47 g/m*3 6.2 C 0 km/h
2989 28-02-2010 06:43:04 6.1 C 6.5 g/m*3 6.1 C 0 km/h
2990 28-02-2010 06:55:04 6.1 C 6.5 g/m*3 6.1 C 0 km/h
2991 28-02-2010 07:07:04 6.3 C 6.66 g/m*3 6.3 C 0 km/h
2992 28-02-2010 07:19:04 6.3 C 6.66 g/m*3 6.3 C 0 km/h
2993 28-02-2010 07:31:04 6.2 C 6.69 g/m*3 6.2 C 0 km/h
2994 28-02-2010 07:43:04 6.3 C 6.74 g/m*3 6.3 C 0 km/h
2995 28-02-2010 07:55:04 6.4 C 6.85 g/m*3 6.4 C 0 km/h
2996 28-02-2010 08:07:01 6.5 C 6.9 g/m*3 6.5 C 0 km/h
2997 28-02-2010 08:19:02 6.7 C 7.07 g/m*3 6.7 C 0 km/h
2998 28-02-2010 08:31:02 6.9 C 7.16 g/m*3 6.9 C 0 km/h
2999 28-02-2010 08:43:02 7 C 7.13 g/m*3 7 C 0 km/h
3000 28-02-2010 08:55:01 7.3 C 7.35 g/m*3 7.3 C 0 km/h
Sensor: Nr:Datum:Temp:Abs-Feuchte:Windchill:Wind:
Aussen-T/F 3001 28-02-2010 09:07:02 7.9 C 7.47 g/m*3 7.9 C 0 km/h
3002 28-02-2010 09:19:02 8.2 C 7.2 g/m*3 8.2 C 0 km/h
3003 28-02-2010 09:31:01 8.5 C 7.09 g/m*3 8.5 C 0 km/h
3004 28-02-2010 09:43:01 8.8 C 6.96 g/m*3 8.8 C 0 km/h
3005 28-02-2010 09:55:01 8.8 C 6.88 g/m*3 8.8 C 0 km/h
3006 28-02-2010 10:07:02 8.9 C 6.75 g/m*3 8.9 C 0 km/h
3007 28-02-2010 10:19:02 9.3 C 6.65 g/m*3 9.3 C 0 km/h
3008 28-02-2010 10:31:01 9.6 C 6.69 g/m*3 9.6 C 0 km/h
3009 28-02-2010 10:43:01 9.8 C 6.87 g/m*3 9.8 C 0 km/h
3010 28-02-2010 10:55:01 10.2 C 6.66 g/m*3 10.2 C 0 km/h
3011 28-02-2010 11:07:02 10.7 C 6.78 g/m*3 10.7 C 0 km/h
3012 28-02-2010 11:19:02 12.3 C 5.97 g/m*3 12.3 C 0 km/h
3013 28-02-2010 11:31:01 13.2 C 5.28 g/m*3 13.2 C 0 km/h
3014 28-02-2010 11:43:01 13 C 5.22 g/m*3 13 C 0 km/h
3015 28-02-2010 11:55:01 13 C 4.65 g/m*3 13 C 0 km/h
3016 28-02-2010 12:07:01 13 C 4.65 g/m*3 13 C 0 km/h
3017 28-02-2010 12:19:02 12.7 C 4.56 g/m*3 12.7 C 0 km/h
3018 28-02-2010 12:31:01 13 C 4.31 g/m*3 13 C 0 km/h
3019 28-02-2010 12:43:01 12.6 C 4.54 g/m*3 12.6 C 0 km/h
3020 28-02-2010 12:55:02 12.5 C 4.29 g/m*3 12.5 C 0 km/h
3021 28-02-2010 13:07:01 12.5 C 4.18 g/m*3 12.5 C 0 km/h
3022 28-02-2010 13:19:02 12.2 C 4.1 g/m*3 12.2 C 0 km/h
3023 28-02-2010 13:31:01 11.9 C 3.92 g/m*3 11.9 C 0 km/h
3024 28-02-2010 13:43:01 11.8 C 3.89 g/m*3 11.8 C 0 km/h
3025 28-02-2010 13:55:02 11.8 C 3.79 g/m*3 11.8 C 0 km/h
Sensor: Nr:Datum:Temp:Abs-Feuchte:Windchill:Wind:
Aussen-T/F 3026 28-02-2010 14:07:42 11.6 C 3.64 g/m*3 11.6 C 0 km/h
3027 28-02-2010 14:19:02 11.4 C 3.59 g/m*3 11.4 C 0 km/h
3028 28-02-2010 14:31:02 11.1 C 3.63 g/m*3 11.1 C 0 km/h
3029 28-02-2010 14:43:02 10.7 C 3.83 g/m*3 10.7 C 0 km/h
3030 28-02-2010 14:55:02 10.5 C 3.88 g/m*3 10.5 C 0 km/h
3031 28-02-2010 15:07:01 10.6 C 3.9 g/m*3 10.6 C 0 km/h
3032 28-02-2010 15:19:02 10.5 C 3.88 g/m*3 10.5 C 0 km/h
3033 28-02-2010 15:31:01 9.7 C 4.52 g/m*3 9.7 C 0 km/h
3034 28-02-2010 15:43:01 10 C 4.51 g/m*3 10 C 0 km/h
3035 28-02-2010 15:55:03 10 C 4.32 g/m*3 10 C 0 km/h
3036 28-02-2010 16:07:02 10 C 4.42 g/m*3 10 C 0 km/h
3037 28-02-2010 16:19:02 9.8 C 4.45 g/m*3 9.8 C 0 km/h
3038 28-02-2010 16:31:02 9.6 C 4.49 g/m*3 9.6 C 0 km/h
3039 28-02-2010 16:43:02 9.5 C 4.64 g/m*3 9.5 C 0 km/h
3040 28-02-2010 16:55:02 9.2 C 4.64 g/m*3 9.2 C 0 km/h
3041 28-02-2010 17:07:02 9.2 C 4.64 g/m*3 9.2 C 0 km/h
3042 28-02-2010 17:19:02 9.2 C 4.64 g/m*3 9.2 C 0 km/h
3043 28-02-2010 17:31:02 9.1 C 4.53 g/m*3 9.1 C 0 km/h
3044 28-02-2010 17:43:02 8.9 C 4.56 g/m*3 8.9 C 0 km/h
3045 28-02-2010 17:55:02 8.7 C 4.76 g/m*3 8.7 C 0 km/h
3046 28-02-2010 18:07:01 8.2 C 5.02 g/m*3 8.2 C 0 km/h
3047 28-02-2010 18:19:02 8.1 C 4.99 g/m*3 8.1 C 0 km/h
3048 28-02-2010 18:31:01 8.2 C 5.02 g/m*3 8.2 C 0 km/h
3049 28-02-2010 18:43:01 8.2 C 4.94 g/m*3 8.2 C 0 km/h
3050 28-02-2010 18:55:03 8 C 5.13 g/m*3 8 C 0 km/h
Sensor: Nr:Datum:Temp:Abs-Feuchte:Windchill:Wind:
Aussen-T/F 3051 28-02-2010 19:07:02 7.9 C 5.09 g/m*3 7.9 C 0 km/h
3052 28-02-2010 19:19:03 8 C 4.88 g/m*3 8 C 0 km/h
3053 28-02-2010 19:31:03 8.1 C 4.74 g/m*3 8.1 C 0 km/h
3054 28-02-2010 19:43:03 8 C 4.71 g/m*3 8 C 0 km/h
3055 28-02-2010 19:55:02 8.1 C 4.74 g/m*3 8.1 C 0 km/h
3056 28-02-2010 20:07:03 8 C 4.71 g/m*3 8 C 0 km/h
3057 28-02-2010 20:19:02 7.8 C 4.9 g/m*3 7.8 C 0 km/h
3058 28-02-2010 20:31:01 7.8 C 4.98 g/m*3 7.8 C 0 km/h
3059 28-02-2010 20:43:01 7.7 C 4.95 g/m*3 7.7 C 0 km/h
3060 28-02-2010 20:55:01 7.8 C 4.73 g/m*3 7.8 C 0 km/h
3061 28-02-2010 21:07:02 7.8 C 4.57 g/m*3 7.8 C 0 km/h
3062 28-02-2010 21:19:02 7.6 C 4.51 g/m*3 7.6 C 0 km/h
3063 28-02-2010 21:31:02 7.5 C 4.56 g/m*3 7.5 C 0 km/h
3064 28-02-2010 21:43:02 7.6 C 4.51 g/m*3 7.6 C 0 km/h
3065 28-02-2010 21:55:02 7.7 C 4.54 g/m*3 7.7 C 0 km/h
3066 28-02-2010 22:08:03 7.6 C 4.51 g/m*3 7.6 C 0 km/h
3067 28-02-2010 22:20:03 7.5 C 4.48 g/m*3 7.5 C 0 km/h
3068 28-02-2010 22:32:03 7.4 C 4.53 g/m*3 7.4 C 0 km/h
3069 28-02-2010 22:44:03 7.1 C 4.68 g/m*3 7.1 C 0 km/h
3070 28-02-2010 22:56:03 7 C 4.65 g/m*3 7 C 0 km/h
3071 28-02-2010 23:08:03 7 C 4.8 g/m*3 7 C 0 km/h
3072 28-02-2010 23:20:03 7 C 4.8 g/m*3 7 C 0 km/h
3073 28-02-2010 23:32:03 6.9 C 4.93 g/m*3 6.9 C 0 km/h
3074 28-02-2010 23:44:03 6.7 C 4.94 g/m*3 6.7 C 0 km/h
3075 28-02-2010 23:56:03 6.6 C 4.98 g/m*3 6.6 C 0 km/h
Sensor: Nr:Datum:Temp:Abs-Feuchte:Windchill:Wind:
Aussen-T/F 3076 01-03-2010 00:08:03 6.3 C 4.89 g/m*3 6.3 C 0 km/h
3077 01-03-2010 00:20:04 6.1 C 4.89 g/m*3 6.1 C 0 km/h
3078 01-03-2010 00:32:04 6.2 C 4.85 g/m*3 6.2 C 0 km/h
3079 01-03-2010 00:44:04 6.1 C 4.75 g/m*3 6.1 C 0 km/h
3080 01-03-2010 00:56:04 6.1 C 4.6 g/m*3 6.1 C 0 km/h
3081 01-03-2010 01:08:04 5.9 C 4.76 g/m*3 5.9 C 0 km/h
3082 01-03-2010 01:20:04 5.7 C 4.7 g/m*3 5.7 C 0 km/h
3083 01-03-2010 01:32:04 5.8 C 4.37 g/m*3 5.8 C 0 km/h
3084 01-03-2010 01:44:04 5.7 C 4.34 g/m*3 5.7 C 0 km/h
3085 01-03-2010 01:56:04 5.8 C 4.23 g/m*3 5.8 C 0 km/h
3086 01-03-2010 02:08:04 5.8 C 4.23 g/m*3 5.8 C 0 km/h
3087 01-03-2010 02:20:04 5.7 C 3.99 g/m*3 5.7 C 0 km/h
3088 01-03-2010 02:32:04 5.6 C 3.96 g/m*3 5.6 C 0 km/h
3089 01-03-2010 02:44:05 5.5 C 3.93 g/m*3 5.5 C 0 km/h
3090 01-03-2010 02:56:05 5.4 C 4.05 g/m*3 5.4 C 0 km/h
3091 01-03-2010 03:08:05 5.3 C 4.09 g/m*3 5.3 C 0 km/h
3092 01-03-2010 03:20:05 5 C 4.14 g/m*3 5 C 0 km/h
3093 01-03-2010 03:32:05 5 C 4.14 g/m*3 5 C 0 km/h
3094 01-03-2010 03:44:05 4.9 C 4.12 g/m*3 4.9 C 0 km/h
3095 01-03-2010 03:56:05 4.8 C 4.09 g/m*3 4.8 C 0 km/h
3096 01-03-2010 04:08:05 4.7 C 4.13 g/m*3 4.7 C 0 km/h
3097 01-03-2010 04:20:05 4.6 C 4.17 g/m*3 4.6 C 0 km/h
3098 01-03-2010 04:32:05 4.6 C 4.23 g/m*3 4.6 C 0 km/h
3099 01-03-2010 04:44:05 4.7 C 4.33 g/m*3 4.7 C 0 km/h
3100 01-03-2010 04:56:05 4.8 C 4.36 g/m*3 4.8 C 0 km/h
Sensor: Nr:Datum:Temp:Abs-Feuchte:Windchill:Wind:
Aussen-T/F 3101 01-03-2010 05:08:05 4.4 C 4.7 g/m*3 4.4 C 0 km/h
3102 01-03-2010 05:20:05 4.1 C 4.99 g/m*3 4.1 C 0 km/h
3103 01-03-2010 05:32:05 3.8 C 5.08 g/m*3 3.8 C 0 km/h
3104 01-03-2010 05:44:05 3.5 C 5.04 g/m*3 3.5 C 0 km/h
3105 01-03-2010 05:56:05 3.5 C 5.04 g/m*3 3.5 C 0 km/h
3106 01-03-2010 06:08:05 3.4 C 5.01 g/m*3 3.4 C 0 km/h
3107 01-03-2010 06:20:05 3.4 C 5.01 g/m*3 3.4 C 0 km/h
3108 01-03-2010 06:32:05 3.6 C 4.89 g/m*3 3.6 C 0 km/h
3109 01-03-2010 06:44:05 3.8 C 4.77 g/m*3 3.8 C 0 km/h
3110 01-03-2010 06:56:05 4 C 4.64 g/m*3 4 C 0 km/h
3111 01-03-2010 07:08:05 4.1 C 4.48 g/m*3 4.1 C 0 km/h
3112 01-03-2010 07:20:03 4.2 C 4.38 g/m*3 4.2 C 0 km/h
3113 01-03-2010 07:32:03 4.2 C 4.12 g/m*3 4.2 C 0 km/h
3114 01-03-2010 07:44:03 4.4 C 3.92 g/m*3 4.4 C 0 km/h
3115 01-03-2010 07:56:02 4.6 C 3.77 g/m*3 4.6 C 0 km/h
3116 01-03-2010 08:08:02 4.6 C 3.71 g/m*3 4.6 C 0 km/h
3117 01-03-2010 08:20:02 4.8 C 3.69 g/m*3 4.8 C 0 km/h
3118 01-03-2010 08:32:02 4.9 C 3.71 g/m*3 4.9 C 0 km/h
3119 01-03-2010 08:44:02 5 C 3.67 g/m*3 5 C 0 km/h
3120 01-03-2010 08:56:01 5.1 C 3.69 g/m*3 5.1 C 0 km/h
3121 01-03-2010 09:08:02 5.2 C 3.86 g/m*3 5.2 C 0 km/h
3122 01-03-2010 09:20:01 5.3 C 4.02 g/m*3 5.3 C 0 km/h
3123 01-03-2010 09:32:02 5.4 C 3.91 g/m*3 5.4 C 0 km/h
3124 01-03-2010 09:44:02 5.6 C 3.96 g/m*3 5.6 C 0 km/h
3125 01-03-2010 09:56:01 5.8 C 4.01 g/m*3 5.8 C 0 km/h
Sensor: Nr:Datum:Temp:Abs-Feuchte:Windchill:Wind:
Aussen-T/F 3126 01-03-2010 10:08:02 6 C 3.7 g/m*3 6 C 0 km/h
3127 01-03-2010 10:20:01 6.2 C 3.6 g/m*3 6.2 C 0 km/h
3128 01-03-2010 10:32:02 6.4 C 3.65 g/m*3 6.4 C 0 km/h
3129 01-03-2010 10:44:02 6.3 C 3.48 g/m*3 6.3 C 0 km/h
3130 01-03-2010 10:56:01 6.4 C 3.5 g/m*3 6.4 C 0 km/h
3131 01-03-2010 11:08:02 6.7 C 3.5 g/m*3 6.7 C 0 km/h
3132 01-03-2010 11:20:02 6.6 C 3.47 g/m*3 6.6 C 0 km/h
3133 01-03-2010 11:32:02 6.3 C 3.41 g/m*3 6.3 C 0 km/h
3134 01-03-2010 11:44:02 6.6 C 3.47 g/m*3 6.6 C 0 km/h
3135 01-03-2010 11:56:01 7 C 3.33 g/m*3 7 C 0 km/h
3136 01-03-2010 12:08:02 7 C 3.33 g/m*3 7 C 0 km/h
3137 01-03-2010 12:20:02 7.2 C 3.3 g/m*3 7.2 C 0 km/h
3138 01-03-2010 12:32:01 7.5 C 3.2 g/m*3 7.5 C 0 km/h
3139 01-03-2010 12:44:01 7.9 C 3.2 g/m*3 7.9 C 0 km/h
3140 01-03-2010 12:56:02 7.8 C 3.18 g/m*3 7.8 C 0 km/h
3141 01-03-2010 13:08:01 7.7 C 3.16 g/m*3 7.7 C 0 km/h
3142 01-03-2010 13:20:02 8 C 3.14 g/m*3 8 C 0 km/h
3143 01-03-2010 13:32:01 8 C 3.06 g/m*3 8 C 0 km/h
3144 01-03-2010 13:44:01 7.8 C 3.02 g/m*3 7.8 C 0 km/h
3145 01-03-2010 13:56:01 7.7 C 3 g/m*3 7.7 C 0 km/h
3146 01-03-2010 14:08:01 7.3 C 3.16 g/m*3 7.3 C 0 km/h
3147 01-03-2010 14:20:01 7.1 C 3.2 g/m*3 7.1 C 0 km/h
3148 01-03-2010 14:32:02 7.6 C 3.22 g/m*3 7.6 C 0 km/h
3149 01-03-2010 14:44:02 7.5 C 3.2 g/m*3 7.5 C 0 km/h
3150 01-03-2010 14:56:02 7.4 C 3.18 g/m*3 7.4 C 0 km/h
Sensor: Nr:Datum:Temp:Abs-Feuchte:Windchill:Wind:
Aussen-T/F 3151 01-03-2010 15:08:02 7.3 C 3.24 g/m*3 7.3 C 0 km/h
3152 01-03-2010 15:20:02 7.6 C 3.3 g/m*3 7.6 C 0 km/h
3153 01-03-2010 15:32:02 7.5 C 3.28 g/m*3 7.5 C 0 km/h
3154 01-03-2010 15:44:02 7.4 C 3.1 g/m*3 7.4 C 0 km/h
3155 01-03-2010 15:56:02 7.3 C 3 g/m*3 7.3 C 0 km/h
3156 01-03-2010 16:08:01 7.3 C 3.08 g/m*3 7.3 C 0 km/h
3157 01-03-2010 16:20:02 7.3 C 3.08 g/m*3 7.3 C 0 km/h
3158 01-03-2010 16:32:02 7.3 C 3.08 g/m*3 7.3 C 0 km/h
3159 01-03-2010 16:44:02 7.3 C 3.08 g/m*3 7.3 C 0 km/h
3160 01-03-2010 16:56:02 7.2 C 3.06 g/m*3 7.2 C 0 km/h
3161 01-03-2010 17:08:03 7.1 C 3.12 g/m*3 7.1 C 0 km/h
3162 01-03-2010 17:20:02 6.9 C 3.08 g/m*3 6.9 C 0 km/h
3163 01-03-2010 17:32:02 6.8 C 3.06 g/m*3 6.8 C 0 km/h
3164 01-03-2010 17:44:02 6.8 C 3.14 g/m*3 6.8 C 0 km/h
3165 01-03-2010 17:56:01 6.7 C 3.12 g/m*3 6.7 C 0 km/h
3166 01-03-2010 18:08:02 6.5 C 3.22 g/m*3 6.5 C 0 km/h
3167 01-03-2010 18:20:01 6.4 C 3.5 g/m*3 6.4 C 0 km/h
3168 01-03-2010 18:32:01 6 C 3.56 g/m*3 6 C 0 km/h
3169 01-03-2010 18:44:01 5.8 C 3.72 g/m*3 5.8 C 0 km/h
3170 01-03-2010 18:56:01 5.7 C 3.77 g/m*3 5.7 C 0 km/h
3171 01-03-2010 19:08:02 5.6 C 3.68 g/m*3 5.6 C 0 km/h
3172 01-03-2010 19:20:01 5.6 C 3.53 g/m*3 5.6 C 0 km/h
3173 01-03-2010 19:32:02 5.4 C 3.56 g/m*3 5.4 C 0 km/h
3174 01-03-2010 19:44:02 5.3 C 3.53 g/m*3 5.3 C 0 km/h
3175 01-03-2010 19:56:02 5.1 C 3.42 g/m*3 5.1 C 0 km/h
Sensor: Nr:Datum:Temp:Abs-Feuchte:Windchill:Wind:
Aussen-T/F 3176 01-03-2010 20:08:03 5 C 3.4 g/m*3 5 C 0 km/h
3177 01-03-2010 20:20:02 5.1 C 3.42 g/m*3 5.1 C 0 km/h
3178 01-03-2010 20:32:02 4.6 C 3.44 g/m*3 4.6 C 0 km/h
3179 01-03-2010 20:44:02 4.4 C 3.46 g/m*3 4.4 C 0 km/h
3180 01-03-2010 20:56:02 4.4 C 3.4 g/m*3 4.4 C 0 km/h
3181 01-03-2010 21:08:02 3.8 C 3.51 g/m*3 3.8 C 0 km/h
3182 01-03-2010 21:20:02 3.4 C 3.54 g/m*3 3.4 C 0 km/h
3183 01-03-2010 21:32:01 3.4 C 3.6 g/m*3 3.4 C 0 km/h
3184 01-03-2010 21:44:01 3.3 C 3.64 g/m*3 3.3 C 0 km/h
3185 01-03-2010 21:56:02 3.1 C 3.71 g/m*3 3.1 C 0 km/h
3186 01-03-2010 22:08:02 2.8 C 3.64 g/m*3 2.8 C 0 km/h
3187 01-03-2010 22:21:03 2.6 C 3.82 g/m*3 2.6 C 0 km/h
3188 01-03-2010 22:33:03 2.4 C 3.83 g/m*3 2.4 C 0 km/h
3189 01-03-2010 22:45:03 2.1 C 3.86 g/m*3 2.1 C 0 km/h
3190 01-03-2010 22:57:03 2 C 3.89 g/m*3 2 C 0 km/h
3191 01-03-2010 23:09:03 1.8 C 3.95 g/m*3 1.8 C 0 km/h
3192 01-03-2010 23:21:03 1.5 C 3.92 g/m*3 1.5 C 0 km/h
3193 01-03-2010 23:33:03 1.2 C 3.89 g/m*3 1.2 C 0 km/h
3194 01-03-2010 23:45:03 1.1 C 3.92 g/m*3 1.1 C 0 km/h
3195 01-03-2010 23:57:03 1.1 C 3.97 g/m*3 1.1 C 0 km/h
3196 02-03-2010 00:09:03 0.9 C 3.97 g/m*3 0.9 C 0 km/h
3197 02-03-2010 00:21:03 0.7 C 3.97 g/m*3 0.7 C 0 km/h
3198 02-03-2010 00:33:03 0.5 C 3.96 g/m*3 0.5 C 0 km/h
3199 02-03-2010 00:45:03 0.2 C 3.88 g/m*3 0.2 C 0 km/h
3200 02-03-2010 00:57:03 0.2 C 3.88 g/m*3 0.2 C 0 km/h
Sensor: Nr:Datum:Temp:Abs-Feuchte:Windchill:Wind:
Aussen-T/F 3201 02-03-2010 01:09:03 0.1 C 3.9 g/m*3 0.1 C 0 km/h
3202 02-03-2010 01:21:03 0.2 C 3.98 g/m*3 0.2 C 0 km/h
3203 02-03-2010 01:33:03 0.3 C 4.01 g/m*3 0.3 C 0 km/h
3204 02-03-2010 01:45:03 0 C 3.92 g/m*3 0 C 0 km/h
3205 02-03-2010 01:57:03 0 C 3.97 g/m*3 0 C 0 km/h
3206 02-03-2010 02:09:03 0 C 3.97 g/m*3 0 C 0 km/h
3207 02-03-2010 02:21:04 -0.2 C 3.92 g/m*3 -0.2 C 0 km/h
3208 02-03-2010 02:33:04 -0.2 C 3.97 g/m*3 -0.2 C 0 km/h
3209 02-03-2010 02:45:04 -0.4 C 3.91 g/m*3 -0.4 C 0 km/h
3210 02-03-2010 02:57:04 -0.6 C 3.86 g/m*3 -0.6 C 0 km/h
3211 02-03-2010 03:09:04 -0.7 C 3.83 g/m*3 -0.7 C 0 km/h
3212 02-03-2010 03:21:04 -0.6 C 3.86 g/m*3 -0.6 C 0 km/h
3213 02-03-2010 03:33:04 -0.7 C 3.83 g/m*3 -0.7 C 0 km/h
3214 02-03-2010 03:45:04 -0.9 C 3.82 g/m*3 -0.9 C 0 km/h
3215 02-03-2010 03:57:04 -1 C 3.8 g/m*3 -1 C 0 km/h
3216 02-03-2010 04:09:04 -1.3 C 3.72 g/m*3 -1.3 C 0 km/h
3217 02-03-2010 04:21:04 -1.3 C 3.72 g/m*3 -1.3 C 0 km/h
3218 02-03-2010 04:33:04 -1.4 C 3.69 g/m*3 -1.4 C 0 km/h
3219 02-03-2010 04:45:04 -1.2 C 3.79 g/m*3 -1.2 C 0 km/h
3220 02-03-2010 04:57:04 -1.2 C 3.79 g/m*3 -1.2 C 0 km/h
3221 02-03-2010 05:09:04 -1.1 C 3.86 g/m*3 -1.1 C 0 km/h
3222 02-03-2010 05:21:04 -1.1 C 3.86 g/m*3 -1.1 C 0 km/h
3223 02-03-2010 05:33:04 -1.1 C 3.86 g/m*3 -1.1 C 0 km/h
3224 02-03-2010 05:45:04 -1.1 C 3.86 g/m*3 -1.1 C 0 km/h
3225 02-03-2010 05:57:04 -1.4 C 3.74 g/m*3 -1.4 C 0 km/h
Sensor: Nr:Datum:Temp:Abs-Feuchte:Windchill:Wind:
Aussen-T/F 3226 02-03-2010 06:09:04 -1.6 C 3.68 g/m*3 -1.6 C 0 km/h
3227 02-03-2010 06:21:04 -1.7 C 3.66 g/m*3 -1.7 C 0 km/h
3228 02-03-2010 06:33:05 -1.8 C 3.63 g/m*3 -1.8 C 0 km/h
3229 02-03-2010 06:45:05 -1.9 C 3.65 g/m*3 -1.9 C 0 km/h
3230 02-03-2010 06:57:05 -1.9 C 3.65 g/m*3 -1.9 C 0 km/h
3231 02-03-2010 07:09:02 -2 C 3.63 g/m*3 -2 C 0 km/h
3232 02-03-2010 07:21:03 -1.8 C 3.72 g/m*3 -1.8 C 0 km/h
3233 02-03-2010 07:33:02 -1.8 C 3.72 g/m*3 -1.8 C 0 km/h
3234 02-03-2010 07:45:02 -1.6 C 3.77 g/m*3 -1.6 C 0 km/h
3235 02-03-2010 07:57:02 -1.2 C 3.92 g/m*3 -1.2 C 0 km/h
3236 02-03-2010 08:09:02 -0.9 C 4.01 g/m*3 -0.9 C 0 km/h
3237 02-03-2010 08:21:02 -0.7 C 4.06 g/m*3 -0.7 C 0 km/h
3238 02-03-2010 08:33:03 -0.7 C 4.06 g/m*3 -0.7 C 0 km/h
3239 02-03-2010 08:45:02 -0.6 C 4.09 g/m*3 -0.6 C 0 km/h
3240 02-03-2010 08:57:03 -0.6 C 4.09 g/m*3 -0.6 C 0 km/h
3241 02-03-2010 09:09:01 -0.5 C 4.07 g/m*3 -0.5 C 0 km/h
3242 02-03-2010 09:21:02 0 C 4.26 g/m*3 0 C 0 km/h
3243 02-03-2010 09:33:02 0.1 C 4.24 g/m*3 0.1 C 0 km/h